<?xml version="1.0" encoding="UTF-8" standalone="no" ?>
<gpx xmlns="http://www.topografix.com/GPX/1/1" xmlns:xsi="http://www.w3.org/2001/XMLSchema-instance" xsi:schemaLocation="http://www.topografix.com/GPX/1/1 http://www.topografix.com/GPX/1/1/gpx.xsd" version="1.1" creator="VisuGPX - https://www.visugpx.com">
  <metadata>
    <name>2017-12-09 boucle autour de St Félix-Lauragais (31)</name>
    <desc><![CDATA[boucle autour de St Félix-Lauragais par Roumens. Combinaison de 2 circuits de la communauté de communes Lauragais-Revel-Sorèzois: Le chemin des fourches et des collines - le chemin de Lalande.
]]></desc>
  </metadata>
  <trk>
    <name><![CDATA[2017-12-09 15:59:17]]></name>
    <trkseg>
      <trkpt lat="43.44918" lon="1.88793">
        <ele>374.57</ele>
        <time>2017-12-09T08:09:19Z</time>
      </trkpt>
      <trkpt lat="43.44919" lon="1.88794">
        <ele>324.1</ele>
        <time>2017-12-09T08:11:51Z</time>
      </trkpt>
      <trkpt lat="43.44919" lon="1.88791">
        <ele>324.58</ele>
        <time>2017-12-09T08:14:21Z</time>
      </trkpt>
      <trkpt lat="43.44916" lon="1.88799">
        <ele>325.06</ele>
        <time>2017-12-09T08:14:33Z</time>
      </trkpt>
      <trkpt lat="43.44917" lon="1.88827">
        <ele>325.54</ele>
        <time>2017-12-09T08:14:54Z</time>
      </trkpt>
      <trkpt lat="43.44905" lon="1.88857">
        <ele>326.5</ele>
        <time>2017-12-09T08:15:17Z</time>
      </trkpt>
      <trkpt lat="43.44903" lon="1.88862">
        <ele>326.5</ele>
        <time>2017-12-09T08:15:20Z</time>
      </trkpt>
      <trkpt lat="43.44896" lon="1.88882">
        <ele>327.47</ele>
        <time>2017-12-09T08:15:34Z</time>
      </trkpt>
      <trkpt lat="43.44903" lon="1.88887">
        <ele>327.47</ele>
        <time>2017-12-09T08:15:46Z</time>
      </trkpt>
      <trkpt lat="43.44911" lon="1.889">
        <ele>325.54</ele>
        <time>2017-12-09T08:16:04Z</time>
      </trkpt>
      <trkpt lat="43.44925" lon="1.88906">
        <ele>323.62</ele>
        <time>2017-12-09T08:16:19Z</time>
      </trkpt>
      <trkpt lat="43.44921" lon="1.88911">
        <ele>323.62</ele>
        <time>2017-12-09T08:16:31Z</time>
      </trkpt>
      <trkpt lat="43.44913" lon="1.88933">
        <ele>323.62</ele>
        <time>2017-12-09T08:16:47Z</time>
      </trkpt>
      <trkpt lat="43.44907" lon="1.88953">
        <ele>322.66</ele>
        <time>2017-12-09T08:17:01Z</time>
      </trkpt>
      <trkpt lat="43.44906" lon="1.8896">
        <ele>322.66</ele>
        <time>2017-12-09T08:17:05Z</time>
      </trkpt>
      <trkpt lat="43.44903" lon="1.88964">
        <ele>322.66</ele>
        <time>2017-12-09T08:17:09Z</time>
      </trkpt>
      <trkpt lat="43.44903" lon="1.88968">
        <ele>322.66</ele>
        <time>2017-12-09T08:17:12Z</time>
      </trkpt>
      <trkpt lat="43.449" lon="1.88991">
        <ele>322.18</ele>
        <time>2017-12-09T08:17:29Z</time>
      </trkpt>
      <trkpt lat="43.44902" lon="1.89003">
        <ele>320.26</ele>
        <time>2017-12-09T08:17:41Z</time>
      </trkpt>
      <trkpt lat="43.44901" lon="1.88999">
        <ele>319.78</ele>
        <time>2017-12-09T08:17:46Z</time>
      </trkpt>
      <trkpt lat="43.44901" lon="1.88993">
        <ele>319.3</ele>
        <time>2017-12-09T08:17:51Z</time>
      </trkpt>
      <trkpt lat="43.44901" lon="1.88986">
        <ele>318.81</ele>
        <time>2017-12-09T08:17:55Z</time>
      </trkpt>
      <trkpt lat="43.44911" lon="1.88968">
        <ele>317.37</ele>
        <time>2017-12-09T08:18:10Z</time>
      </trkpt>
      <trkpt lat="43.44923" lon="1.88951">
        <ele>314.49</ele>
        <time>2017-12-09T08:18:27Z</time>
      </trkpt>
      <trkpt lat="43.44934" lon="1.88936">
        <ele>311.6</ele>
        <time>2017-12-09T08:18:42Z</time>
      </trkpt>
      <trkpt lat="43.44945" lon="1.8893">
        <ele>309.68</ele>
        <time>2017-12-09T08:18:56Z</time>
      </trkpt>
      <trkpt lat="43.44947" lon="1.88932">
        <ele>309.2</ele>
        <time>2017-12-09T08:18:58Z</time>
      </trkpt>
      <trkpt lat="43.44952" lon="1.88947">
        <ele>308.72</ele>
        <time>2017-12-09T08:19:06Z</time>
      </trkpt>
      <trkpt lat="43.44957" lon="1.8897">
        <ele>307.28</ele>
        <time>2017-12-09T08:19:23Z</time>
      </trkpt>
      <trkpt lat="43.44959" lon="1.88982">
        <ele>306.8</ele>
        <time>2017-12-09T08:19:32Z</time>
      </trkpt>
      <trkpt lat="43.44961" lon="1.88992">
        <ele>305.84</ele>
        <time>2017-12-09T08:19:39Z</time>
      </trkpt>
      <trkpt lat="43.44962" lon="1.89013">
        <ele>304.88</ele>
        <time>2017-12-09T08:19:55Z</time>
      </trkpt>
      <trkpt lat="43.44964" lon="1.89036">
        <ele>303.43</ele>
        <time>2017-12-09T08:20:10Z</time>
      </trkpt>
      <trkpt lat="43.44963" lon="1.89051">
        <ele>302.95</ele>
        <time>2017-12-09T08:20:19Z</time>
      </trkpt>
      <trkpt lat="43.44965" lon="1.89077">
        <ele>301.03</ele>
        <time>2017-12-09T08:20:36Z</time>
      </trkpt>
      <trkpt lat="43.44965" lon="1.89079">
        <ele>301.03</ele>
        <time>2017-12-09T08:20:37Z</time>
      </trkpt>
      <trkpt lat="43.44963" lon="1.89104">
        <ele>300.07</ele>
        <time>2017-12-09T08:20:52Z</time>
      </trkpt>
      <trkpt lat="43.44963" lon="1.89118">
        <ele>299.11</ele>
        <time>2017-12-09T08:21:01Z</time>
      </trkpt>
      <trkpt lat="43.44961" lon="1.8914">
        <ele>298.15</ele>
        <time>2017-12-09T08:21:17Z</time>
      </trkpt>
      <trkpt lat="43.44964" lon="1.89167">
        <ele>296.22</ele>
        <time>2017-12-09T08:21:34Z</time>
      </trkpt>
      <trkpt lat="43.44965" lon="1.892">
        <ele>294.3</ele>
        <time>2017-12-09T08:21:54Z</time>
      </trkpt>
      <trkpt lat="43.44967" lon="1.8922">
        <ele>293.34</ele>
        <time>2017-12-09T08:22:07Z</time>
      </trkpt>
      <trkpt lat="43.44968" lon="1.89245">
        <ele>291.42</ele>
        <time>2017-12-09T08:22:22Z</time>
      </trkpt>
      <trkpt lat="43.44968" lon="1.89264">
        <ele>290.46</ele>
        <time>2017-12-09T08:22:36Z</time>
      </trkpt>
      <trkpt lat="43.4497" lon="1.89283">
        <ele>289.49</ele>
        <time>2017-12-09T08:22:48Z</time>
      </trkpt>
      <trkpt lat="43.4497" lon="1.89291">
        <ele>289.01</ele>
        <time>2017-12-09T08:22:53Z</time>
      </trkpt>
      <trkpt lat="43.44972" lon="1.89318">
        <ele>287.57</ele>
        <time>2017-12-09T08:23:10Z</time>
      </trkpt>
      <trkpt lat="43.44973" lon="1.89343">
        <ele>286.13</ele>
        <time>2017-12-09T08:23:25Z</time>
      </trkpt>
      <trkpt lat="43.44975" lon="1.8937">
        <ele>284.69</ele>
        <time>2017-12-09T08:23:42Z</time>
      </trkpt>
      <trkpt lat="43.44974" lon="1.89397">
        <ele>283.25</ele>
        <time>2017-12-09T08:23:58Z</time>
      </trkpt>
      <trkpt lat="43.44977" lon="1.89424">
        <ele>281.32</ele>
        <time>2017-12-09T08:24:15Z</time>
      </trkpt>
      <trkpt lat="43.44977" lon="1.89452">
        <ele>279.88</ele>
        <time>2017-12-09T08:24:32Z</time>
      </trkpt>
      <trkpt lat="43.44979" lon="1.89476">
        <ele>278.44</ele>
        <time>2017-12-09T08:24:46Z</time>
      </trkpt>
      <trkpt lat="43.44979" lon="1.89504">
        <ele>276.52</ele>
        <time>2017-12-09T08:25:03Z</time>
      </trkpt>
      <trkpt lat="43.44981" lon="1.89527">
        <ele>275.56</ele>
        <time>2017-12-09T08:25:17Z</time>
      </trkpt>
      <trkpt lat="43.44982" lon="1.8955">
        <ele>274.11</ele>
        <time>2017-12-09T08:25:31Z</time>
      </trkpt>
      <trkpt lat="43.44982" lon="1.89553">
        <ele>273.63</ele>
        <time>2017-12-09T08:25:33Z</time>
      </trkpt>
      <trkpt lat="43.44982" lon="1.89565">
        <ele>273.15</ele>
        <time>2017-12-09T08:25:40Z</time>
      </trkpt>
      <trkpt lat="43.44983" lon="1.89594">
        <ele>271.23</ele>
        <time>2017-12-09T08:25:58Z</time>
      </trkpt>
      <trkpt lat="43.44985" lon="1.89624">
        <ele>269.79</ele>
        <time>2017-12-09T08:26:16Z</time>
      </trkpt>
      <trkpt lat="43.44986" lon="1.89652">
        <ele>268.35</ele>
        <time>2017-12-09T08:26:33Z</time>
      </trkpt>
      <trkpt lat="43.44988" lon="1.89679">
        <ele>266.9</ele>
        <time>2017-12-09T08:26:50Z</time>
      </trkpt>
      <trkpt lat="43.4499" lon="1.89707">
        <ele>265.46</ele>
        <time>2017-12-09T08:27:08Z</time>
      </trkpt>
      <trkpt lat="43.44989" lon="1.89734">
        <ele>264.02</ele>
        <time>2017-12-09T08:27:25Z</time>
      </trkpt>
      <trkpt lat="43.44996" lon="1.89743">
        <ele>263.06</ele>
        <time>2017-12-09T08:27:39Z</time>
      </trkpt>
      <trkpt lat="43.45007" lon="1.8975">
        <ele>263.06</ele>
        <time>2017-12-09T08:27:48Z</time>
      </trkpt>
      <trkpt lat="43.45026" lon="1.89768">
        <ele>263.54</ele>
        <time>2017-12-09T08:28:06Z</time>
      </trkpt>
      <trkpt lat="43.45044" lon="1.89785">
        <ele>264.98</ele>
        <time>2017-12-09T08:28:24Z</time>
      </trkpt>
      <trkpt lat="43.4506" lon="1.89802">
        <ele>263.06</ele>
        <time>2017-12-09T08:28:40Z</time>
      </trkpt>
      <trkpt lat="43.45077" lon="1.89817">
        <ele>262.1</ele>
        <time>2017-12-09T08:28:57Z</time>
      </trkpt>
      <trkpt lat="43.45093" lon="1.89832">
        <ele>260.17</ele>
        <time>2017-12-09T08:29:14Z</time>
      </trkpt>
      <trkpt lat="43.4511" lon="1.89848">
        <ele>259.21</ele>
        <time>2017-12-09T08:29:31Z</time>
      </trkpt>
      <trkpt lat="43.45125" lon="1.89869">
        <ele>258.73</ele>
        <time>2017-12-09T08:29:49Z</time>
      </trkpt>
      <trkpt lat="43.45121" lon="1.89891">
        <ele>258.25</ele>
        <time>2017-12-09T08:30:03Z</time>
      </trkpt>
      <trkpt lat="43.4511" lon="1.89916">
        <ele>258.73</ele>
        <time>2017-12-09T08:30:20Z</time>
      </trkpt>
      <trkpt lat="43.45109" lon="1.89941">
        <ele>259.69</ele>
        <time>2017-12-09T08:30:36Z</time>
      </trkpt>
      <trkpt lat="43.4511" lon="1.89963">
        <ele>261.14</ele>
        <time>2017-12-09T08:30:50Z</time>
      </trkpt>
      <trkpt lat="43.45112" lon="1.8998">
        <ele>262.1</ele>
        <time>2017-12-09T08:31:01Z</time>
      </trkpt>
      <trkpt lat="43.45112" lon="1.89985">
        <ele>262.58</ele>
        <time>2017-12-09T08:31:04Z</time>
      </trkpt>
      <trkpt lat="43.45112" lon="1.89989">
        <ele>262.58</ele>
        <time>2017-12-09T08:31:07Z</time>
      </trkpt>
      <trkpt lat="43.45118" lon="1.90009">
        <ele>264.02</ele>
        <time>2017-12-09T08:31:23Z</time>
      </trkpt>
      <trkpt lat="43.45118" lon="1.9001">
        <ele>264.5</ele>
        <time>2017-12-09T08:31:24Z</time>
      </trkpt>
      <trkpt lat="43.45132" lon="1.90029">
        <ele>264.5</ele>
        <time>2017-12-09T08:31:41Z</time>
      </trkpt>
      <trkpt lat="43.45145" lon="1.90048">
        <ele>265.94</ele>
        <time>2017-12-09T08:31:59Z</time>
      </trkpt>
      <trkpt lat="43.45159" lon="1.90066">
        <ele>266.42</ele>
        <time>2017-12-09T08:32:15Z</time>
      </trkpt>
      <trkpt lat="43.45172" lon="1.90083">
        <ele>265.94</ele>
        <time>2017-12-09T08:32:31Z</time>
      </trkpt>
      <trkpt lat="43.45185" lon="1.90105">
        <ele>265.94</ele>
        <time>2017-12-09T08:32:48Z</time>
      </trkpt>
      <trkpt lat="43.45189" lon="1.90112">
        <ele>265.94</ele>
        <time>2017-12-09T08:32:53Z</time>
      </trkpt>
      <trkpt lat="43.45193" lon="1.90122">
        <ele>265.46</ele>
        <time>2017-12-09T08:33:00Z</time>
      </trkpt>
      <trkpt lat="43.45203" lon="1.90142">
        <ele>265.46</ele>
        <time>2017-12-09T08:33:14Z</time>
      </trkpt>
      <trkpt lat="43.45214" lon="1.90163">
        <ele>264.5</ele>
        <time>2017-12-09T08:33:30Z</time>
      </trkpt>
      <trkpt lat="43.45225" lon="1.90184">
        <ele>263.06</ele>
        <time>2017-12-09T08:33:45Z</time>
      </trkpt>
      <trkpt lat="43.45234" lon="1.902">
        <ele>263.06</ele>
        <time>2017-12-09T08:33:57Z</time>
      </trkpt>
      <trkpt lat="43.45239" lon="1.9021">
        <ele>263.06</ele>
        <time>2017-12-09T08:34:04Z</time>
      </trkpt>
      <trkpt lat="43.45246" lon="1.90235">
        <ele>263.54</ele>
        <time>2017-12-09T08:34:21Z</time>
      </trkpt>
      <trkpt lat="43.4525" lon="1.9026">
        <ele>263.54</ele>
        <time>2017-12-09T08:34:36Z</time>
      </trkpt>
      <trkpt lat="43.45252" lon="1.90284">
        <ele>263.06</ele>
        <time>2017-12-09T08:34:52Z</time>
      </trkpt>
      <trkpt lat="43.45255" lon="1.90307">
        <ele>262.58</ele>
        <time>2017-12-09T08:35:07Z</time>
      </trkpt>
      <trkpt lat="43.45259" lon="1.90336">
        <ele>262.58</ele>
        <time>2017-12-09T08:35:26Z</time>
      </trkpt>
      <trkpt lat="43.45265" lon="1.9036">
        <ele>263.06</ele>
        <time>2017-12-09T08:35:42Z</time>
      </trkpt>
      <trkpt lat="43.45265" lon="1.90361">
        <ele>263.06</ele>
        <time>2017-12-09T08:35:43Z</time>
      </trkpt>
      <trkpt lat="43.45273" lon="1.90378">
        <ele>263.54</ele>
        <time>2017-12-09T08:35:56Z</time>
      </trkpt>
      <trkpt lat="43.45276" lon="1.90385">
        <ele>263.54</ele>
        <time>2017-12-09T08:36:01Z</time>
      </trkpt>
      <trkpt lat="43.45287" lon="1.90404">
        <ele>263.54</ele>
        <time>2017-12-09T08:36:16Z</time>
      </trkpt>
      <trkpt lat="43.4529" lon="1.90411">
        <ele>263.06</ele>
        <time>2017-12-09T08:36:21Z</time>
      </trkpt>
      <trkpt lat="43.45299" lon="1.9043">
        <ele>262.58</ele>
        <time>2017-12-09T08:36:35Z</time>
      </trkpt>
      <trkpt lat="43.45309" lon="1.9045">
        <ele>261.62</ele>
        <time>2017-12-09T08:36:51Z</time>
      </trkpt>
      <trkpt lat="43.45318" lon="1.90467">
        <ele>260.17</ele>
        <time>2017-12-09T08:37:05Z</time>
      </trkpt>
      <trkpt lat="43.45328" lon="1.90486">
        <ele>260.65</ele>
        <time>2017-12-09T08:37:20Z</time>
      </trkpt>
      <trkpt lat="43.4534" lon="1.90502">
        <ele>262.1</ele>
        <time>2017-12-09T08:37:36Z</time>
      </trkpt>
      <trkpt lat="43.45353" lon="1.90524">
        <ele>262.58</ele>
        <time>2017-12-09T08:37:54Z</time>
      </trkpt>
      <trkpt lat="43.45355" lon="1.9053">
        <ele>262.1</ele>
        <time>2017-12-09T08:37:58Z</time>
      </trkpt>
      <trkpt lat="43.45367" lon="1.90554">
        <ele>262.58</ele>
        <time>2017-12-09T08:38:16Z</time>
      </trkpt>
      <trkpt lat="43.45376" lon="1.90576">
        <ele>263.06</ele>
        <time>2017-12-09T08:38:32Z</time>
      </trkpt>
      <trkpt lat="43.45385" lon="1.90594">
        <ele>263.06</ele>
        <time>2017-12-09T08:38:46Z</time>
      </trkpt>
      <trkpt lat="43.45391" lon="1.90607">
        <ele>263.06</ele>
        <time>2017-12-09T08:38:56Z</time>
      </trkpt>
      <trkpt lat="43.45394" lon="1.90616">
        <ele>263.54</ele>
        <time>2017-12-09T08:39:02Z</time>
      </trkpt>
      <trkpt lat="43.45395" lon="1.90623">
        <ele>263.54</ele>
        <time>2017-12-09T08:39:07Z</time>
      </trkpt>
      <trkpt lat="43.45396" lon="1.90628">
        <ele>263.06</ele>
        <time>2017-12-09T08:39:11Z</time>
      </trkpt>
      <trkpt lat="43.45404" lon="1.90653">
        <ele>261.14</ele>
        <time>2017-12-09T08:39:29Z</time>
      </trkpt>
      <trkpt lat="43.45408" lon="1.90665">
        <ele>260.17</ele>
        <time>2017-12-09T08:39:39Z</time>
      </trkpt>
      <trkpt lat="43.45416" lon="1.90686">
        <ele>258.25</ele>
        <time>2017-12-09T08:39:55Z</time>
      </trkpt>
      <trkpt lat="43.45416" lon="1.90688">
        <ele>258.73</ele>
        <time>2017-12-09T08:39:56Z</time>
      </trkpt>
      <trkpt lat="43.4542" lon="1.90695">
        <ele>257.77</ele>
        <time>2017-12-09T08:40:01Z</time>
      </trkpt>
      <trkpt lat="43.4542" lon="1.90697">
        <ele>257.77</ele>
        <time>2017-12-09T08:40:03Z</time>
      </trkpt>
      <trkpt lat="43.45429" lon="1.90713">
        <ele>257.77</ele>
        <time>2017-12-09T08:40:16Z</time>
      </trkpt>
      <trkpt lat="43.45445" lon="1.90733">
        <ele>256.33</ele>
        <time>2017-12-09T08:40:36Z</time>
      </trkpt>
      <trkpt lat="43.45458" lon="1.9075">
        <ele>253.93</ele>
        <time>2017-12-09T08:40:53Z</time>
      </trkpt>
      <trkpt lat="43.45475" lon="1.90769">
        <ele>252.96</ele>
        <time>2017-12-09T08:41:12Z</time>
      </trkpt>
      <trkpt lat="43.45488" lon="1.9079">
        <ele>252.48</ele>
        <time>2017-12-09T08:41:29Z</time>
      </trkpt>
      <trkpt lat="43.455" lon="1.9081">
        <ele>252</ele>
        <time>2017-12-09T08:41:45Z</time>
      </trkpt>
      <trkpt lat="43.45512" lon="1.9083">
        <ele>252.48</ele>
        <time>2017-12-09T08:42:02Z</time>
      </trkpt>
      <trkpt lat="43.45524" lon="1.90848">
        <ele>252.48</ele>
        <time>2017-12-09T08:42:18Z</time>
      </trkpt>
      <trkpt lat="43.45523" lon="1.90864">
        <ele>251.52</ele>
        <time>2017-12-09T08:42:35Z</time>
      </trkpt>
      <trkpt lat="43.45518" lon="1.90865">
        <ele>251.04</ele>
        <time>2017-12-09T08:42:46Z</time>
      </trkpt>
      <trkpt lat="43.45506" lon="1.90851">
        <ele>249.6</ele>
        <time>2017-12-09T08:43:04Z</time>
      </trkpt>
      <trkpt lat="43.45497" lon="1.90841">
        <ele>249.12</ele>
        <time>2017-12-09T08:43:45Z</time>
      </trkpt>
      <trkpt lat="43.45491" lon="1.90832">
        <ele>248.16</ele>
        <time>2017-12-09T08:43:56Z</time>
      </trkpt>
      <trkpt lat="43.45478" lon="1.90819">
        <ele>246.23</ele>
        <time>2017-12-09T08:44:14Z</time>
      </trkpt>
      <trkpt lat="43.45471" lon="1.90817">
        <ele>244.79</ele>
        <time>2017-12-09T08:44:26Z</time>
      </trkpt>
      <trkpt lat="43.45459" lon="1.9082">
        <ele>242.39</ele>
        <time>2017-12-09T08:44:40Z</time>
      </trkpt>
      <trkpt lat="43.45444" lon="1.90819">
        <ele>240.47</ele>
        <time>2017-12-09T08:44:55Z</time>
      </trkpt>
      <trkpt lat="43.45427" lon="1.90821">
        <ele>238.06</ele>
        <time>2017-12-09T08:45:11Z</time>
      </trkpt>
      <trkpt lat="43.45417" lon="1.90822">
        <ele>236.62</ele>
        <time>2017-12-09T08:45:22Z</time>
      </trkpt>
      <trkpt lat="43.45399" lon="1.90827">
        <ele>233.26</ele>
        <time>2017-12-09T08:45:40Z</time>
      </trkpt>
      <trkpt lat="43.45385" lon="1.90833">
        <ele>230.37</ele>
        <time>2017-12-09T08:45:56Z</time>
      </trkpt>
      <trkpt lat="43.45369" lon="1.9084">
        <ele>227.97</ele>
        <time>2017-12-09T08:46:12Z</time>
      </trkpt>
      <trkpt lat="43.45351" lon="1.90843">
        <ele>226.53</ele>
        <time>2017-12-09T08:46:29Z</time>
      </trkpt>
      <trkpt lat="43.45334" lon="1.90845">
        <ele>225.09</ele>
        <time>2017-12-09T08:46:44Z</time>
      </trkpt>
      <trkpt lat="43.45329" lon="1.90845">
        <ele>225.09</ele>
        <time>2017-12-09T08:46:49Z</time>
      </trkpt>
      <trkpt lat="43.45327" lon="1.90847">
        <ele>224.61</ele>
        <time>2017-12-09T08:46:51Z</time>
      </trkpt>
      <trkpt lat="43.45307" lon="1.90851">
        <ele>223.64</ele>
        <time>2017-12-09T08:47:09Z</time>
      </trkpt>
      <trkpt lat="43.45288" lon="1.90861">
        <ele>222.2</ele>
        <time>2017-12-09T08:47:28Z</time>
      </trkpt>
      <trkpt lat="43.45274" lon="1.90878">
        <ele>220.76</ele>
        <time>2017-12-09T08:47:45Z</time>
      </trkpt>
      <trkpt lat="43.45259" lon="1.909">
        <ele>219.32</ele>
        <time>2017-12-09T08:48:05Z</time>
      </trkpt>
      <trkpt lat="43.45245" lon="1.90922">
        <ele>218.36</ele>
        <time>2017-12-09T08:48:24Z</time>
      </trkpt>
      <trkpt lat="43.45231" lon="1.90945">
        <ele>217.4</ele>
        <time>2017-12-09T08:48:43Z</time>
      </trkpt>
      <trkpt lat="43.45217" lon="1.90966">
        <ele>216.91</ele>
        <time>2017-12-09T08:49:00Z</time>
      </trkpt>
      <trkpt lat="43.45204" lon="1.90988">
        <ele>216.43</ele>
        <time>2017-12-09T08:49:17Z</time>
      </trkpt>
      <trkpt lat="43.45187" lon="1.91013">
        <ele>214.99</ele>
        <time>2017-12-09T08:49:39Z</time>
      </trkpt>
      <trkpt lat="43.45179" lon="1.91027">
        <ele>214.99</ele>
        <time>2017-12-09T08:49:50Z</time>
      </trkpt>
      <trkpt lat="43.45166" lon="1.91047">
        <ele>214.03</ele>
        <time>2017-12-09T08:50:07Z</time>
      </trkpt>
      <trkpt lat="43.45152" lon="1.9107">
        <ele>213.55</ele>
        <time>2017-12-09T08:50:26Z</time>
      </trkpt>
      <trkpt lat="43.45139" lon="1.91089">
        <ele>213.07</ele>
        <time>2017-12-09T08:50:43Z</time>
      </trkpt>
      <trkpt lat="43.45128" lon="1.91108">
        <ele>212.59</ele>
        <time>2017-12-09T08:50:58Z</time>
      </trkpt>
      <trkpt lat="43.45112" lon="1.91131">
        <ele>211.63</ele>
        <time>2017-12-09T08:51:18Z</time>
      </trkpt>
      <trkpt lat="43.45099" lon="1.91151">
        <ele>211.15</ele>
        <time>2017-12-09T08:51:35Z</time>
      </trkpt>
      <trkpt lat="43.45082" lon="1.91176">
        <ele>210.19</ele>
        <time>2017-12-09T08:51:56Z</time>
      </trkpt>
      <trkpt lat="43.45066" lon="1.91203">
        <ele>209.22</ele>
        <time>2017-12-09T08:52:17Z</time>
      </trkpt>
      <trkpt lat="43.45053" lon="1.91225">
        <ele>208.74</ele>
        <time>2017-12-09T08:52:34Z</time>
      </trkpt>
      <trkpt lat="43.45043" lon="1.91243">
        <ele>207.78</ele>
        <time>2017-12-09T08:52:49Z</time>
      </trkpt>
      <trkpt lat="43.45041" lon="1.91266">
        <ele>207.3</ele>
        <time>2017-12-09T08:53:05Z</time>
      </trkpt>
      <trkpt lat="43.45059" lon="1.91281">
        <ele>206.82</ele>
        <time>2017-12-09T08:53:23Z</time>
      </trkpt>
      <trkpt lat="43.45068" lon="1.91286">
        <ele>206.82</ele>
        <time>2017-12-09T08:53:31Z</time>
      </trkpt>
      <trkpt lat="43.45075" lon="1.91291">
        <ele>206.82</ele>
        <time>2017-12-09T08:53:38Z</time>
      </trkpt>
      <trkpt lat="43.45092" lon="1.91299">
        <ele>206.82</ele>
        <time>2017-12-09T08:53:53Z</time>
      </trkpt>
      <trkpt lat="43.45108" lon="1.91311">
        <ele>205.86</ele>
        <time>2017-12-09T08:54:09Z</time>
      </trkpt>
      <trkpt lat="43.45126" lon="1.91321">
        <ele>205.86</ele>
        <time>2017-12-09T08:54:24Z</time>
      </trkpt>
      <trkpt lat="43.45144" lon="1.91333">
        <ele>204.9</ele>
        <time>2017-12-09T08:54:41Z</time>
      </trkpt>
      <trkpt lat="43.45156" lon="1.91353">
        <ele>204.42</ele>
        <time>2017-12-09T08:54:56Z</time>
      </trkpt>
      <trkpt lat="43.45165" lon="1.91372">
        <ele>203.94</ele>
        <time>2017-12-09T08:55:10Z</time>
      </trkpt>
      <trkpt lat="43.45172" lon="1.91392">
        <ele>203.46</ele>
        <time>2017-12-09T08:55:24Z</time>
      </trkpt>
      <trkpt lat="43.45181" lon="1.9141">
        <ele>203.46</ele>
        <time>2017-12-09T08:55:38Z</time>
      </trkpt>
      <trkpt lat="43.45186" lon="1.91423">
        <ele>203.46</ele>
        <time>2017-12-09T08:55:48Z</time>
      </trkpt>
      <trkpt lat="43.45195" lon="1.91444">
        <ele>202.98</ele>
        <time>2017-12-09T08:56:05Z</time>
      </trkpt>
      <trkpt lat="43.45202" lon="1.91461">
        <ele>202.98</ele>
        <time>2017-12-09T08:56:18Z</time>
      </trkpt>
      <trkpt lat="43.45212" lon="1.91484">
        <ele>202.49</ele>
        <time>2017-12-09T08:56:35Z</time>
      </trkpt>
      <trkpt lat="43.45218" lon="1.91503">
        <ele>202.01</ele>
        <time>2017-12-09T08:56:49Z</time>
      </trkpt>
      <trkpt lat="43.4522" lon="1.91509">
        <ele>202.49</ele>
        <time>2017-12-09T08:56:53Z</time>
      </trkpt>
      <trkpt lat="43.45225" lon="1.91535">
        <ele>202.49</ele>
        <time>2017-12-09T08:57:11Z</time>
      </trkpt>
      <trkpt lat="43.45229" lon="1.9155">
        <ele>202.49</ele>
        <time>2017-12-09T08:57:22Z</time>
      </trkpt>
      <trkpt lat="43.45231" lon="1.91557">
        <ele>202.01</ele>
        <time>2017-12-09T08:57:26Z</time>
      </trkpt>
      <trkpt lat="43.45232" lon="1.91561">
        <ele>202.01</ele>
        <time>2017-12-09T08:57:29Z</time>
      </trkpt>
      <trkpt lat="43.45235" lon="1.91569">
        <ele>202.01</ele>
        <time>2017-12-09T08:57:35Z</time>
      </trkpt>
      <trkpt lat="43.45236" lon="1.91572">
        <ele>202.01</ele>
        <time>2017-12-09T08:57:37Z</time>
      </trkpt>
      <trkpt lat="43.45237" lon="1.91578">
        <ele>202.01</ele>
        <time>2017-12-09T08:57:41Z</time>
      </trkpt>
      <trkpt lat="43.45238" lon="1.91581">
        <ele>202.01</ele>
        <time>2017-12-09T08:57:43Z</time>
      </trkpt>
      <trkpt lat="43.45244" lon="1.91604">
        <ele>202.01</ele>
        <time>2017-12-09T08:57:59Z</time>
      </trkpt>
      <trkpt lat="43.45245" lon="1.91607">
        <ele>202.01</ele>
        <time>2017-12-09T08:58:02Z</time>
      </trkpt>
      <trkpt lat="43.45242" lon="1.91632">
        <ele>201.53</ele>
        <time>2017-12-09T08:58:18Z</time>
      </trkpt>
      <trkpt lat="43.45234" lon="1.91651">
        <ele>201.05</ele>
        <time>2017-12-09T08:58:33Z</time>
      </trkpt>
      <trkpt lat="43.45233" lon="1.91655">
        <ele>200.57</ele>
        <time>2017-12-09T08:58:35Z</time>
      </trkpt>
      <trkpt lat="43.45222" lon="1.91676">
        <ele>200.57</ele>
        <time>2017-12-09T08:58:51Z</time>
      </trkpt>
      <trkpt lat="43.45212" lon="1.91694">
        <ele>200.09</ele>
        <time>2017-12-09T08:59:05Z</time>
      </trkpt>
      <trkpt lat="43.45201" lon="1.91708">
        <ele>200.09</ele>
        <time>2017-12-09T08:59:19Z</time>
      </trkpt>
      <trkpt lat="43.45197" lon="1.91712">
        <ele>199.61</ele>
        <time>2017-12-09T08:59:23Z</time>
      </trkpt>
      <trkpt lat="43.45184" lon="1.91729">
        <ele>199.61</ele>
        <time>2017-12-09T08:59:39Z</time>
      </trkpt>
      <trkpt lat="43.45182" lon="1.91732">
        <ele>199.61</ele>
        <time>2017-12-09T08:59:41Z</time>
      </trkpt>
      <trkpt lat="43.4517" lon="1.91749">
        <ele>199.61</ele>
        <time>2017-12-09T08:59:57Z</time>
      </trkpt>
      <trkpt lat="43.45167" lon="1.9176">
        <ele>199.61</ele>
        <time>2017-12-09T09:00:05Z</time>
      </trkpt>
      <trkpt lat="43.45177" lon="1.91781">
        <ele>200.09</ele>
        <time>2017-12-09T09:00:21Z</time>
      </trkpt>
      <trkpt lat="43.45186" lon="1.91789">
        <ele>200.09</ele>
        <time>2017-12-09T09:00:32Z</time>
      </trkpt>
      <trkpt lat="43.45188" lon="1.91791">
        <ele>199.61</ele>
        <time>2017-12-09T09:00:34Z</time>
      </trkpt>
      <trkpt lat="43.45205" lon="1.91812">
        <ele>199.13</ele>
        <time>2017-12-09T09:00:54Z</time>
      </trkpt>
      <trkpt lat="43.45209" lon="1.91818">
        <ele>199.61</ele>
        <time>2017-12-09T09:00:59Z</time>
      </trkpt>
      <trkpt lat="43.45212" lon="1.91822">
        <ele>199.61</ele>
        <time>2017-12-09T09:01:03Z</time>
      </trkpt>
      <trkpt lat="43.45216" lon="1.91829">
        <ele>199.61</ele>
        <time>2017-12-09T09:01:08Z</time>
      </trkpt>
      <trkpt lat="43.45224" lon="1.91851">
        <ele>199.13</ele>
        <time>2017-12-09T09:01:25Z</time>
      </trkpt>
      <trkpt lat="43.45231" lon="1.91869">
        <ele>199.13</ele>
        <time>2017-12-09T09:01:38Z</time>
      </trkpt>
      <trkpt lat="43.45232" lon="1.91873">
        <ele>199.61</ele>
        <time>2017-12-09T09:01:41Z</time>
      </trkpt>
      <trkpt lat="43.45237" lon="1.91891">
        <ele>199.13</ele>
        <time>2017-12-09T09:01:56Z</time>
      </trkpt>
      <trkpt lat="43.45239" lon="1.91919">
        <ele>198.65</ele>
        <time>2017-12-09T09:02:13Z</time>
      </trkpt>
      <trkpt lat="43.45238" lon="1.91928">
        <ele>199.13</ele>
        <time>2017-12-09T09:02:20Z</time>
      </trkpt>
      <trkpt lat="43.45235" lon="1.91935">
        <ele>199.13</ele>
        <time>2017-12-09T09:02:33Z</time>
      </trkpt>
      <trkpt lat="43.45236" lon="1.91935">
        <ele>198.65</ele>
        <time>2017-12-09T09:02:58Z</time>
      </trkpt>
      <trkpt lat="43.45236" lon="1.91935">
        <ele>198.17</ele>
        <time>2017-12-09T09:03:21Z</time>
      </trkpt>
      <trkpt lat="43.45235" lon="1.91939">
        <ele>198.65</ele>
        <time>2017-12-09T09:03:34Z</time>
      </trkpt>
      <trkpt lat="43.45234" lon="1.91944">
        <ele>198.65</ele>
        <time>2017-12-09T09:03:46Z</time>
      </trkpt>
      <trkpt lat="43.45235" lon="1.91947">
        <ele>198.65</ele>
        <time>2017-12-09T09:04:28Z</time>
      </trkpt>
      <trkpt lat="43.45234" lon="1.91956">
        <ele>198.65</ele>
        <time>2017-12-09T09:04:34Z</time>
      </trkpt>
      <trkpt lat="43.45232" lon="1.91962">
        <ele>198.65</ele>
        <time>2017-12-09T09:04:51Z</time>
      </trkpt>
      <trkpt lat="43.4523" lon="1.91968">
        <ele>198.65</ele>
        <time>2017-12-09T09:05:04Z</time>
      </trkpt>
      <trkpt lat="43.45228" lon="1.91976">
        <ele>198.65</ele>
        <time>2017-12-09T09:05:21Z</time>
      </trkpt>
      <trkpt lat="43.45223" lon="1.91992">
        <ele>198.17</ele>
        <time>2017-12-09T09:05:33Z</time>
      </trkpt>
      <trkpt lat="43.45218" lon="1.92006">
        <ele>198.17</ele>
        <time>2017-12-09T09:05:45Z</time>
      </trkpt>
      <trkpt lat="43.45214" lon="1.92019">
        <ele>198.17</ele>
        <time>2017-12-09T09:05:55Z</time>
      </trkpt>
      <trkpt lat="43.45209" lon="1.92035">
        <ele>197.69</ele>
        <time>2017-12-09T09:06:06Z</time>
      </trkpt>
      <trkpt lat="43.45204" lon="1.92052">
        <ele>197.69</ele>
        <time>2017-12-09T09:06:19Z</time>
      </trkpt>
      <trkpt lat="43.45202" lon="1.9206">
        <ele>198.17</ele>
        <time>2017-12-09T09:06:24Z</time>
      </trkpt>
      <trkpt lat="43.45198" lon="1.92074">
        <ele>197.69</ele>
        <time>2017-12-09T09:06:35Z</time>
      </trkpt>
      <trkpt lat="43.45194" lon="1.92091">
        <ele>197.69</ele>
        <time>2017-12-09T09:06:47Z</time>
      </trkpt>
      <trkpt lat="43.45192" lon="1.92108">
        <ele>197.69</ele>
        <time>2017-12-09T09:07:00Z</time>
      </trkpt>
      <trkpt lat="43.45191" lon="1.92111">
        <ele>197.69</ele>
        <time>2017-12-09T09:07:02Z</time>
      </trkpt>
      <trkpt lat="43.45191" lon="1.92118">
        <ele>197.69</ele>
        <time>2017-12-09T09:07:07Z</time>
      </trkpt>
      <trkpt lat="43.45186" lon="1.92138">
        <ele>197.69</ele>
        <time>2017-12-09T09:07:21Z</time>
      </trkpt>
      <trkpt lat="43.45186" lon="1.92141">
        <ele>197.69</ele>
        <time>2017-12-09T09:07:23Z</time>
      </trkpt>
      <trkpt lat="43.45184" lon="1.92155">
        <ele>197.21</ele>
        <time>2017-12-09T09:07:33Z</time>
      </trkpt>
      <trkpt lat="43.45182" lon="1.92161">
        <ele>197.21</ele>
        <time>2017-12-09T09:07:41Z</time>
      </trkpt>
      <trkpt lat="43.45182" lon="1.92162">
        <ele>197.21</ele>
        <time>2017-12-09T09:07:43Z</time>
      </trkpt>
      <trkpt lat="43.45181" lon="1.92175">
        <ele>197.21</ele>
        <time>2017-12-09T09:07:51Z</time>
      </trkpt>
      <trkpt lat="43.45177" lon="1.92192">
        <ele>197.21</ele>
        <time>2017-12-09T09:08:02Z</time>
      </trkpt>
      <trkpt lat="43.45173" lon="1.92214">
        <ele>197.21</ele>
        <time>2017-12-09T09:08:17Z</time>
      </trkpt>
      <trkpt lat="43.45173" lon="1.92216">
        <ele>197.21</ele>
        <time>2017-12-09T09:08:18Z</time>
      </trkpt>
      <trkpt lat="43.45172" lon="1.92219">
        <ele>197.21</ele>
        <time>2017-12-09T09:08:20Z</time>
      </trkpt>
      <trkpt lat="43.45169" lon="1.92232">
        <ele>196.73</ele>
        <time>2017-12-09T09:08:29Z</time>
      </trkpt>
      <trkpt lat="43.45164" lon="1.92251">
        <ele>196.73</ele>
        <time>2017-12-09T09:08:42Z</time>
      </trkpt>
      <trkpt lat="43.45158" lon="1.92271">
        <ele>196.73</ele>
        <time>2017-12-09T09:08:56Z</time>
      </trkpt>
      <trkpt lat="43.45152" lon="1.92291">
        <ele>196.73</ele>
        <time>2017-12-09T09:09:10Z</time>
      </trkpt>
      <trkpt lat="43.45155" lon="1.92308">
        <ele>195.77</ele>
        <time>2017-12-09T09:09:22Z</time>
      </trkpt>
      <trkpt lat="43.45165" lon="1.92324">
        <ele>196.25</ele>
        <time>2017-12-09T09:09:37Z</time>
      </trkpt>
      <trkpt lat="43.45175" lon="1.92341">
        <ele>196.25</ele>
        <time>2017-12-09T09:09:52Z</time>
      </trkpt>
      <trkpt lat="43.45176" lon="1.92341">
        <ele>196.25</ele>
        <time>2017-12-09T09:09:53Z</time>
      </trkpt>
      <trkpt lat="43.45184" lon="1.92351">
        <ele>196.25</ele>
        <time>2017-12-09T09:10:02Z</time>
      </trkpt>
      <trkpt lat="43.45197" lon="1.92368">
        <ele>196.25</ele>
        <time>2017-12-09T09:10:17Z</time>
      </trkpt>
      <trkpt lat="43.45203" lon="1.92377">
        <ele>195.28</ele>
        <time>2017-12-09T09:10:25Z</time>
      </trkpt>
      <trkpt lat="43.45214" lon="1.92393">
        <ele>195.77</ele>
        <time>2017-12-09T09:10:40Z</time>
      </trkpt>
      <trkpt lat="43.45222" lon="1.92404">
        <ele>195.77</ele>
        <time>2017-12-09T09:10:50Z</time>
      </trkpt>
      <trkpt lat="43.45237" lon="1.92426">
        <ele>195.77</ele>
        <time>2017-12-09T09:11:10Z</time>
      </trkpt>
      <trkpt lat="43.4525" lon="1.92442">
        <ele>195.77</ele>
        <time>2017-12-09T09:11:25Z</time>
      </trkpt>
      <trkpt lat="43.45261" lon="1.92459">
        <ele>195.28</ele>
        <time>2017-12-09T09:11:40Z</time>
      </trkpt>
      <trkpt lat="43.45262" lon="1.92461">
        <ele>195.28</ele>
        <time>2017-12-09T09:11:42Z</time>
      </trkpt>
      <trkpt lat="43.45265" lon="1.92464">
        <ele>195.28</ele>
        <time>2017-12-09T09:11:45Z</time>
      </trkpt>
      <trkpt lat="43.4527" lon="1.92473">
        <ele>195.77</ele>
        <time>2017-12-09T09:11:53Z</time>
      </trkpt>
      <trkpt lat="43.45285" lon="1.92492">
        <ele>196.25</ele>
        <time>2017-12-09T09:12:10Z</time>
      </trkpt>
      <trkpt lat="43.45291" lon="1.925">
        <ele>196.25</ele>
        <time>2017-12-09T09:12:18Z</time>
      </trkpt>
      <trkpt lat="43.45302" lon="1.92517">
        <ele>196.25</ele>
        <time>2017-12-09T09:12:33Z</time>
      </trkpt>
      <trkpt lat="43.45314" lon="1.92533">
        <ele>196.25</ele>
        <time>2017-12-09T09:12:48Z</time>
      </trkpt>
      <trkpt lat="43.45326" lon="1.9255">
        <ele>196.25</ele>
        <time>2017-12-09T09:13:03Z</time>
      </trkpt>
      <trkpt lat="43.45332" lon="1.9256">
        <ele>196.25</ele>
        <time>2017-12-09T09:13:12Z</time>
      </trkpt>
      <trkpt lat="43.45343" lon="1.92575">
        <ele>196.25</ele>
        <time>2017-12-09T09:13:26Z</time>
      </trkpt>
      <trkpt lat="43.45348" lon="1.92581">
        <ele>196.25</ele>
        <time>2017-12-09T09:13:32Z</time>
      </trkpt>
      <trkpt lat="43.45355" lon="1.92591">
        <ele>196.73</ele>
        <time>2017-12-09T09:13:41Z</time>
      </trkpt>
      <trkpt lat="43.45368" lon="1.92609">
        <ele>196.25</ele>
        <time>2017-12-09T09:13:57Z</time>
      </trkpt>
      <trkpt lat="43.45378" lon="1.92624">
        <ele>195.77</ele>
        <time>2017-12-09T09:14:10Z</time>
      </trkpt>
      <trkpt lat="43.45387" lon="1.92636">
        <ele>196.25</ele>
        <time>2017-12-09T09:14:22Z</time>
      </trkpt>
      <trkpt lat="43.45399" lon="1.92654">
        <ele>196.73</ele>
        <time>2017-12-09T09:14:38Z</time>
      </trkpt>
      <trkpt lat="43.45404" lon="1.92661">
        <ele>195.77</ele>
        <time>2017-12-09T09:14:44Z</time>
      </trkpt>
      <trkpt lat="43.45416" lon="1.92677">
        <ele>196.25</ele>
        <time>2017-12-09T09:14:59Z</time>
      </trkpt>
      <trkpt lat="43.45426" lon="1.9269">
        <ele>196.25</ele>
        <time>2017-12-09T09:15:12Z</time>
      </trkpt>
      <trkpt lat="43.45439" lon="1.92709">
        <ele>196.25</ele>
        <time>2017-12-09T09:15:28Z</time>
      </trkpt>
      <trkpt lat="43.45442" lon="1.92712">
        <ele>196.25</ele>
        <time>2017-12-09T09:15:31Z</time>
      </trkpt>
      <trkpt lat="43.45454" lon="1.9273">
        <ele>196.73</ele>
        <time>2017-12-09T09:15:47Z</time>
      </trkpt>
      <trkpt lat="43.45463" lon="1.92744">
        <ele>196.73</ele>
        <time>2017-12-09T09:15:59Z</time>
      </trkpt>
      <trkpt lat="43.45476" lon="1.92761">
        <ele>196.73</ele>
        <time>2017-12-09T09:16:15Z</time>
      </trkpt>
      <trkpt lat="43.4549" lon="1.9278">
        <ele>196.73</ele>
        <time>2017-12-09T09:16:32Z</time>
      </trkpt>
      <trkpt lat="43.45496" lon="1.92789">
        <ele>196.73</ele>
        <time>2017-12-09T09:16:40Z</time>
      </trkpt>
      <trkpt lat="43.45505" lon="1.92803">
        <ele>196.73</ele>
        <time>2017-12-09T09:16:53Z</time>
      </trkpt>
      <trkpt lat="43.45517" lon="1.92818">
        <ele>196.73</ele>
        <time>2017-12-09T09:17:08Z</time>
      </trkpt>
      <trkpt lat="43.45524" lon="1.92828">
        <ele>196.73</ele>
        <time>2017-12-09T09:17:17Z</time>
      </trkpt>
      <trkpt lat="43.45536" lon="1.92846">
        <ele>197.21</ele>
        <time>2017-12-09T09:17:33Z</time>
      </trkpt>
      <trkpt lat="43.45547" lon="1.9286">
        <ele>197.21</ele>
        <time>2017-12-09T09:17:48Z</time>
      </trkpt>
      <trkpt lat="43.45553" lon="1.92865">
        <ele>197.21</ele>
        <time>2017-12-09T09:17:54Z</time>
      </trkpt>
      <trkpt lat="43.4556" lon="1.92877">
        <ele>197.21</ele>
        <time>2017-12-09T09:18:04Z</time>
      </trkpt>
      <trkpt lat="43.45567" lon="1.92889">
        <ele>197.21</ele>
        <time>2017-12-09T09:18:14Z</time>
      </trkpt>
      <trkpt lat="43.45581" lon="1.92906">
        <ele>197.21</ele>
        <time>2017-12-09T09:18:31Z</time>
      </trkpt>
      <trkpt lat="43.45588" lon="1.92918">
        <ele>197.69</ele>
        <time>2017-12-09T09:18:41Z</time>
      </trkpt>
      <trkpt lat="43.456" lon="1.92935">
        <ele>197.69</ele>
        <time>2017-12-09T09:18:56Z</time>
      </trkpt>
      <trkpt lat="43.45612" lon="1.92951">
        <ele>198.17</ele>
        <time>2017-12-09T09:19:12Z</time>
      </trkpt>
      <trkpt lat="43.45615" lon="1.92954">
        <ele>198.17</ele>
        <time>2017-12-09T09:19:15Z</time>
      </trkpt>
      <trkpt lat="43.45624" lon="1.9297">
        <ele>198.17</ele>
        <time>2017-12-09T09:19:28Z</time>
      </trkpt>
      <trkpt lat="43.45629" lon="1.92977">
        <ele>198.65</ele>
        <time>2017-12-09T09:19:35Z</time>
      </trkpt>
      <trkpt lat="43.45639" lon="1.9299">
        <ele>198.65</ele>
        <time>2017-12-09T09:19:47Z</time>
      </trkpt>
      <trkpt lat="43.45652" lon="1.92994">
        <ele>199.13</ele>
        <time>2017-12-09T09:20:00Z</time>
      </trkpt>
      <trkpt lat="43.45655" lon="1.9299">
        <ele>199.61</ele>
        <time>2017-12-09T09:20:04Z</time>
      </trkpt>
      <trkpt lat="43.45666" lon="1.92971">
        <ele>199.61</ele>
        <time>2017-12-09T09:20:20Z</time>
      </trkpt>
      <trkpt lat="43.45676" lon="1.92954">
        <ele>199.61</ele>
        <time>2017-12-09T09:20:34Z</time>
      </trkpt>
      <trkpt lat="43.45678" lon="1.92949">
        <ele>199.61</ele>
        <time>2017-12-09T09:20:38Z</time>
      </trkpt>
      <trkpt lat="43.45679" lon="1.92946">
        <ele>199.61</ele>
        <time>2017-12-09T09:20:40Z</time>
      </trkpt>
      <trkpt lat="43.45691" lon="1.92932">
        <ele>199.61</ele>
        <time>2017-12-09T09:20:54Z</time>
      </trkpt>
      <trkpt lat="43.45696" lon="1.92929">
        <ele>200.09</ele>
        <time>2017-12-09T09:21:00Z</time>
      </trkpt>
      <trkpt lat="43.45713" lon="1.92922">
        <ele>199.61</ele>
        <time>2017-12-09T09:21:15Z</time>
      </trkpt>
      <trkpt lat="43.4573" lon="1.92921">
        <ele>199.61</ele>
        <time>2017-12-09T09:21:31Z</time>
      </trkpt>
      <trkpt lat="43.4575" lon="1.92916">
        <ele>200.09</ele>
        <time>2017-12-09T09:21:49Z</time>
      </trkpt>
      <trkpt lat="43.45765" lon="1.92909">
        <ele>200.09</ele>
        <time>2017-12-09T09:22:03Z</time>
      </trkpt>
      <trkpt lat="43.45772" lon="1.92904">
        <ele>200.09</ele>
        <time>2017-12-09T09:22:10Z</time>
      </trkpt>
      <trkpt lat="43.45777" lon="1.92903">
        <ele>200.09</ele>
        <time>2017-12-09T09:22:14Z</time>
      </trkpt>
      <trkpt lat="43.45785" lon="1.92897">
        <ele>200.09</ele>
        <time>2017-12-09T09:22:22Z</time>
      </trkpt>
      <trkpt lat="43.45787" lon="1.92896">
        <ele>200.09</ele>
        <time>2017-12-09T09:22:24Z</time>
      </trkpt>
      <trkpt lat="43.45789" lon="1.92895">
        <ele>200.09</ele>
        <time>2017-12-09T09:22:26Z</time>
      </trkpt>
      <trkpt lat="43.45808" lon="1.92884">
        <ele>200.57</ele>
        <time>2017-12-09T09:22:44Z</time>
      </trkpt>
      <trkpt lat="43.45822" lon="1.92878">
        <ele>201.53</ele>
        <time>2017-12-09T09:22:58Z</time>
      </trkpt>
      <trkpt lat="43.45823" lon="1.92877">
        <ele>201.05</ele>
        <time>2017-12-09T09:22:59Z</time>
      </trkpt>
      <trkpt lat="43.45839" lon="1.92867">
        <ele>201.53</ele>
        <time>2017-12-09T09:23:14Z</time>
      </trkpt>
      <trkpt lat="43.45847" lon="1.92862">
        <ele>202.01</ele>
        <time>2017-12-09T09:23:22Z</time>
      </trkpt>
      <trkpt lat="43.45863" lon="1.92853">
        <ele>202.01</ele>
        <time>2017-12-09T09:23:37Z</time>
      </trkpt>
      <trkpt lat="43.45881" lon="1.92843">
        <ele>202.01</ele>
        <time>2017-12-09T09:23:54Z</time>
      </trkpt>
      <trkpt lat="43.45892" lon="1.92841">
        <ele>202.01</ele>
        <time>2017-12-09T09:24:04Z</time>
      </trkpt>
      <trkpt lat="43.45906" lon="1.92841">
        <ele>202.49</ele>
        <time>2017-12-09T09:24:20Z</time>
      </trkpt>
      <trkpt lat="43.45906" lon="1.9284">
        <ele>202.49</ele>
        <time>2017-12-09T09:24:23Z</time>
      </trkpt>
      <trkpt lat="43.45924" lon="1.92835">
        <ele>202.01</ele>
        <time>2017-12-09T09:24:39Z</time>
      </trkpt>
      <trkpt lat="43.45933" lon="1.92835">
        <ele>202.01</ele>
        <time>2017-12-09T09:24:47Z</time>
      </trkpt>
      <trkpt lat="43.45951" lon="1.92833">
        <ele>202.49</ele>
        <time>2017-12-09T09:25:03Z</time>
      </trkpt>
      <trkpt lat="43.45962" lon="1.92831">
        <ele>202.49</ele>
        <time>2017-12-09T09:25:13Z</time>
      </trkpt>
      <trkpt lat="43.4597" lon="1.9283">
        <ele>202.01</ele>
        <time>2017-12-09T09:25:20Z</time>
      </trkpt>
      <trkpt lat="43.45977" lon="1.92829">
        <ele>202.01</ele>
        <time>2017-12-09T09:25:26Z</time>
      </trkpt>
      <trkpt lat="43.45985" lon="1.92828">
        <ele>202.49</ele>
        <time>2017-12-09T09:25:33Z</time>
      </trkpt>
      <trkpt lat="43.45992" lon="1.92828">
        <ele>202.49</ele>
        <time>2017-12-09T09:25:39Z</time>
      </trkpt>
      <trkpt lat="43.45994" lon="1.92828">
        <ele>202.49</ele>
        <time>2017-12-09T09:25:41Z</time>
      </trkpt>
      <trkpt lat="43.46" lon="1.92826">
        <ele>202.98</ele>
        <time>2017-12-09T09:25:47Z</time>
      </trkpt>
      <trkpt lat="43.46006" lon="1.92822">
        <ele>203.46</ele>
        <time>2017-12-09T09:26:02Z</time>
      </trkpt>
      <trkpt lat="43.4601" lon="1.9282">
        <ele>203.94</ele>
        <time>2017-12-09T09:26:18Z</time>
      </trkpt>
      <trkpt lat="43.46017" lon="1.92822">
        <ele>203.46</ele>
        <time>2017-12-09T09:26:34Z</time>
      </trkpt>
      <trkpt lat="43.46021" lon="1.92827">
        <ele>202.98</ele>
        <time>2017-12-09T09:26:45Z</time>
      </trkpt>
      <trkpt lat="43.46039" lon="1.92834">
        <ele>202.98</ele>
        <time>2017-12-09T09:27:03Z</time>
      </trkpt>
      <trkpt lat="43.46058" lon="1.92837">
        <ele>202.49</ele>
        <time>2017-12-09T09:27:22Z</time>
      </trkpt>
      <trkpt lat="43.46073" lon="1.92841">
        <ele>202.49</ele>
        <time>2017-12-09T09:27:37Z</time>
      </trkpt>
      <trkpt lat="43.46092" lon="1.92845">
        <ele>202.49</ele>
        <time>2017-12-09T09:27:55Z</time>
      </trkpt>
      <trkpt lat="43.46111" lon="1.92848">
        <ele>202.49</ele>
        <time>2017-12-09T09:28:13Z</time>
      </trkpt>
      <trkpt lat="43.46128" lon="1.9285">
        <ele>202.01</ele>
        <time>2017-12-09T09:28:30Z</time>
      </trkpt>
      <trkpt lat="43.46142" lon="1.92851">
        <ele>202.01</ele>
        <time>2017-12-09T09:28:42Z</time>
      </trkpt>
      <trkpt lat="43.46157" lon="1.92856">
        <ele>201.53</ele>
        <time>2017-12-09T09:28:57Z</time>
      </trkpt>
      <trkpt lat="43.46177" lon="1.92858">
        <ele>201.53</ele>
        <time>2017-12-09T09:29:11Z</time>
      </trkpt>
      <trkpt lat="43.46194" lon="1.92863">
        <ele>201.53</ele>
        <time>2017-12-09T09:29:26Z</time>
      </trkpt>
      <trkpt lat="43.46211" lon="1.92866">
        <ele>201.05</ele>
        <time>2017-12-09T09:29:42Z</time>
      </trkpt>
      <trkpt lat="43.46228" lon="1.92869">
        <ele>201.05</ele>
        <time>2017-12-09T09:29:58Z</time>
      </trkpt>
      <trkpt lat="43.46246" lon="1.92874">
        <ele>201.05</ele>
        <time>2017-12-09T09:30:13Z</time>
      </trkpt>
      <trkpt lat="43.46254" lon="1.92874">
        <ele>201.05</ele>
        <time>2017-12-09T09:30:22Z</time>
      </trkpt>
      <trkpt lat="43.46273" lon="1.92882">
        <ele>201.05</ele>
        <time>2017-12-09T09:30:41Z</time>
      </trkpt>
      <trkpt lat="43.46278" lon="1.92884">
        <ele>201.05</ele>
        <time>2017-12-09T09:30:45Z</time>
      </trkpt>
      <trkpt lat="43.46301" lon="1.92881">
        <ele>201.05</ele>
        <time>2017-12-09T09:31:04Z</time>
      </trkpt>
      <trkpt lat="43.46305" lon="1.92882">
        <ele>201.05</ele>
        <time>2017-12-09T09:31:08Z</time>
      </trkpt>
      <trkpt lat="43.46323" lon="1.92886">
        <ele>200.57</ele>
        <time>2017-12-09T09:31:24Z</time>
      </trkpt>
      <trkpt lat="43.46333" lon="1.92892">
        <ele>200.09</ele>
        <time>2017-12-09T09:31:37Z</time>
      </trkpt>
      <trkpt lat="43.4635" lon="1.92903">
        <ele>200.09</ele>
        <time>2017-12-09T09:31:56Z</time>
      </trkpt>
      <trkpt lat="43.46367" lon="1.92907">
        <ele>199.13</ele>
        <time>2017-12-09T09:32:14Z</time>
      </trkpt>
      <trkpt lat="43.46381" lon="1.92915">
        <ele>198.65</ele>
        <time>2017-12-09T09:32:28Z</time>
      </trkpt>
      <trkpt lat="43.46384" lon="1.92934">
        <ele>197.69</ele>
        <time>2017-12-09T09:38:52Z</time>
      </trkpt>
      <trkpt lat="43.46385" lon="1.92918">
        <ele>198.17</ele>
        <time>2017-12-09T09:40:20Z</time>
      </trkpt>
      <trkpt lat="43.46389" lon="1.92915">
        <ele>199.13</ele>
        <time>2017-12-09T09:40:34Z</time>
      </trkpt>
      <trkpt lat="43.46393" lon="1.92915">
        <ele>198.65</ele>
        <time>2017-12-09T09:40:56Z</time>
      </trkpt>
      <trkpt lat="43.46395" lon="1.92906">
        <ele>199.61</ele>
        <time>2017-12-09T09:41:10Z</time>
      </trkpt>
      <trkpt lat="43.46392" lon="1.92907">
        <ele>200.09</ele>
        <time>2017-12-09T09:41:32Z</time>
      </trkpt>
      <trkpt lat="43.46388" lon="1.92904">
        <ele>199.61</ele>
        <time>2017-12-09T09:41:54Z</time>
      </trkpt>
      <trkpt lat="43.46385" lon="1.92905">
        <ele>199.61</ele>
        <time>2017-12-09T09:42:00Z</time>
      </trkpt>
      <trkpt lat="43.46373" lon="1.92898">
        <ele>199.13</ele>
        <time>2017-12-09T09:42:17Z</time>
      </trkpt>
      <trkpt lat="43.46364" lon="1.92881">
        <ele>200.09</ele>
        <time>2017-12-09T09:42:32Z</time>
      </trkpt>
      <trkpt lat="43.46363" lon="1.92864">
        <ele>200.57</ele>
        <time>2017-12-09T09:43:25Z</time>
      </trkpt>
      <trkpt lat="43.46363" lon="1.92844">
        <ele>201.05</ele>
        <time>2017-12-09T09:43:42Z</time>
      </trkpt>
      <trkpt lat="43.46363" lon="1.9283">
        <ele>201.05</ele>
        <time>2017-12-09T09:43:59Z</time>
      </trkpt>
      <trkpt lat="43.46361" lon="1.92821">
        <ele>202.01</ele>
        <time>2017-12-09T09:44:13Z</time>
      </trkpt>
      <trkpt lat="43.4636" lon="1.92819">
        <ele>201.53</ele>
        <time>2017-12-09T09:44:31Z</time>
      </trkpt>
      <trkpt lat="43.4636" lon="1.9281">
        <ele>201.53</ele>
        <time>2017-12-09T09:44:43Z</time>
      </trkpt>
      <trkpt lat="43.46355" lon="1.92784">
        <ele>202.01</ele>
        <time>2017-12-09T09:44:58Z</time>
      </trkpt>
      <trkpt lat="43.46354" lon="1.92765">
        <ele>203.46</ele>
        <time>2017-12-09T09:45:10Z</time>
      </trkpt>
      <trkpt lat="43.46356" lon="1.9276">
        <ele>204.42</ele>
        <time>2017-12-09T09:45:28Z</time>
      </trkpt>
      <trkpt lat="43.46357" lon="1.92749">
        <ele>204.42</ele>
        <time>2017-12-09T09:45:39Z</time>
      </trkpt>
      <trkpt lat="43.46356" lon="1.92749">
        <ele>203.94</ele>
        <time>2017-12-09T09:45:51Z</time>
      </trkpt>
      <trkpt lat="43.46368" lon="1.92725">
        <ele>204.42</ele>
        <time>2017-12-09T09:46:08Z</time>
      </trkpt>
      <trkpt lat="43.46368" lon="1.92722">
        <ele>204.9</ele>
        <time>2017-12-09T09:46:10Z</time>
      </trkpt>
      <trkpt lat="43.46372" lon="1.92713">
        <ele>204.9</ele>
        <time>2017-12-09T09:46:17Z</time>
      </trkpt>
      <trkpt lat="43.46378" lon="1.92695">
        <ele>205.86</ele>
        <time>2017-12-09T09:46:29Z</time>
      </trkpt>
      <trkpt lat="43.46383" lon="1.92688">
        <ele>205.38</ele>
        <time>2017-12-09T09:46:34Z</time>
      </trkpt>
      <trkpt lat="43.46391" lon="1.92665">
        <ele>205.86</ele>
        <time>2017-12-09T09:46:50Z</time>
      </trkpt>
      <trkpt lat="43.46401" lon="1.92633">
        <ele>206.82</ele>
        <time>2017-12-09T09:47:12Z</time>
      </trkpt>
      <trkpt lat="43.46412" lon="1.9261">
        <ele>207.78</ele>
        <time>2017-12-09T09:47:30Z</time>
      </trkpt>
      <trkpt lat="43.46411" lon="1.92602">
        <ele>208.74</ele>
        <time>2017-12-09T09:47:49Z</time>
      </trkpt>
      <trkpt lat="43.46414" lon="1.92584">
        <ele>208.74</ele>
        <time>2017-12-09T09:48:06Z</time>
      </trkpt>
      <trkpt lat="43.46412" lon="1.92577">
        <ele>208.74</ele>
        <time>2017-12-09T09:48:11Z</time>
      </trkpt>
      <trkpt lat="43.46392" lon="1.92558">
        <ele>210.19</ele>
        <time>2017-12-09T09:48:32Z</time>
      </trkpt>
      <trkpt lat="43.46381" lon="1.92541">
        <ele>211.15</ele>
        <time>2017-12-09T09:48:48Z</time>
      </trkpt>
      <trkpt lat="43.46384" lon="1.92511">
        <ele>213.07</ele>
        <time>2017-12-09T09:49:05Z</time>
      </trkpt>
      <trkpt lat="43.46387" lon="1.92501">
        <ele>214.03</ele>
        <time>2017-12-09T09:49:14Z</time>
      </trkpt>
      <trkpt lat="43.46395" lon="1.92478">
        <ele>215.47</ele>
        <time>2017-12-09T09:49:32Z</time>
      </trkpt>
      <trkpt lat="43.46401" lon="1.9246">
        <ele>216.43</ele>
        <time>2017-12-09T09:49:45Z</time>
      </trkpt>
      <trkpt lat="43.46407" lon="1.92444">
        <ele>217.4</ele>
        <time>2017-12-09T09:49:58Z</time>
      </trkpt>
      <trkpt lat="43.46414" lon="1.92417">
        <ele>219.32</ele>
        <time>2017-12-09T09:50:16Z</time>
      </trkpt>
      <trkpt lat="43.46417" lon="1.92406">
        <ele>220.28</ele>
        <time>2017-12-09T09:50:25Z</time>
      </trkpt>
      <trkpt lat="43.4642" lon="1.92397">
        <ele>220.28</ele>
        <time>2017-12-09T09:50:31Z</time>
      </trkpt>
      <trkpt lat="43.46421" lon="1.92393">
        <ele>220.76</ele>
        <time>2017-12-09T09:50:34Z</time>
      </trkpt>
      <trkpt lat="43.46426" lon="1.92371">
        <ele>222.68</ele>
        <time>2017-12-09T09:50:49Z</time>
      </trkpt>
      <trkpt lat="43.4643" lon="1.9236">
        <ele>223.16</ele>
        <time>2017-12-09T09:51:02Z</time>
      </trkpt>
      <trkpt lat="43.46433" lon="1.9235">
        <ele>223.64</ele>
        <time>2017-12-09T09:51:09Z</time>
      </trkpt>
      <trkpt lat="43.46434" lon="1.92344">
        <ele>224.12</ele>
        <time>2017-12-09T09:51:13Z</time>
      </trkpt>
      <trkpt lat="43.46443" lon="1.92331">
        <ele>225.57</ele>
        <time>2017-12-09T09:51:25Z</time>
      </trkpt>
      <trkpt lat="43.46457" lon="1.92342">
        <ele>225.57</ele>
        <time>2017-12-09T09:51:40Z</time>
      </trkpt>
      <trkpt lat="43.46467" lon="1.92351">
        <ele>225.09</ele>
        <time>2017-12-09T09:51:53Z</time>
      </trkpt>
      <trkpt lat="43.46483" lon="1.92344">
        <ele>225.57</ele>
        <time>2017-12-09T09:52:09Z</time>
      </trkpt>
      <trkpt lat="43.46488" lon="1.92341">
        <ele>225.57</ele>
        <time>2017-12-09T09:52:14Z</time>
      </trkpt>
      <trkpt lat="43.46497" lon="1.92336">
        <ele>225.57</ele>
        <time>2017-12-09T09:52:22Z</time>
      </trkpt>
      <trkpt lat="43.465" lon="1.92334">
        <ele>225.57</ele>
        <time>2017-12-09T09:52:25Z</time>
      </trkpt>
      <trkpt lat="43.46502" lon="1.92332">
        <ele>226.53</ele>
        <time>2017-12-09T09:52:27Z</time>
      </trkpt>
      <trkpt lat="43.46518" lon="1.92322">
        <ele>226.05</ele>
        <time>2017-12-09T09:52:43Z</time>
      </trkpt>
      <trkpt lat="43.46531" lon="1.92312">
        <ele>226.53</ele>
        <time>2017-12-09T09:52:57Z</time>
      </trkpt>
      <trkpt lat="43.46544" lon="1.92304">
        <ele>227.01</ele>
        <time>2017-12-09T09:53:10Z</time>
      </trkpt>
      <trkpt lat="43.46547" lon="1.92302">
        <ele>226.53</ele>
        <time>2017-12-09T09:53:14Z</time>
      </trkpt>
      <trkpt lat="43.46556" lon="1.92295">
        <ele>227.49</ele>
        <time>2017-12-09T09:53:24Z</time>
      </trkpt>
      <trkpt lat="43.4656" lon="1.92292">
        <ele>227.49</ele>
        <time>2017-12-09T09:53:28Z</time>
      </trkpt>
      <trkpt lat="43.46575" lon="1.92282">
        <ele>227.49</ele>
        <time>2017-12-09T09:53:44Z</time>
      </trkpt>
      <trkpt lat="43.46578" lon="1.92281">
        <ele>227.97</ele>
        <time>2017-12-09T09:53:47Z</time>
      </trkpt>
      <trkpt lat="43.46586" lon="1.92276">
        <ele>227.97</ele>
        <time>2017-12-09T09:53:55Z</time>
      </trkpt>
      <trkpt lat="43.46601" lon="1.92267">
        <ele>228.93</ele>
        <time>2017-12-09T09:54:12Z</time>
      </trkpt>
      <trkpt lat="43.46615" lon="1.92256">
        <ele>229.41</ele>
        <time>2017-12-09T09:54:25Z</time>
      </trkpt>
      <trkpt lat="43.46632" lon="1.92246">
        <ele>229.89</ele>
        <time>2017-12-09T09:54:41Z</time>
      </trkpt>
      <trkpt lat="43.46644" lon="1.92237">
        <ele>230.37</ele>
        <time>2017-12-09T09:54:55Z</time>
      </trkpt>
      <trkpt lat="43.46658" lon="1.92229">
        <ele>230.85</ele>
        <time>2017-12-09T09:55:10Z</time>
      </trkpt>
      <trkpt lat="43.46671" lon="1.92221">
        <ele>231.33</ele>
        <time>2017-12-09T09:55:24Z</time>
      </trkpt>
      <trkpt lat="43.46686" lon="1.92213">
        <ele>231.33</ele>
        <time>2017-12-09T09:55:39Z</time>
      </trkpt>
      <trkpt lat="43.46703" lon="1.92211">
        <ele>230.85</ele>
        <time>2017-12-09T09:55:55Z</time>
      </trkpt>
      <trkpt lat="43.46719" lon="1.92208">
        <ele>230.37</ele>
        <time>2017-12-09T09:56:11Z</time>
      </trkpt>
      <trkpt lat="43.46736" lon="1.92203">
        <ele>230.37</ele>
        <time>2017-12-09T09:56:28Z</time>
      </trkpt>
      <trkpt lat="43.46739" lon="1.92201">
        <ele>229.89</ele>
        <time>2017-12-09T09:56:31Z</time>
      </trkpt>
      <trkpt lat="43.4675" lon="1.92193">
        <ele>229.89</ele>
        <time>2017-12-09T09:56:44Z</time>
      </trkpt>
      <trkpt lat="43.46768" lon="1.92182">
        <ele>229.89</ele>
        <time>2017-12-09T09:57:01Z</time>
      </trkpt>
      <trkpt lat="43.46771" lon="1.9218">
        <ele>229.89</ele>
        <time>2017-12-09T09:57:04Z</time>
      </trkpt>
      <trkpt lat="43.46785" lon="1.92175">
        <ele>229.89</ele>
        <time>2017-12-09T09:57:21Z</time>
      </trkpt>
      <trkpt lat="43.46792" lon="1.92168">
        <ele>229.41</ele>
        <time>2017-12-09T09:57:27Z</time>
      </trkpt>
      <trkpt lat="43.46795" lon="1.92166">
        <ele>228.93</ele>
        <time>2017-12-09T09:57:30Z</time>
      </trkpt>
      <trkpt lat="43.46813" lon="1.92155">
        <ele>228.93</ele>
        <time>2017-12-09T09:57:47Z</time>
      </trkpt>
      <trkpt lat="43.46815" lon="1.92153">
        <ele>229.41</ele>
        <time>2017-12-09T09:57:49Z</time>
      </trkpt>
      <trkpt lat="43.46821" lon="1.92152">
        <ele>229.41</ele>
        <time>2017-12-09T09:58:06Z</time>
      </trkpt>
      <trkpt lat="43.46823" lon="1.92148">
        <ele>229.41</ele>
        <time>2017-12-09T09:58:27Z</time>
      </trkpt>
      <trkpt lat="43.46835" lon="1.92137">
        <ele>230.37</ele>
        <time>2017-12-09T09:58:40Z</time>
      </trkpt>
      <trkpt lat="43.46843" lon="1.92137">
        <ele>230.37</ele>
        <time>2017-12-09T09:59:43Z</time>
      </trkpt>
      <trkpt lat="43.46857" lon="1.92123">
        <ele>231.81</ele>
        <time>2017-12-09T10:00:07Z</time>
      </trkpt>
      <trkpt lat="43.46859" lon="1.92121">
        <ele>231.33</ele>
        <time>2017-12-09T10:00:09Z</time>
      </trkpt>
      <trkpt lat="43.46865" lon="1.92119">
        <ele>231.33</ele>
        <time>2017-12-09T10:00:13Z</time>
      </trkpt>
      <trkpt lat="43.4687" lon="1.92114">
        <ele>231.81</ele>
        <time>2017-12-09T10:00:19Z</time>
      </trkpt>
      <trkpt lat="43.46877" lon="1.92112">
        <ele>232.3</ele>
        <time>2017-12-09T10:00:35Z</time>
      </trkpt>
      <trkpt lat="43.4689" lon="1.921">
        <ele>232.3</ele>
        <time>2017-12-09T10:00:48Z</time>
      </trkpt>
      <trkpt lat="43.46909" lon="1.92089">
        <ele>232.78</ele>
        <time>2017-12-09T10:01:05Z</time>
      </trkpt>
      <trkpt lat="43.46921" lon="1.9208">
        <ele>232.78</ele>
        <time>2017-12-09T10:01:18Z</time>
      </trkpt>
      <trkpt lat="43.46929" lon="1.92081">
        <ele>231.81</ele>
        <time>2017-12-09T10:01:34Z</time>
      </trkpt>
      <trkpt lat="43.46931" lon="1.92082">
        <ele>232.3</ele>
        <time>2017-12-09T10:01:46Z</time>
      </trkpt>
      <trkpt lat="43.46942" lon="1.92088">
        <ele>229.89</ele>
        <time>2017-12-09T10:02:03Z</time>
      </trkpt>
      <trkpt lat="43.46945" lon="1.92091">
        <ele>229.41</ele>
        <time>2017-12-09T10:02:07Z</time>
      </trkpt>
      <trkpt lat="43.46948" lon="1.92094">
        <ele>228.45</ele>
        <time>2017-12-09T10:02:23Z</time>
      </trkpt>
      <trkpt lat="43.46948" lon="1.92093">
        <ele>227.97</ele>
        <time>2017-12-09T10:02:48Z</time>
      </trkpt>
      <trkpt lat="43.46955" lon="1.92102">
        <ele>227.01</ele>
        <time>2017-12-09T10:04:05Z</time>
      </trkpt>
      <trkpt lat="43.46956" lon="1.92103">
        <ele>226.53</ele>
        <time>2017-12-09T10:04:30Z</time>
      </trkpt>
      <trkpt lat="43.46961" lon="1.92105">
        <ele>225.57</ele>
        <time>2017-12-09T10:04:44Z</time>
      </trkpt>
      <trkpt lat="43.46973" lon="1.9212">
        <ele>222.68</ele>
        <time>2017-12-09T10:05:00Z</time>
      </trkpt>
      <trkpt lat="43.46983" lon="1.9213">
        <ele>221.24</ele>
        <time>2017-12-09T10:05:15Z</time>
      </trkpt>
      <trkpt lat="43.46987" lon="1.92136">
        <ele>220.28</ele>
        <time>2017-12-09T10:05:28Z</time>
      </trkpt>
      <trkpt lat="43.46989" lon="1.92139">
        <ele>219.8</ele>
        <time>2017-12-09T10:05:31Z</time>
      </trkpt>
      <trkpt lat="43.46994" lon="1.92144">
        <ele>219.32</ele>
        <time>2017-12-09T10:05:36Z</time>
      </trkpt>
      <trkpt lat="43.47006" lon="1.92156">
        <ele>217.88</ele>
        <time>2017-12-09T10:05:49Z</time>
      </trkpt>
      <trkpt lat="43.47013" lon="1.92164">
        <ele>216.91</ele>
        <time>2017-12-09T10:06:01Z</time>
      </trkpt>
      <trkpt lat="43.47018" lon="1.92168">
        <ele>215.95</ele>
        <time>2017-12-09T10:06:06Z</time>
      </trkpt>
      <trkpt lat="43.47023" lon="1.92176">
        <ele>215.95</ele>
        <time>2017-12-09T10:06:17Z</time>
      </trkpt>
      <trkpt lat="43.47033" lon="1.92186">
        <ele>214.99</ele>
        <time>2017-12-09T10:06:29Z</time>
      </trkpt>
      <trkpt lat="43.47038" lon="1.92192">
        <ele>214.51</ele>
        <time>2017-12-09T10:06:37Z</time>
      </trkpt>
      <trkpt lat="43.47048" lon="1.92205">
        <ele>214.51</ele>
        <time>2017-12-09T10:06:51Z</time>
      </trkpt>
      <trkpt lat="43.47065" lon="1.92214">
        <ele>214.03</ele>
        <time>2017-12-09T10:07:08Z</time>
      </trkpt>
      <trkpt lat="43.47068" lon="1.92211">
        <ele>214.03</ele>
        <time>2017-12-09T10:07:13Z</time>
      </trkpt>
      <trkpt lat="43.47077" lon="1.92195">
        <ele>214.51</ele>
        <time>2017-12-09T10:07:26Z</time>
      </trkpt>
      <trkpt lat="43.47086" lon="1.92177">
        <ele>214.99</ele>
        <time>2017-12-09T10:07:41Z</time>
      </trkpt>
      <trkpt lat="43.47092" lon="1.92162">
        <ele>214.99</ele>
        <time>2017-12-09T10:07:52Z</time>
      </trkpt>
      <trkpt lat="43.47096" lon="1.92149">
        <ele>215.95</ele>
        <time>2017-12-09T10:08:01Z</time>
      </trkpt>
      <trkpt lat="43.47102" lon="1.92136">
        <ele>216.91</ele>
        <time>2017-12-09T10:08:11Z</time>
      </trkpt>
      <trkpt lat="43.47111" lon="1.92114">
        <ele>217.4</ele>
        <time>2017-12-09T10:08:26Z</time>
      </trkpt>
      <trkpt lat="43.47114" lon="1.92107">
        <ele>217.4</ele>
        <time>2017-12-09T10:08:31Z</time>
      </trkpt>
      <trkpt lat="43.47122" lon="1.92086">
        <ele>217.4</ele>
        <time>2017-12-09T10:08:47Z</time>
      </trkpt>
      <trkpt lat="43.4713" lon="1.92067">
        <ele>218.36</ele>
        <time>2017-12-09T10:09:03Z</time>
      </trkpt>
      <trkpt lat="43.4714" lon="1.92045">
        <ele>219.8</ele>
        <time>2017-12-09T10:09:21Z</time>
      </trkpt>
      <trkpt lat="43.47151" lon="1.92024">
        <ele>221.24</ele>
        <time>2017-12-09T10:09:39Z</time>
      </trkpt>
      <trkpt lat="43.47166" lon="1.92003">
        <ele>222.68</ele>
        <time>2017-12-09T10:09:59Z</time>
      </trkpt>
      <trkpt lat="43.47176" lon="1.91985">
        <ele>224.12</ele>
        <time>2017-12-09T10:10:14Z</time>
      </trkpt>
      <trkpt lat="43.4719" lon="1.91969">
        <ele>225.09</ele>
        <time>2017-12-09T10:10:32Z</time>
      </trkpt>
      <trkpt lat="43.47199" lon="1.91955">
        <ele>226.05</ele>
        <time>2017-12-09T10:10:45Z</time>
      </trkpt>
      <trkpt lat="43.47202" lon="1.9195">
        <ele>226.53</ele>
        <time>2017-12-09T10:10:50Z</time>
      </trkpt>
      <trkpt lat="43.47214" lon="1.91936">
        <ele>227.97</ele>
        <time>2017-12-09T10:11:05Z</time>
      </trkpt>
      <trkpt lat="43.47224" lon="1.91921">
        <ele>228.93</ele>
        <time>2017-12-09T10:11:21Z</time>
      </trkpt>
      <trkpt lat="43.47241" lon="1.91903">
        <ele>231.33</ele>
        <time>2017-12-09T10:11:40Z</time>
      </trkpt>
      <trkpt lat="43.47254" lon="1.91889">
        <ele>233.26</ele>
        <time>2017-12-09T10:11:57Z</time>
      </trkpt>
      <trkpt lat="43.47266" lon="1.91875">
        <ele>234.7</ele>
        <time>2017-12-09T10:12:13Z</time>
      </trkpt>
      <trkpt lat="43.47273" lon="1.91867">
        <ele>235.66</ele>
        <time>2017-12-09T10:12:22Z</time>
      </trkpt>
      <trkpt lat="43.47283" lon="1.91853">
        <ele>237.1</ele>
        <time>2017-12-09T10:12:37Z</time>
      </trkpt>
      <trkpt lat="43.47295" lon="1.9184">
        <ele>238.54</ele>
        <time>2017-12-09T10:12:54Z</time>
      </trkpt>
      <trkpt lat="43.47307" lon="1.91826">
        <ele>240.47</ele>
        <time>2017-12-09T10:13:10Z</time>
      </trkpt>
      <trkpt lat="43.47316" lon="1.91815">
        <ele>241.43</ele>
        <time>2017-12-09T10:13:23Z</time>
      </trkpt>
      <trkpt lat="43.47317" lon="1.91813">
        <ele>241.43</ele>
        <time>2017-12-09T10:13:24Z</time>
      </trkpt>
      <trkpt lat="43.47327" lon="1.91802">
        <ele>242.87</ele>
        <time>2017-12-09T10:13:39Z</time>
      </trkpt>
      <trkpt lat="43.47331" lon="1.91798">
        <ele>243.35</ele>
        <time>2017-12-09T10:13:44Z</time>
      </trkpt>
      <trkpt lat="43.47337" lon="1.91785">
        <ele>244.31</ele>
        <time>2017-12-09T10:13:55Z</time>
      </trkpt>
      <trkpt lat="43.4734" lon="1.9178">
        <ele>244.79</ele>
        <time>2017-12-09T10:14:00Z</time>
      </trkpt>
      <trkpt lat="43.47345" lon="1.91764">
        <ele>246.23</ele>
        <time>2017-12-09T10:14:15Z</time>
      </trkpt>
      <trkpt lat="43.47345" lon="1.91761">
        <ele>245.75</ele>
        <time>2017-12-09T10:20:43Z</time>
      </trkpt>
      <trkpt lat="43.47346" lon="1.9176">
        <ele>246.23</ele>
        <time>2017-12-09T10:21:09Z</time>
      </trkpt>
      <trkpt lat="43.47338" lon="1.91764">
        <ele>245.75</ele>
        <time>2017-12-09T10:21:26Z</time>
      </trkpt>
      <trkpt lat="43.47336" lon="1.91764">
        <ele>245.75</ele>
        <time>2017-12-09T10:21:28Z</time>
      </trkpt>
      <trkpt lat="43.47328" lon="1.91771">
        <ele>246.23</ele>
        <time>2017-12-09T10:21:41Z</time>
      </trkpt>
      <trkpt lat="43.47315" lon="1.91775">
        <ele>246.23</ele>
        <time>2017-12-09T10:21:54Z</time>
      </trkpt>
      <trkpt lat="43.47305" lon="1.9178">
        <ele>246.23</ele>
        <time>2017-12-09T10:22:04Z</time>
      </trkpt>
      <trkpt lat="43.47288" lon="1.91788">
        <ele>246.72</ele>
        <time>2017-12-09T10:22:19Z</time>
      </trkpt>
      <trkpt lat="43.47271" lon="1.91794">
        <ele>247.2</ele>
        <time>2017-12-09T10:22:35Z</time>
      </trkpt>
      <trkpt lat="43.47262" lon="1.91799">
        <ele>247.68</ele>
        <time>2017-12-09T10:22:44Z</time>
      </trkpt>
      <trkpt lat="43.4726" lon="1.91801">
        <ele>247.68</ele>
        <time>2017-12-09T10:22:46Z</time>
      </trkpt>
      <trkpt lat="43.47246" lon="1.91805">
        <ele>248.16</ele>
        <time>2017-12-09T10:23:00Z</time>
      </trkpt>
      <trkpt lat="43.47234" lon="1.91809">
        <ele>249.12</ele>
        <time>2017-12-09T10:23:11Z</time>
      </trkpt>
      <trkpt lat="43.47221" lon="1.91815">
        <ele>249.12</ele>
        <time>2017-12-09T10:23:25Z</time>
      </trkpt>
      <trkpt lat="43.47207" lon="1.91822">
        <ele>249.6</ele>
        <time>2017-12-09T10:23:38Z</time>
      </trkpt>
      <trkpt lat="43.47204" lon="1.91823">
        <ele>249.6</ele>
        <time>2017-12-09T10:23:40Z</time>
      </trkpt>
      <trkpt lat="43.47196" lon="1.91826">
        <ele>250.08</ele>
        <time>2017-12-09T10:23:47Z</time>
      </trkpt>
      <trkpt lat="43.47193" lon="1.91828">
        <ele>250.08</ele>
        <time>2017-12-09T10:23:50Z</time>
      </trkpt>
      <trkpt lat="43.47183" lon="1.91829">
        <ele>250.56</ele>
        <time>2017-12-09T10:23:59Z</time>
      </trkpt>
      <trkpt lat="43.47166" lon="1.91835">
        <ele>251.04</ele>
        <time>2017-12-09T10:24:14Z</time>
      </trkpt>
      <trkpt lat="43.47148" lon="1.91838">
        <ele>251.52</ele>
        <time>2017-12-09T10:24:31Z</time>
      </trkpt>
      <trkpt lat="43.4713" lon="1.91839">
        <ele>252</ele>
        <time>2017-12-09T10:24:47Z</time>
      </trkpt>
      <trkpt lat="43.47119" lon="1.91839">
        <ele>252.48</ele>
        <time>2017-12-09T10:24:57Z</time>
      </trkpt>
      <trkpt lat="43.47102" lon="1.91841">
        <ele>252.96</ele>
        <time>2017-12-09T10:25:12Z</time>
      </trkpt>
      <trkpt lat="43.47101" lon="1.9184">
        <ele>252.96</ele>
        <time>2017-12-09T10:25:13Z</time>
      </trkpt>
      <trkpt lat="43.47082" lon="1.91839">
        <ele>253.44</ele>
        <time>2017-12-09T10:25:29Z</time>
      </trkpt>
      <trkpt lat="43.47069" lon="1.91837">
        <ele>253.44</ele>
        <time>2017-12-09T10:25:40Z</time>
      </trkpt>
      <trkpt lat="43.47052" lon="1.91835">
        <ele>254.41</ele>
        <time>2017-12-09T10:25:54Z</time>
      </trkpt>
      <trkpt lat="43.47048" lon="1.91834">
        <ele>254.41</ele>
        <time>2017-12-09T10:25:58Z</time>
      </trkpt>
      <trkpt lat="43.47027" lon="1.91831">
        <ele>254.41</ele>
        <time>2017-12-09T10:26:17Z</time>
      </trkpt>
      <trkpt lat="43.47021" lon="1.9183">
        <ele>254.41</ele>
        <time>2017-12-09T10:26:22Z</time>
      </trkpt>
      <trkpt lat="43.46998" lon="1.91826">
        <ele>254.41</ele>
        <time>2017-12-09T10:26:40Z</time>
      </trkpt>
      <trkpt lat="43.46977" lon="1.91824">
        <ele>254.41</ele>
        <time>2017-12-09T10:26:58Z</time>
      </trkpt>
      <trkpt lat="43.46958" lon="1.91822">
        <ele>253.93</ele>
        <time>2017-12-09T10:27:14Z</time>
      </trkpt>
      <trkpt lat="43.46941" lon="1.91822">
        <ele>254.41</ele>
        <time>2017-12-09T10:27:28Z</time>
      </trkpt>
      <trkpt lat="43.46924" lon="1.91824">
        <ele>254.41</ele>
        <time>2017-12-09T10:27:43Z</time>
      </trkpt>
      <trkpt lat="43.46908" lon="1.9183">
        <ele>254.41</ele>
        <time>2017-12-09T10:27:58Z</time>
      </trkpt>
      <trkpt lat="43.4689" lon="1.9184">
        <ele>254.89</ele>
        <time>2017-12-09T10:28:15Z</time>
      </trkpt>
      <trkpt lat="43.46876" lon="1.91854">
        <ele>255.85</ele>
        <time>2017-12-09T10:28:31Z</time>
      </trkpt>
      <trkpt lat="43.46871" lon="1.91863">
        <ele>255.85</ele>
        <time>2017-12-09T10:28:40Z</time>
      </trkpt>
      <trkpt lat="43.46868" lon="1.91885">
        <ele>255.85</ele>
        <time>2017-12-09T10:28:55Z</time>
      </trkpt>
      <trkpt lat="43.46867" lon="1.9189">
        <ele>255.85</ele>
        <time>2017-12-09T10:28:59Z</time>
      </trkpt>
      <trkpt lat="43.46869" lon="1.91908">
        <ele>256.33</ele>
        <time>2017-12-09T10:29:14Z</time>
      </trkpt>
      <trkpt lat="43.46873" lon="1.91926">
        <ele>256.33</ele>
        <time>2017-12-09T10:29:27Z</time>
      </trkpt>
      <trkpt lat="43.46877" lon="1.91948">
        <ele>256.81</ele>
        <time>2017-12-09T10:29:43Z</time>
      </trkpt>
      <trkpt lat="43.46877" lon="1.91953">
        <ele>256.81</ele>
        <time>2017-12-09T10:30:03Z</time>
      </trkpt>
      <trkpt lat="43.46877" lon="1.91957">
        <ele>256.33</ele>
        <time>2017-12-09T10:30:13Z</time>
      </trkpt>
      <trkpt lat="43.46873" lon="1.91984">
        <ele>257.29</ele>
        <time>2017-12-09T10:30:29Z</time>
      </trkpt>
      <trkpt lat="43.46871" lon="1.9199">
        <ele>257.29</ele>
        <time>2017-12-09T10:30:32Z</time>
      </trkpt>
      <trkpt lat="43.46866" lon="1.91999">
        <ele>256.81</ele>
        <time>2017-12-09T10:30:39Z</time>
      </trkpt>
      <trkpt lat="43.46848" lon="1.92018">
        <ele>257.29</ele>
        <time>2017-12-09T10:30:56Z</time>
      </trkpt>
      <trkpt lat="43.46839" lon="1.92023">
        <ele>257.29</ele>
        <time>2017-12-09T10:31:04Z</time>
      </trkpt>
      <trkpt lat="43.46833" lon="1.92025">
        <ele>257.29</ele>
        <time>2017-12-09T10:31:09Z</time>
      </trkpt>
      <trkpt lat="43.46814" lon="1.92034">
        <ele>256.81</ele>
        <time>2017-12-09T10:31:26Z</time>
      </trkpt>
      <trkpt lat="43.46808" lon="1.92037">
        <ele>256.81</ele>
        <time>2017-12-09T10:31:31Z</time>
      </trkpt>
      <trkpt lat="43.46804" lon="1.92036">
        <ele>256.81</ele>
        <time>2017-12-09T10:31:35Z</time>
      </trkpt>
      <trkpt lat="43.46799" lon="1.92038">
        <ele>256.81</ele>
        <time>2017-12-09T10:31:39Z</time>
      </trkpt>
      <trkpt lat="43.46789" lon="1.92043">
        <ele>257.29</ele>
        <time>2017-12-09T10:31:48Z</time>
      </trkpt>
      <trkpt lat="43.46774" lon="1.92053">
        <ele>257.77</ele>
        <time>2017-12-09T10:32:03Z</time>
      </trkpt>
      <trkpt lat="43.46758" lon="1.92063">
        <ele>258.73</ele>
        <time>2017-12-09T10:32:19Z</time>
      </trkpt>
      <trkpt lat="43.46753" lon="1.92067">
        <ele>259.21</ele>
        <time>2017-12-09T10:32:23Z</time>
      </trkpt>
      <trkpt lat="43.46736" lon="1.92077">
        <ele>259.69</ele>
        <time>2017-12-09T10:32:39Z</time>
      </trkpt>
      <trkpt lat="43.46734" lon="1.92078">
        <ele>259.69</ele>
        <time>2017-12-09T10:32:41Z</time>
      </trkpt>
      <trkpt lat="43.46716" lon="1.92087">
        <ele>260.17</ele>
        <time>2017-12-09T10:33:00Z</time>
      </trkpt>
      <trkpt lat="43.46696" lon="1.92096">
        <ele>260.65</ele>
        <time>2017-12-09T10:33:18Z</time>
      </trkpt>
      <trkpt lat="43.46681" lon="1.92104">
        <ele>260.65</ele>
        <time>2017-12-09T10:33:32Z</time>
      </trkpt>
      <trkpt lat="43.46665" lon="1.92108">
        <ele>260.65</ele>
        <time>2017-12-09T10:33:46Z</time>
      </trkpt>
      <trkpt lat="43.46653" lon="1.92113">
        <ele>260.17</ele>
        <time>2017-12-09T10:33:57Z</time>
      </trkpt>
      <trkpt lat="43.46642" lon="1.92117">
        <ele>261.14</ele>
        <time>2017-12-09T10:34:13Z</time>
      </trkpt>
      <trkpt lat="43.46639" lon="1.92114">
        <ele>261.14</ele>
        <time>2017-12-09T10:40:19Z</time>
      </trkpt>
      <trkpt lat="43.46638" lon="1.9211">
        <ele>260.65</ele>
        <time>2017-12-09T10:40:31Z</time>
      </trkpt>
      <trkpt lat="43.46622" lon="1.92102">
        <ele>259.69</ele>
        <time>2017-12-09T10:40:48Z</time>
      </trkpt>
      <trkpt lat="43.46605" lon="1.92091">
        <ele>259.69</ele>
        <time>2017-12-09T10:41:04Z</time>
      </trkpt>
      <trkpt lat="43.46587" lon="1.92087">
        <ele>260.17</ele>
        <time>2017-12-09T10:41:19Z</time>
      </trkpt>
      <trkpt lat="43.4657" lon="1.9209">
        <ele>260.65</ele>
        <time>2017-12-09T10:41:33Z</time>
      </trkpt>
      <trkpt lat="43.46568" lon="1.9209">
        <ele>261.14</ele>
        <time>2017-12-09T10:41:35Z</time>
      </trkpt>
      <trkpt lat="43.46552" lon="1.92097">
        <ele>262.1</ele>
        <time>2017-12-09T10:41:50Z</time>
      </trkpt>
      <trkpt lat="43.4655" lon="1.92097">
        <ele>262.1</ele>
        <time>2017-12-09T10:41:52Z</time>
      </trkpt>
      <trkpt lat="43.4654" lon="1.92102">
        <ele>263.06</ele>
        <time>2017-12-09T10:42:02Z</time>
      </trkpt>
      <trkpt lat="43.46538" lon="1.92103">
        <ele>263.06</ele>
        <time>2017-12-09T10:42:04Z</time>
      </trkpt>
      <trkpt lat="43.46527" lon="1.92106">
        <ele>263.54</ele>
        <time>2017-12-09T10:42:14Z</time>
      </trkpt>
      <trkpt lat="43.46511" lon="1.92104">
        <ele>263.54</ele>
        <time>2017-12-09T10:42:29Z</time>
      </trkpt>
      <trkpt lat="43.46507" lon="1.92102">
        <ele>264.02</ele>
        <time>2017-12-09T10:42:33Z</time>
      </trkpt>
      <trkpt lat="43.46505" lon="1.92103">
        <ele>264.02</ele>
        <time>2017-12-09T10:42:35Z</time>
      </trkpt>
      <trkpt lat="43.46492" lon="1.92101">
        <ele>264.02</ele>
        <time>2017-12-09T10:42:50Z</time>
      </trkpt>
      <trkpt lat="43.46481" lon="1.921">
        <ele>264.5</ele>
        <time>2017-12-09T10:43:02Z</time>
      </trkpt>
      <trkpt lat="43.46462" lon="1.92098">
        <ele>264.5</ele>
        <time>2017-12-09T10:43:19Z</time>
      </trkpt>
      <trkpt lat="43.46461" lon="1.92097">
        <ele>264.5</ele>
        <time>2017-12-09T10:43:20Z</time>
      </trkpt>
      <trkpt lat="43.46452" lon="1.92094">
        <ele>264.98</ele>
        <time>2017-12-09T10:43:29Z</time>
      </trkpt>
      <trkpt lat="43.46443" lon="1.92092">
        <ele>264.98</ele>
        <time>2017-12-09T10:43:38Z</time>
      </trkpt>
      <trkpt lat="43.46439" lon="1.9209">
        <ele>264.98</ele>
        <time>2017-12-09T10:43:42Z</time>
      </trkpt>
      <trkpt lat="43.46432" lon="1.92085">
        <ele>265.46</ele>
        <time>2017-12-09T10:43:49Z</time>
      </trkpt>
      <trkpt lat="43.4642" lon="1.92072">
        <ele>264.98</ele>
        <time>2017-12-09T10:44:02Z</time>
      </trkpt>
      <trkpt lat="43.464" lon="1.92053">
        <ele>264.98</ele>
        <time>2017-12-09T10:44:23Z</time>
      </trkpt>
      <trkpt lat="43.46387" lon="1.92036">
        <ele>264.98</ele>
        <time>2017-12-09T10:44:39Z</time>
      </trkpt>
      <trkpt lat="43.46381" lon="1.92028">
        <ele>264.98</ele>
        <time>2017-12-09T10:44:46Z</time>
      </trkpt>
      <trkpt lat="43.46375" lon="1.9202">
        <ele>264.02</ele>
        <time>2017-12-09T10:44:53Z</time>
      </trkpt>
      <trkpt lat="43.46367" lon="1.92006">
        <ele>264.02</ele>
        <time>2017-12-09T10:45:04Z</time>
      </trkpt>
      <trkpt lat="43.46356" lon="1.9199">
        <ele>264.02</ele>
        <time>2017-12-09T10:45:17Z</time>
      </trkpt>
      <trkpt lat="43.46343" lon="1.91966">
        <ele>263.54</ele>
        <time>2017-12-09T10:45:35Z</time>
      </trkpt>
      <trkpt lat="43.46341" lon="1.91962">
        <ele>263.06</ele>
        <time>2017-12-09T10:45:38Z</time>
      </trkpt>
      <trkpt lat="43.46338" lon="1.91955">
        <ele>262.58</ele>
        <time>2017-12-09T10:45:43Z</time>
      </trkpt>
      <trkpt lat="43.4633" lon="1.9193">
        <ele>263.06</ele>
        <time>2017-12-09T10:46:00Z</time>
      </trkpt>
      <trkpt lat="43.46326" lon="1.91905">
        <ele>263.06</ele>
        <time>2017-12-09T10:46:16Z</time>
      </trkpt>
      <trkpt lat="43.46326" lon="1.91903">
        <ele>262.58</ele>
        <time>2017-12-09T10:46:17Z</time>
      </trkpt>
      <trkpt lat="43.4632" lon="1.91883">
        <ele>262.58</ele>
        <time>2017-12-09T10:46:31Z</time>
      </trkpt>
      <trkpt lat="43.46311" lon="1.91863">
        <ele>262.58</ele>
        <time>2017-12-09T10:46:46Z</time>
      </trkpt>
      <trkpt lat="43.46308" lon="1.91858">
        <ele>263.06</ele>
        <time>2017-12-09T10:46:50Z</time>
      </trkpt>
      <trkpt lat="43.46296" lon="1.91839">
        <ele>262.58</ele>
        <time>2017-12-09T10:47:06Z</time>
      </trkpt>
      <trkpt lat="43.46285" lon="1.91823">
        <ele>262.1</ele>
        <time>2017-12-09T10:47:20Z</time>
      </trkpt>
      <trkpt lat="43.46274" lon="1.91808">
        <ele>262.1</ele>
        <time>2017-12-09T10:47:34Z</time>
      </trkpt>
      <trkpt lat="43.46262" lon="1.91789">
        <ele>261.14</ele>
        <time>2017-12-09T10:47:49Z</time>
      </trkpt>
      <trkpt lat="43.4625" lon="1.91768">
        <ele>260.65</ele>
        <time>2017-12-09T10:48:06Z</time>
      </trkpt>
      <trkpt lat="43.46245" lon="1.91754">
        <ele>260.17</ele>
        <time>2017-12-09T10:48:16Z</time>
      </trkpt>
      <trkpt lat="43.4624" lon="1.91744">
        <ele>261.14</ele>
        <time>2017-12-09T10:48:23Z</time>
      </trkpt>
      <trkpt lat="43.46233" lon="1.91725">
        <ele>261.14</ele>
        <time>2017-12-09T10:48:37Z</time>
      </trkpt>
      <trkpt lat="43.4623" lon="1.91719">
        <ele>261.14</ele>
        <time>2017-12-09T10:48:41Z</time>
      </trkpt>
      <trkpt lat="43.4622" lon="1.91699">
        <ele>260.65</ele>
        <time>2017-12-09T10:48:57Z</time>
      </trkpt>
      <trkpt lat="43.4621" lon="1.91679">
        <ele>260.65</ele>
        <time>2017-12-09T10:49:13Z</time>
      </trkpt>
      <trkpt lat="43.46207" lon="1.91671">
        <ele>260.17</ele>
        <time>2017-12-09T10:49:19Z</time>
      </trkpt>
      <trkpt lat="43.46204" lon="1.91666">
        <ele>260.65</ele>
        <time>2017-12-09T10:49:23Z</time>
      </trkpt>
      <trkpt lat="43.46192" lon="1.91643">
        <ele>260.17</ele>
        <time>2017-12-09T10:49:41Z</time>
      </trkpt>
      <trkpt lat="43.46187" lon="1.91634">
        <ele>260.65</ele>
        <time>2017-12-09T10:49:48Z</time>
      </trkpt>
      <trkpt lat="43.46175" lon="1.91615">
        <ele>259.69</ele>
        <time>2017-12-09T10:50:04Z</time>
      </trkpt>
      <trkpt lat="43.46164" lon="1.916">
        <ele>259.69</ele>
        <time>2017-12-09T10:50:17Z</time>
      </trkpt>
      <trkpt lat="43.46163" lon="1.91599">
        <ele>259.69</ele>
        <time>2017-12-09T10:50:18Z</time>
      </trkpt>
      <trkpt lat="43.46151" lon="1.9158">
        <ele>259.21</ele>
        <time>2017-12-09T10:50:34Z</time>
      </trkpt>
      <trkpt lat="43.46146" lon="1.91573">
        <ele>259.21</ele>
        <time>2017-12-09T10:50:40Z</time>
      </trkpt>
      <trkpt lat="43.46134" lon="1.91556">
        <ele>258.73</ele>
        <time>2017-12-09T10:50:56Z</time>
      </trkpt>
      <trkpt lat="43.46122" lon="1.9154">
        <ele>258.73</ele>
        <time>2017-12-09T10:51:11Z</time>
      </trkpt>
      <trkpt lat="43.4611" lon="1.91523">
        <ele>257.77</ele>
        <time>2017-12-09T10:51:26Z</time>
      </trkpt>
      <trkpt lat="43.46095" lon="1.91506">
        <ele>257.29</ele>
        <time>2017-12-09T10:51:42Z</time>
      </trkpt>
      <trkpt lat="43.46081" lon="1.91493">
        <ele>257.29</ele>
        <time>2017-12-09T10:51:57Z</time>
      </trkpt>
      <trkpt lat="43.46066" lon="1.91478">
        <ele>256.81</ele>
        <time>2017-12-09T10:52:13Z</time>
      </trkpt>
      <trkpt lat="43.4605" lon="1.91465">
        <ele>256.81</ele>
        <time>2017-12-09T10:52:30Z</time>
      </trkpt>
      <trkpt lat="43.46037" lon="1.91451">
        <ele>256.33</ele>
        <time>2017-12-09T10:52:45Z</time>
      </trkpt>
      <trkpt lat="43.46024" lon="1.91435">
        <ele>256.33</ele>
        <time>2017-12-09T10:53:01Z</time>
      </trkpt>
      <trkpt lat="43.4601" lon="1.91418">
        <ele>255.85</ele>
        <time>2017-12-09T10:53:18Z</time>
      </trkpt>
      <trkpt lat="43.45999" lon="1.91402">
        <ele>256.33</ele>
        <time>2017-12-09T10:53:34Z</time>
      </trkpt>
      <trkpt lat="43.45993" lon="1.91395">
        <ele>256.33</ele>
        <time>2017-12-09T10:53:41Z</time>
      </trkpt>
      <trkpt lat="43.45991" lon="1.9139">
        <ele>256.33</ele>
        <time>2017-12-09T10:53:45Z</time>
      </trkpt>
      <trkpt lat="43.45978" lon="1.91374">
        <ele>256.33</ele>
        <time>2017-12-09T10:54:00Z</time>
      </trkpt>
      <trkpt lat="43.45974" lon="1.91368">
        <ele>257.29</ele>
        <time>2017-12-09T10:54:06Z</time>
      </trkpt>
      <trkpt lat="43.45961" lon="1.91351">
        <ele>256.81</ele>
        <time>2017-12-09T10:54:22Z</time>
      </trkpt>
      <trkpt lat="43.45956" lon="1.91343">
        <ele>256.81</ele>
        <time>2017-12-09T10:54:30Z</time>
      </trkpt>
      <trkpt lat="43.45941" lon="1.91321">
        <ele>257.29</ele>
        <time>2017-12-09T10:54:49Z</time>
      </trkpt>
      <trkpt lat="43.45931" lon="1.91306">
        <ele>257.29</ele>
        <time>2017-12-09T10:55:03Z</time>
      </trkpt>
      <trkpt lat="43.45922" lon="1.91293">
        <ele>257.29</ele>
        <time>2017-12-09T10:55:15Z</time>
      </trkpt>
      <trkpt lat="43.4592" lon="1.9129">
        <ele>257.29</ele>
        <time>2017-12-09T10:55:18Z</time>
      </trkpt>
      <trkpt lat="43.45914" lon="1.91282">
        <ele>257.29</ele>
        <time>2017-12-09T10:55:25Z</time>
      </trkpt>
      <trkpt lat="43.45907" lon="1.91273">
        <ele>256.81</ele>
        <time>2017-12-09T10:55:33Z</time>
      </trkpt>
      <trkpt lat="43.45903" lon="1.91266">
        <ele>257.29</ele>
        <time>2017-12-09T10:55:39Z</time>
      </trkpt>
      <trkpt lat="43.45895" lon="1.91253">
        <ele>256.33</ele>
        <time>2017-12-09T10:55:55Z</time>
      </trkpt>
      <trkpt lat="43.4589" lon="1.91247">
        <ele>257.29</ele>
        <time>2017-12-09T10:56:13Z</time>
      </trkpt>
      <trkpt lat="43.45877" lon="1.91226">
        <ele>256.81</ele>
        <time>2017-12-09T10:56:29Z</time>
      </trkpt>
      <trkpt lat="43.45866" lon="1.91208">
        <ele>256.81</ele>
        <time>2017-12-09T10:56:45Z</time>
      </trkpt>
      <trkpt lat="43.45865" lon="1.91208">
        <ele>256.81</ele>
        <time>2017-12-09T10:56:46Z</time>
      </trkpt>
      <trkpt lat="43.45856" lon="1.91195">
        <ele>255.37</ele>
        <time>2017-12-09T10:56:58Z</time>
      </trkpt>
      <trkpt lat="43.45853" lon="1.91189">
        <ele>255.37</ele>
        <time>2017-12-09T10:57:02Z</time>
      </trkpt>
      <trkpt lat="43.45842" lon="1.91174">
        <ele>254.41</ele>
        <time>2017-12-09T10:57:16Z</time>
      </trkpt>
      <trkpt lat="43.4583" lon="1.91156">
        <ele>253.44</ele>
        <time>2017-12-09T10:57:31Z</time>
      </trkpt>
      <trkpt lat="43.45824" lon="1.91144">
        <ele>253.44</ele>
        <time>2017-12-09T10:57:40Z</time>
      </trkpt>
      <trkpt lat="43.45813" lon="1.91119">
        <ele>252.48</ele>
        <time>2017-12-09T10:57:58Z</time>
      </trkpt>
      <trkpt lat="43.45811" lon="1.91109">
        <ele>252.48</ele>
        <time>2017-12-09T10:58:04Z</time>
      </trkpt>
      <trkpt lat="43.45805" lon="1.91085">
        <ele>251.52</ele>
        <time>2017-12-09T10:58:19Z</time>
      </trkpt>
      <trkpt lat="43.458" lon="1.91061">
        <ele>251.04</ele>
        <time>2017-12-09T10:58:34Z</time>
      </trkpt>
      <trkpt lat="43.45795" lon="1.91037">
        <ele>251.04</ele>
        <time>2017-12-09T10:58:50Z</time>
      </trkpt>
      <trkpt lat="43.45784" lon="1.9102">
        <ele>251.04</ele>
        <time>2017-12-09T10:59:05Z</time>
      </trkpt>
      <trkpt lat="43.4577" lon="1.91008">
        <ele>251.04</ele>
        <time>2017-12-09T10:59:19Z</time>
      </trkpt>
      <trkpt lat="43.45755" lon="1.90995">
        <ele>251.52</ele>
        <time>2017-12-09T10:59:34Z</time>
      </trkpt>
      <trkpt lat="43.45746" lon="1.90988">
        <ele>251.52</ele>
        <time>2017-12-09T10:59:43Z</time>
      </trkpt>
      <trkpt lat="43.45729" lon="1.90975">
        <ele>252</ele>
        <time>2017-12-09T11:00:00Z</time>
      </trkpt>
      <trkpt lat="43.45716" lon="1.90964">
        <ele>252.48</ele>
        <time>2017-12-09T11:00:13Z</time>
      </trkpt>
      <trkpt lat="43.45712" lon="1.90957">
        <ele>252.48</ele>
        <time>2017-12-09T11:00:19Z</time>
      </trkpt>
      <trkpt lat="43.45693" lon="1.90943">
        <ele>252.96</ele>
        <time>2017-12-09T11:00:37Z</time>
      </trkpt>
      <trkpt lat="43.4568" lon="1.90931">
        <ele>253.44</ele>
        <time>2017-12-09T11:00:51Z</time>
      </trkpt>
      <trkpt lat="43.45669" lon="1.90919">
        <ele>253.93</ele>
        <time>2017-12-09T11:01:02Z</time>
      </trkpt>
      <trkpt lat="43.45654" lon="1.90902">
        <ele>253.44</ele>
        <time>2017-12-09T11:01:19Z</time>
      </trkpt>
      <trkpt lat="43.45639" lon="1.90884">
        <ele>253.93</ele>
        <time>2017-12-09T11:01:37Z</time>
      </trkpt>
      <trkpt lat="43.45626" lon="1.90862">
        <ele>254.41</ele>
        <time>2017-12-09T11:01:55Z</time>
      </trkpt>
      <trkpt lat="43.45613" lon="1.90836">
        <ele>254.89</ele>
        <time>2017-12-09T11:02:15Z</time>
      </trkpt>
      <trkpt lat="43.45606" lon="1.90811">
        <ele>254.41</ele>
        <time>2017-12-09T11:02:31Z</time>
      </trkpt>
      <trkpt lat="43.45604" lon="1.90782">
        <ele>253.93</ele>
        <time>2017-12-09T11:02:48Z</time>
      </trkpt>
      <trkpt lat="43.45602" lon="1.90754">
        <ele>253.44</ele>
        <time>2017-12-09T11:03:06Z</time>
      </trkpt>
      <trkpt lat="43.45593" lon="1.90724">
        <ele>253.44</ele>
        <time>2017-12-09T11:03:26Z</time>
      </trkpt>
      <trkpt lat="43.45583" lon="1.90698">
        <ele>253.93</ele>
        <time>2017-12-09T11:03:45Z</time>
      </trkpt>
      <trkpt lat="43.45571" lon="1.90671">
        <ele>253.93</ele>
        <time>2017-12-09T11:04:04Z</time>
      </trkpt>
      <trkpt lat="43.4556" lon="1.90645">
        <ele>253.93</ele>
        <time>2017-12-09T11:04:22Z</time>
      </trkpt>
      <trkpt lat="43.45546" lon="1.90614">
        <ele>253.93</ele>
        <time>2017-12-09T11:04:44Z</time>
      </trkpt>
      <trkpt lat="43.45536" lon="1.90589">
        <ele>253.93</ele>
        <time>2017-12-09T11:05:02Z</time>
      </trkpt>
      <trkpt lat="43.45526" lon="1.90561">
        <ele>254.41</ele>
        <time>2017-12-09T11:05:21Z</time>
      </trkpt>
      <trkpt lat="43.45519" lon="1.90537">
        <ele>253.93</ele>
        <time>2017-12-09T11:05:37Z</time>
      </trkpt>
      <trkpt lat="43.45512" lon="1.90511">
        <ele>253.93</ele>
        <time>2017-12-09T11:05:55Z</time>
      </trkpt>
      <trkpt lat="43.45506" lon="1.90488">
        <ele>253.93</ele>
        <time>2017-12-09T11:06:11Z</time>
      </trkpt>
      <trkpt lat="43.455" lon="1.90457">
        <ele>254.89</ele>
        <time>2017-12-09T11:06:31Z</time>
      </trkpt>
      <trkpt lat="43.45494" lon="1.9043">
        <ele>254.89</ele>
        <time>2017-12-09T11:06:49Z</time>
      </trkpt>
      <trkpt lat="43.45491" lon="1.90408">
        <ele>255.85</ele>
        <time>2017-12-09T11:07:03Z</time>
      </trkpt>
      <trkpt lat="43.45488" lon="1.90382">
        <ele>255.37</ele>
        <time>2017-12-09T11:07:20Z</time>
      </trkpt>
      <trkpt lat="43.45484" lon="1.9036">
        <ele>255.85</ele>
        <time>2017-12-09T11:07:35Z</time>
      </trkpt>
      <trkpt lat="43.45483" lon="1.90356">
        <ele>255.85</ele>
        <time>2017-12-09T11:07:37Z</time>
      </trkpt>
      <trkpt lat="43.45481" lon="1.90345">
        <ele>255.85</ele>
        <time>2017-12-09T11:07:45Z</time>
      </trkpt>
      <trkpt lat="43.45477" lon="1.90321">
        <ele>255.37</ele>
        <time>2017-12-09T11:08:02Z</time>
      </trkpt>
      <trkpt lat="43.45471" lon="1.90302">
        <ele>254.89</ele>
        <time>2017-12-09T11:08:15Z</time>
      </trkpt>
      <trkpt lat="43.45468" lon="1.90293">
        <ele>255.37</ele>
        <time>2017-12-09T11:08:21Z</time>
      </trkpt>
      <trkpt lat="43.45462" lon="1.90274">
        <ele>255.85</ele>
        <time>2017-12-09T11:08:34Z</time>
      </trkpt>
      <trkpt lat="43.4546" lon="1.90269">
        <ele>255.37</ele>
        <time>2017-12-09T11:08:38Z</time>
      </trkpt>
      <trkpt lat="43.45456" lon="1.90257">
        <ele>255.37</ele>
        <time>2017-12-09T11:08:46Z</time>
      </trkpt>
      <trkpt lat="43.45448" lon="1.90237">
        <ele>255.85</ele>
        <time>2017-12-09T11:09:00Z</time>
      </trkpt>
      <trkpt lat="43.45442" lon="1.90218">
        <ele>256.33</ele>
        <time>2017-12-09T11:09:14Z</time>
      </trkpt>
      <trkpt lat="43.45438" lon="1.90204">
        <ele>256.81</ele>
        <time>2017-12-09T11:09:24Z</time>
      </trkpt>
      <trkpt lat="43.45436" lon="1.90197">
        <ele>256.81</ele>
        <time>2017-12-09T11:09:30Z</time>
      </trkpt>
      <trkpt lat="43.4543" lon="1.90174">
        <ele>256.81</ele>
        <time>2017-12-09T11:09:46Z</time>
      </trkpt>
      <trkpt lat="43.45427" lon="1.90158">
        <ele>257.29</ele>
        <time>2017-12-09T11:09:57Z</time>
      </trkpt>
      <trkpt lat="43.45425" lon="1.90136">
        <ele>257.77</ele>
        <time>2017-12-09T11:10:12Z</time>
      </trkpt>
      <trkpt lat="43.4542" lon="1.90113">
        <ele>258.73</ele>
        <time>2017-12-09T11:10:27Z</time>
      </trkpt>
      <trkpt lat="43.4542" lon="1.90111">
        <ele>258.73</ele>
        <time>2017-12-09T11:10:28Z</time>
      </trkpt>
      <trkpt lat="43.45416" lon="1.90098">
        <ele>258.25</ele>
        <time>2017-12-09T11:10:38Z</time>
      </trkpt>
      <trkpt lat="43.45409" lon="1.90077">
        <ele>258.25</ele>
        <time>2017-12-09T11:10:52Z</time>
      </trkpt>
      <trkpt lat="43.45401" lon="1.90057">
        <ele>259.21</ele>
        <time>2017-12-09T11:11:07Z</time>
      </trkpt>
      <trkpt lat="43.45392" lon="1.90038">
        <ele>259.21</ele>
        <time>2017-12-09T11:11:22Z</time>
      </trkpt>
      <trkpt lat="43.45379" lon="1.9002">
        <ele>259.21</ele>
        <time>2017-12-09T11:11:39Z</time>
      </trkpt>
      <trkpt lat="43.45365" lon="1.90004">
        <ele>259.69</ele>
        <time>2017-12-09T11:11:55Z</time>
      </trkpt>
      <trkpt lat="43.45358" lon="1.89997">
        <ele>260.17</ele>
        <time>2017-12-09T11:12:03Z</time>
      </trkpt>
      <trkpt lat="43.45357" lon="1.89994">
        <ele>260.65</ele>
        <time>2017-12-09T11:12:17Z</time>
      </trkpt>
      <trkpt lat="43.45349" lon="1.89984">
        <ele>260.65</ele>
        <time>2017-12-09T11:12:31Z</time>
      </trkpt>
      <trkpt lat="43.45346" lon="1.89982">
        <ele>261.62</ele>
        <time>2017-12-09T11:12:34Z</time>
      </trkpt>
      <trkpt lat="43.45338" lon="1.89971">
        <ele>261.14</ele>
        <time>2017-12-09T11:12:44Z</time>
      </trkpt>
      <trkpt lat="43.45333" lon="1.89965">
        <ele>261.62</ele>
        <time>2017-12-09T11:12:50Z</time>
      </trkpt>
      <trkpt lat="43.45326" lon="1.89956">
        <ele>262.58</ele>
        <time>2017-12-09T11:12:58Z</time>
      </trkpt>
      <trkpt lat="43.45314" lon="1.89945">
        <ele>262.58</ele>
        <time>2017-12-09T11:13:11Z</time>
      </trkpt>
      <trkpt lat="43.45312" lon="1.89942">
        <ele>262.58</ele>
        <time>2017-12-09T11:13:14Z</time>
      </trkpt>
      <trkpt lat="43.45303" lon="1.89931">
        <ele>262.58</ele>
        <time>2017-12-09T11:13:24Z</time>
      </trkpt>
      <trkpt lat="43.45288" lon="1.89918">
        <ele>263.06</ele>
        <time>2017-12-09T11:13:39Z</time>
      </trkpt>
      <trkpt lat="43.45284" lon="1.89915">
        <ele>262.58</ele>
        <time>2017-12-09T11:13:43Z</time>
      </trkpt>
      <trkpt lat="43.45275" lon="1.89911">
        <ele>263.06</ele>
        <time>2017-12-09T11:13:51Z</time>
      </trkpt>
      <trkpt lat="43.45268" lon="1.89907">
        <ele>263.54</ele>
        <time>2017-12-09T11:13:58Z</time>
      </trkpt>
      <trkpt lat="43.4525" lon="1.89901">
        <ele>264.02</ele>
        <time>2017-12-09T11:14:14Z</time>
      </trkpt>
      <trkpt lat="43.45235" lon="1.89895">
        <ele>264.5</ele>
        <time>2017-12-09T11:14:28Z</time>
      </trkpt>
      <trkpt lat="43.45233" lon="1.89894">
        <ele>264.5</ele>
        <time>2017-12-09T11:14:30Z</time>
      </trkpt>
      <trkpt lat="43.45222" lon="1.89888">
        <ele>264.98</ele>
        <time>2017-12-09T11:14:41Z</time>
      </trkpt>
      <trkpt lat="43.45214" lon="1.89884">
        <ele>265.46</ele>
        <time>2017-12-09T11:14:48Z</time>
      </trkpt>
      <trkpt lat="43.45202" lon="1.89876">
        <ele>265.94</ele>
        <time>2017-12-09T11:14:59Z</time>
      </trkpt>
      <trkpt lat="43.45196" lon="1.89872">
        <ele>265.94</ele>
        <time>2017-12-09T11:15:05Z</time>
      </trkpt>
      <trkpt lat="43.45175" lon="1.8986">
        <ele>265.46</ele>
        <time>2017-12-09T11:15:25Z</time>
      </trkpt>
      <trkpt lat="43.45154" lon="1.89859">
        <ele>264.02</ele>
        <time>2017-12-09T11:15:44Z</time>
      </trkpt>
      <trkpt lat="43.45143" lon="1.89865">
        <ele>263.54</ele>
        <time>2017-12-09T11:15:57Z</time>
      </trkpt>
      <trkpt lat="43.45126" lon="1.89867">
        <ele>263.54</ele>
        <time>2017-12-09T11:16:13Z</time>
      </trkpt>
      <trkpt lat="43.45108" lon="1.89851">
        <ele>264.02</ele>
        <time>2017-12-09T11:16:30Z</time>
      </trkpt>
      <trkpt lat="43.45096" lon="1.8984">
        <ele>264.02</ele>
        <time>2017-12-09T11:16:43Z</time>
      </trkpt>
      <trkpt lat="43.45093" lon="1.89837">
        <ele>264.02</ele>
        <time>2017-12-09T11:16:46Z</time>
      </trkpt>
      <trkpt lat="43.45079" lon="1.89824">
        <ele>265.46</ele>
        <time>2017-12-09T11:17:01Z</time>
      </trkpt>
      <trkpt lat="43.45071" lon="1.89817">
        <ele>266.42</ele>
        <time>2017-12-09T11:17:10Z</time>
      </trkpt>
      <trkpt lat="43.45066" lon="1.89813">
        <ele>266.9</ele>
        <time>2017-12-09T11:17:16Z</time>
      </trkpt>
      <trkpt lat="43.45052" lon="1.89798">
        <ele>268.83</ele>
        <time>2017-12-09T11:17:33Z</time>
      </trkpt>
      <trkpt lat="43.45035" lon="1.8978">
        <ele>269.31</ele>
        <time>2017-12-09T11:17:51Z</time>
      </trkpt>
      <trkpt lat="43.45024" lon="1.89768">
        <ele>268.35</ele>
        <time>2017-12-09T11:18:03Z</time>
      </trkpt>
      <trkpt lat="43.4501" lon="1.89755">
        <ele>268.35</ele>
        <time>2017-12-09T11:18:19Z</time>
      </trkpt>
      <trkpt lat="43.44993" lon="1.89743">
        <ele>268.35</ele>
        <time>2017-12-09T11:18:38Z</time>
      </trkpt>
      <trkpt lat="43.4499" lon="1.8974">
        <ele>268.83</ele>
        <time>2017-12-09T11:18:51Z</time>
      </trkpt>
      <trkpt lat="43.44989" lon="1.89738">
        <ele>268.83</ele>
        <time>2017-12-09T11:19:35Z</time>
      </trkpt>
      <trkpt lat="43.44986" lon="1.89735">
        <ele>269.31</ele>
        <time>2017-12-09T11:19:58Z</time>
      </trkpt>
      <trkpt lat="43.44984" lon="1.89727">
        <ele>269.31</ele>
        <time>2017-12-09T11:20:05Z</time>
      </trkpt>
      <trkpt lat="43.44983" lon="1.89723">
        <ele>269.31</ele>
        <time>2017-12-09T11:20:08Z</time>
      </trkpt>
      <trkpt lat="43.44981" lon="1.89718">
        <ele>269.79</ele>
        <time>2017-12-09T11:20:16Z</time>
      </trkpt>
      <trkpt lat="43.44982" lon="1.89713">
        <ele>269.79</ele>
        <time>2017-12-09T11:20:29Z</time>
      </trkpt>
      <trkpt lat="43.44982" lon="1.89705">
        <ele>270.27</ele>
        <time>2017-12-09T11:20:46Z</time>
      </trkpt>
      <trkpt lat="43.4498" lon="1.8969">
        <ele>271.23</ele>
        <time>2017-12-09T11:20:59Z</time>
      </trkpt>
      <trkpt lat="43.4498" lon="1.8968">
        <ele>271.71</ele>
        <time>2017-12-09T11:21:08Z</time>
      </trkpt>
      <trkpt lat="43.4498" lon="1.89663">
        <ele>272.67</ele>
        <time>2017-12-09T11:21:22Z</time>
      </trkpt>
      <trkpt lat="43.4498" lon="1.89642">
        <ele>274.11</ele>
        <time>2017-12-09T11:21:38Z</time>
      </trkpt>
      <trkpt lat="43.44983" lon="1.89629">
        <ele>275.07</ele>
        <time>2017-12-09T11:21:50Z</time>
      </trkpt>
      <trkpt lat="43.44981" lon="1.89615">
        <ele>276.04</ele>
        <time>2017-12-09T11:22:04Z</time>
      </trkpt>
      <trkpt lat="43.44981" lon="1.89602">
        <ele>276.52</ele>
        <time>2017-12-09T11:22:28Z</time>
      </trkpt>
      <trkpt lat="43.44981" lon="1.89598">
        <ele>277</ele>
        <time>2017-12-09T11:22:31Z</time>
      </trkpt>
      <trkpt lat="43.44981" lon="1.89589">
        <ele>277.48</ele>
        <time>2017-12-09T11:22:38Z</time>
      </trkpt>
      <trkpt lat="43.44975" lon="1.89567">
        <ele>278.44</ele>
        <time>2017-12-09T11:22:52Z</time>
      </trkpt>
      <trkpt lat="43.44975" lon="1.8956">
        <ele>278.92</ele>
        <time>2017-12-09T11:22:56Z</time>
      </trkpt>
      <trkpt lat="43.44975" lon="1.89537">
        <ele>280.36</ele>
        <time>2017-12-09T11:23:10Z</time>
      </trkpt>
      <trkpt lat="43.44975" lon="1.89513">
        <ele>281.8</ele>
        <time>2017-12-09T11:23:26Z</time>
      </trkpt>
      <trkpt lat="43.44975" lon="1.89509">
        <ele>282.28</ele>
        <time>2017-12-09T11:23:29Z</time>
      </trkpt>
      <trkpt lat="43.44973" lon="1.89486">
        <ele>283.25</ele>
        <time>2017-12-09T11:23:44Z</time>
      </trkpt>
      <trkpt lat="43.44971" lon="1.89462">
        <ele>284.69</ele>
        <time>2017-12-09T11:24:02Z</time>
      </trkpt>
      <trkpt lat="43.44971" lon="1.89461">
        <ele>284.69</ele>
        <time>2017-12-09T11:24:03Z</time>
      </trkpt>
      <trkpt lat="43.4497" lon="1.89443">
        <ele>286.13</ele>
        <time>2017-12-09T11:24:17Z</time>
      </trkpt>
      <trkpt lat="43.4497" lon="1.89424">
        <ele>287.09</ele>
        <time>2017-12-09T11:24:31Z</time>
      </trkpt>
      <trkpt lat="43.4497" lon="1.89404">
        <ele>288.53</ele>
        <time>2017-12-09T11:24:47Z</time>
      </trkpt>
      <trkpt lat="43.44969" lon="1.89383">
        <ele>289.49</ele>
        <time>2017-12-09T11:25:04Z</time>
      </trkpt>
      <trkpt lat="43.44969" lon="1.8938">
        <ele>289.97</ele>
        <time>2017-12-09T11:25:06Z</time>
      </trkpt>
      <trkpt lat="43.44967" lon="1.89358">
        <ele>291.42</ele>
        <time>2017-12-09T11:25:22Z</time>
      </trkpt>
      <trkpt lat="43.44967" lon="1.89341">
        <ele>292.38</ele>
        <time>2017-12-09T11:25:35Z</time>
      </trkpt>
      <trkpt lat="43.44967" lon="1.89326">
        <ele>293.34</ele>
        <time>2017-12-09T11:25:47Z</time>
      </trkpt>
      <trkpt lat="43.44965" lon="1.89306">
        <ele>294.3</ele>
        <time>2017-12-09T11:26:02Z</time>
      </trkpt>
      <trkpt lat="43.44965" lon="1.89289">
        <ele>295.26</ele>
        <time>2017-12-09T11:26:17Z</time>
      </trkpt>
      <trkpt lat="43.44963" lon="1.89268">
        <ele>296.7</ele>
        <time>2017-12-09T11:26:32Z</time>
      </trkpt>
      <trkpt lat="43.44963" lon="1.89259">
        <ele>297.18</ele>
        <time>2017-12-09T11:26:39Z</time>
      </trkpt>
      <trkpt lat="43.44962" lon="1.89238">
        <ele>298.15</ele>
        <time>2017-12-09T11:26:54Z</time>
      </trkpt>
      <trkpt lat="43.44961" lon="1.89217">
        <ele>300.07</ele>
        <time>2017-12-09T11:27:08Z</time>
      </trkpt>
      <trkpt lat="43.44961" lon="1.89212">
        <ele>300.07</ele>
        <time>2017-12-09T11:27:11Z</time>
      </trkpt>
      <trkpt lat="43.44961" lon="1.89206">
        <ele>300.55</ele>
        <time>2017-12-09T11:27:15Z</time>
      </trkpt>
      <trkpt lat="43.4496" lon="1.892">
        <ele>301.03</ele>
        <time>2017-12-09T11:27:19Z</time>
      </trkpt>
      <trkpt lat="43.4496" lon="1.89193">
        <ele>301.51</ele>
        <time>2017-12-09T11:27:23Z</time>
      </trkpt>
      <trkpt lat="43.44959" lon="1.89172">
        <ele>302.47</ele>
        <time>2017-12-09T11:27:35Z</time>
      </trkpt>
      <trkpt lat="43.44958" lon="1.89164">
        <ele>302.47</ele>
        <time>2017-12-09T11:27:40Z</time>
      </trkpt>
      <trkpt lat="43.44957" lon="1.8914">
        <ele>304.39</ele>
        <time>2017-12-09T11:27:55Z</time>
      </trkpt>
      <trkpt lat="43.44955" lon="1.89127">
        <ele>305.36</ele>
        <time>2017-12-09T11:28:03Z</time>
      </trkpt>
      <trkpt lat="43.44955" lon="1.89121">
        <ele>305.36</ele>
        <time>2017-12-09T11:28:07Z</time>
      </trkpt>
      <trkpt lat="43.44952" lon="1.89097">
        <ele>307.28</ele>
        <time>2017-12-09T11:28:22Z</time>
      </trkpt>
      <trkpt lat="43.44948" lon="1.89088">
        <ele>307.76</ele>
        <time>2017-12-09T11:28:30Z</time>
      </trkpt>
      <trkpt lat="43.44943" lon="1.89083">
        <ele>308.72</ele>
        <time>2017-12-09T11:28:36Z</time>
      </trkpt>
      <trkpt lat="43.4493" lon="1.89085">
        <ele>309.2</ele>
        <time>2017-12-09T11:28:47Z</time>
      </trkpt>
      <trkpt lat="43.44916" lon="1.89086">
        <ele>309.68</ele>
        <time>2017-12-09T11:28:59Z</time>
      </trkpt>
      <trkpt lat="43.44914" lon="1.89087">
        <ele>310.16</ele>
        <time>2017-12-09T11:29:01Z</time>
      </trkpt>
      <trkpt lat="43.44897" lon="1.89086">
        <ele>311.6</ele>
        <time>2017-12-09T11:29:16Z</time>
      </trkpt>
      <trkpt lat="43.44885" lon="1.89087">
        <ele>312.57</ele>
        <time>2017-12-09T11:29:28Z</time>
      </trkpt>
      <trkpt lat="43.44863" lon="1.89087">
        <ele>313.53</ele>
        <time>2017-12-09T11:29:45Z</time>
      </trkpt>
      <trkpt lat="43.44846" lon="1.89083">
        <ele>315.45</ele>
        <time>2017-12-09T11:30:00Z</time>
      </trkpt>
      <trkpt lat="43.44835" lon="1.89071">
        <ele>316.41</ele>
        <time>2017-12-09T11:30:12Z</time>
      </trkpt>
      <trkpt lat="43.44832" lon="1.89064">
        <ele>316.89</ele>
        <time>2017-12-09T11:30:17Z</time>
      </trkpt>
      <trkpt lat="43.4483" lon="1.8906">
        <ele>316.89</ele>
        <time>2017-12-09T11:30:20Z</time>
      </trkpt>
      <trkpt lat="43.44825" lon="1.89044">
        <ele>318.33</ele>
        <time>2017-12-09T11:30:34Z</time>
      </trkpt>
      <trkpt lat="43.44816" lon="1.89022">
        <ele>319.3</ele>
        <time>2017-12-09T11:30:53Z</time>
      </trkpt>
      <trkpt lat="43.4481" lon="1.8901">
        <ele>319.3</ele>
        <time>2017-12-09T11:31:04Z</time>
      </trkpt>
      <trkpt lat="43.44794" lon="1.88997">
        <ele>320.74</ele>
        <time>2017-12-09T11:31:22Z</time>
      </trkpt>
      <trkpt lat="43.4478" lon="1.88986">
        <ele>321.7</ele>
        <time>2017-12-09T11:31:37Z</time>
      </trkpt>
      <trkpt lat="43.44773" lon="1.8898">
        <ele>322.18</ele>
        <time>2017-12-09T11:31:45Z</time>
      </trkpt>
      <trkpt lat="43.4476" lon="1.88968">
        <ele>323.62</ele>
        <time>2017-12-09T11:32:01Z</time>
      </trkpt>
      <trkpt lat="43.44756" lon="1.88963">
        <ele>324.1</ele>
        <time>2017-12-09T11:32:07Z</time>
      </trkpt>
      <trkpt lat="43.4475" lon="1.88952">
        <ele>325.06</ele>
        <time>2017-12-09T11:32:18Z</time>
      </trkpt>
      <trkpt lat="43.44749" lon="1.88947">
        <ele>325.06</ele>
        <time>2017-12-09T11:32:22Z</time>
      </trkpt>
      <trkpt lat="43.4475" lon="1.88927">
        <ele>326.5</ele>
        <time>2017-12-09T11:32:37Z</time>
      </trkpt>
      <trkpt lat="43.44753" lon="1.88916">
        <ele>327.47</ele>
        <time>2017-12-09T11:32:48Z</time>
      </trkpt>
      <trkpt lat="43.44754" lon="1.88914">
        <ele>327.47</ele>
        <time>2017-12-09T11:32:50Z</time>
      </trkpt>
      <trkpt lat="43.44754" lon="1.88911">
        <ele>327.47</ele>
        <time>2017-12-09T11:32:52Z</time>
      </trkpt>
      <trkpt lat="43.44762" lon="1.88897">
        <ele>328.43</ele>
        <time>2017-12-09T11:33:07Z</time>
      </trkpt>
      <trkpt lat="43.44766" lon="1.88887">
        <ele>328.91</ele>
        <time>2017-12-09T11:33:18Z</time>
      </trkpt>
      <trkpt lat="43.44771" lon="1.88881">
        <ele>329.87</ele>
        <time>2017-12-09T11:33:33Z</time>
      </trkpt>
      <trkpt lat="43.44775" lon="1.88878">
        <ele>330.35</ele>
        <time>2017-12-09T11:33:38Z</time>
      </trkpt>
      <trkpt lat="43.44787" lon="1.88879">
        <ele>331.79</ele>
        <time>2017-12-09T11:33:52Z</time>
      </trkpt>
      <trkpt lat="43.44788" lon="1.8888">
        <ele>331.79</ele>
        <time>2017-12-09T11:33:53Z</time>
      </trkpt>
      <trkpt lat="43.44799" lon="1.88893">
        <ele>333.71</ele>
        <time>2017-12-09T11:34:10Z</time>
      </trkpt>
      <trkpt lat="43.44805" lon="1.88899">
        <ele>335.16</ele>
        <time>2017-12-09T11:34:22Z</time>
      </trkpt>
      <trkpt lat="43.44822" lon="1.88905">
        <ele>336.12</ele>
        <time>2017-12-09T11:34:41Z</time>
      </trkpt>
      <trkpt lat="43.44816" lon="1.88921">
        <ele>337.56</ele>
        <time>2017-12-09T11:34:53Z</time>
      </trkpt>
      <trkpt lat="43.44822" lon="1.88908">
        <ele>340.44</ele>
        <time>2017-12-09T12:33:00Z</time>
      </trkpt>
      <trkpt lat="43.44829" lon="1.88896">
        <ele>340.92</ele>
        <time>2017-12-09T12:33:28Z</time>
      </trkpt>
      <trkpt lat="43.44837" lon="1.88877">
        <ele>341.41</ele>
        <time>2017-12-09T12:33:44Z</time>
      </trkpt>
      <trkpt lat="43.44845" lon="1.88861">
        <ele>341.41</ele>
        <time>2017-12-09T12:34:02Z</time>
      </trkpt>
      <trkpt lat="43.44856" lon="1.88842">
        <ele>341.41</ele>
        <time>2017-12-09T12:34:21Z</time>
      </trkpt>
      <trkpt lat="43.44861" lon="1.88828">
        <ele>340.44</ele>
        <time>2017-12-09T12:34:35Z</time>
      </trkpt>
      <trkpt lat="43.44862" lon="1.88824">
        <ele>340.44</ele>
        <time>2017-12-09T12:34:38Z</time>
      </trkpt>
      <trkpt lat="43.44869" lon="1.88807">
        <ele>339.96</ele>
        <time>2017-12-09T12:34:54Z</time>
      </trkpt>
      <trkpt lat="43.44871" lon="1.88799">
        <ele>339.48</ele>
        <time>2017-12-09T12:35:00Z</time>
      </trkpt>
      <trkpt lat="43.44872" lon="1.88796">
        <ele>339.48</ele>
        <time>2017-12-09T12:35:02Z</time>
      </trkpt>
      <trkpt lat="43.44887" lon="1.888">
        <ele>339</ele>
        <time>2017-12-09T12:35:18Z</time>
      </trkpt>
      <trkpt lat="43.44896" lon="1.88805">
        <ele>339</ele>
        <time>2017-12-09T12:35:33Z</time>
      </trkpt>
      <trkpt lat="43.44902" lon="1.88807">
        <ele>339</ele>
        <time>2017-12-09T12:40:03Z</time>
      </trkpt>
      <trkpt lat="43.44892" lon="1.88804">
        <ele>339</ele>
        <time>2017-12-09T12:40:15Z</time>
      </trkpt>
      <trkpt lat="43.44891" lon="1.88804">
        <ele>339</ele>
        <time>2017-12-09T12:40:34Z</time>
      </trkpt>
      <trkpt lat="43.4489" lon="1.88804">
        <ele>339.48</ele>
        <time>2017-12-09T12:40:35Z</time>
      </trkpt>
      <trkpt lat="43.44882" lon="1.88799">
        <ele>339.48</ele>
        <time>2017-12-09T12:40:50Z</time>
      </trkpt>
      <trkpt lat="43.44874" lon="1.88798">
        <ele>339.96</ele>
        <time>2017-12-09T12:41:07Z</time>
      </trkpt>
      <trkpt lat="43.44869" lon="1.88816">
        <ele>340.44</ele>
        <time>2017-12-09T12:41:26Z</time>
      </trkpt>
      <trkpt lat="43.44862" lon="1.88827">
        <ele>340.92</ele>
        <time>2017-12-09T12:41:44Z</time>
      </trkpt>
      <trkpt lat="43.44847" lon="1.88858">
        <ele>341.89</ele>
        <time>2017-12-09T12:42:15Z</time>
      </trkpt>
      <trkpt lat="43.44837" lon="1.88878">
        <ele>341.89</ele>
        <time>2017-12-09T12:42:32Z</time>
      </trkpt>
      <trkpt lat="43.4483" lon="1.88893">
        <ele>341.89</ele>
        <time>2017-12-09T12:42:48Z</time>
      </trkpt>
      <trkpt lat="43.44815" lon="1.88907">
        <ele>340.92</ele>
        <time>2017-12-09T12:43:07Z</time>
      </trkpt>
      <trkpt lat="43.44813" lon="1.88905">
        <ele>340.44</ele>
        <time>2017-12-09T12:43:09Z</time>
      </trkpt>
      <trkpt lat="43.44802" lon="1.88896">
        <ele>339</ele>
        <time>2017-12-09T12:43:25Z</time>
      </trkpt>
      <trkpt lat="43.44792" lon="1.88878">
        <ele>337.08</ele>
        <time>2017-12-09T12:43:43Z</time>
      </trkpt>
      <trkpt lat="43.44785" lon="1.88876">
        <ele>336.12</ele>
        <time>2017-12-09T12:43:57Z</time>
      </trkpt>
      <trkpt lat="43.44775" lon="1.88873">
        <ele>334.2</ele>
        <time>2017-12-09T12:44:11Z</time>
      </trkpt>
      <trkpt lat="43.44769" lon="1.8887">
        <ele>332.75</ele>
        <time>2017-12-09T12:44:20Z</time>
      </trkpt>
      <trkpt lat="43.44772" lon="1.88861">
        <ele>330.83</ele>
        <time>2017-12-09T12:44:26Z</time>
      </trkpt>
      <trkpt lat="43.44774" lon="1.88851">
        <ele>330.83</ele>
        <time>2017-12-09T12:44:32Z</time>
      </trkpt>
      <trkpt lat="43.44778" lon="1.88843">
        <ele>330.35</ele>
        <time>2017-12-09T12:44:39Z</time>
      </trkpt>
      <trkpt lat="43.44788" lon="1.88826">
        <ele>327.95</ele>
        <time>2017-12-09T12:44:56Z</time>
      </trkpt>
      <trkpt lat="43.44794" lon="1.88812">
        <ele>326.99</ele>
        <time>2017-12-09T12:45:06Z</time>
      </trkpt>
      <trkpt lat="43.44801" lon="1.88794">
        <ele>326.5</ele>
        <time>2017-12-09T12:45:21Z</time>
      </trkpt>
      <trkpt lat="43.44808" lon="1.88777">
        <ele>325.06</ele>
        <time>2017-12-09T12:45:35Z</time>
      </trkpt>
      <trkpt lat="43.44812" lon="1.88766">
        <ele>323.62</ele>
        <time>2017-12-09T12:45:44Z</time>
      </trkpt>
      <trkpt lat="43.44812" lon="1.88763">
        <ele>323.62</ele>
        <time>2017-12-09T12:45:46Z</time>
      </trkpt>
      <trkpt lat="43.44814" lon="1.8876">
        <ele>323.14</ele>
        <time>2017-12-09T12:45:50Z</time>
      </trkpt>
      <trkpt lat="43.4482" lon="1.88743">
        <ele>321.22</ele>
        <time>2017-12-09T12:46:05Z</time>
      </trkpt>
      <trkpt lat="43.44821" lon="1.88738">
        <ele>320.74</ele>
        <time>2017-12-09T12:46:09Z</time>
      </trkpt>
      <trkpt lat="43.4482" lon="1.88737">
        <ele>320.74</ele>
        <time>2017-12-09T12:47:09Z</time>
      </trkpt>
      <trkpt lat="43.44818" lon="1.8873">
        <ele>320.74</ele>
        <time>2017-12-09T12:47:20Z</time>
      </trkpt>
      <trkpt lat="43.44817" lon="1.88728">
        <ele>320.74</ele>
        <time>2017-12-09T12:47:30Z</time>
      </trkpt>
      <trkpt lat="43.44815" lon="1.88716">
        <ele>319.78</ele>
        <time>2017-12-09T12:47:43Z</time>
      </trkpt>
      <trkpt lat="43.44821" lon="1.88715">
        <ele>319.3</ele>
        <time>2017-12-09T12:47:58Z</time>
      </trkpt>
      <trkpt lat="43.44824" lon="1.88704">
        <ele>318.33</ele>
        <time>2017-12-09T12:48:19Z</time>
      </trkpt>
      <trkpt lat="43.44824" lon="1.88702">
        <ele>318.33</ele>
        <time>2017-12-09T12:48:20Z</time>
      </trkpt>
      <trkpt lat="43.44828" lon="1.88683">
        <ele>316.41</ele>
        <time>2017-12-09T12:48:35Z</time>
      </trkpt>
      <trkpt lat="43.44828" lon="1.88677">
        <ele>315.93</ele>
        <time>2017-12-09T12:48:39Z</time>
      </trkpt>
      <trkpt lat="43.44828" lon="1.88667">
        <ele>314.97</ele>
        <time>2017-12-09T12:48:47Z</time>
      </trkpt>
      <trkpt lat="43.44829" lon="1.88661">
        <ele>314.49</ele>
        <time>2017-12-09T12:48:52Z</time>
      </trkpt>
      <trkpt lat="43.44828" lon="1.8864">
        <ele>312.09</ele>
        <time>2017-12-09T12:49:07Z</time>
      </trkpt>
      <trkpt lat="43.44824" lon="1.8863">
        <ele>309.2</ele>
        <time>2017-12-09T12:49:15Z</time>
      </trkpt>
      <trkpt lat="43.44825" lon="1.8861">
        <ele>306.8</ele>
        <time>2017-12-09T12:49:30Z</time>
      </trkpt>
      <trkpt lat="43.44826" lon="1.88603">
        <ele>306.8</ele>
        <time>2017-12-09T12:49:38Z</time>
      </trkpt>
      <trkpt lat="43.44827" lon="1.88591">
        <ele>304.88</ele>
        <time>2017-12-09T12:49:48Z</time>
      </trkpt>
      <trkpt lat="43.44828" lon="1.88574">
        <ele>301.99</ele>
        <time>2017-12-09T12:50:03Z</time>
      </trkpt>
      <trkpt lat="43.44828" lon="1.88553">
        <ele>299.59</ele>
        <time>2017-12-09T12:50:20Z</time>
      </trkpt>
      <trkpt lat="43.44828" lon="1.88535">
        <ele>298.15</ele>
        <time>2017-12-09T12:50:35Z</time>
      </trkpt>
      <trkpt lat="43.44826" lon="1.88521">
        <ele>296.7</ele>
        <time>2017-12-09T12:50:48Z</time>
      </trkpt>
      <trkpt lat="43.44826" lon="1.88501">
        <ele>294.3</ele>
        <time>2017-12-09T12:51:03Z</time>
      </trkpt>
      <trkpt lat="43.44827" lon="1.8848">
        <ele>292.38</ele>
        <time>2017-12-09T12:51:19Z</time>
      </trkpt>
      <trkpt lat="43.44827" lon="1.88471">
        <ele>291.9</ele>
        <time>2017-12-09T12:51:25Z</time>
      </trkpt>
      <trkpt lat="43.44829" lon="1.88451">
        <ele>290.46</ele>
        <time>2017-12-09T12:51:41Z</time>
      </trkpt>
      <trkpt lat="43.44827" lon="1.88431">
        <ele>289.49</ele>
        <time>2017-12-09T12:51:56Z</time>
      </trkpt>
      <trkpt lat="43.44817" lon="1.88418">
        <ele>287.57</ele>
        <time>2017-12-09T12:52:10Z</time>
      </trkpt>
      <trkpt lat="43.44816" lon="1.88416">
        <ele>287.09</ele>
        <time>2017-12-09T12:52:12Z</time>
      </trkpt>
      <trkpt lat="43.44803" lon="1.88404">
        <ele>285.65</ele>
        <time>2017-12-09T12:52:28Z</time>
      </trkpt>
      <trkpt lat="43.44799" lon="1.88397">
        <ele>285.17</ele>
        <time>2017-12-09T12:52:35Z</time>
      </trkpt>
      <trkpt lat="43.44796" lon="1.88375">
        <ele>284.21</ele>
        <time>2017-12-09T12:52:50Z</time>
      </trkpt>
      <trkpt lat="43.44795" lon="1.88355">
        <ele>283.73</ele>
        <time>2017-12-09T12:53:04Z</time>
      </trkpt>
      <trkpt lat="43.44794" lon="1.88345">
        <ele>283.25</ele>
        <time>2017-12-09T12:53:10Z</time>
      </trkpt>
      <trkpt lat="43.44792" lon="1.8833">
        <ele>282.77</ele>
        <time>2017-12-09T12:53:21Z</time>
      </trkpt>
      <trkpt lat="43.44791" lon="1.88328">
        <ele>283.25</ele>
        <time>2017-12-09T12:53:23Z</time>
      </trkpt>
      <trkpt lat="43.44789" lon="1.88324">
        <ele>283.25</ele>
        <time>2017-12-09T12:53:26Z</time>
      </trkpt>
      <trkpt lat="43.44785" lon="1.88317">
        <ele>283.73</ele>
        <time>2017-12-09T12:53:34Z</time>
      </trkpt>
      <trkpt lat="43.44776" lon="1.88312">
        <ele>283.73</ele>
        <time>2017-12-09T12:53:42Z</time>
      </trkpt>
      <trkpt lat="43.44761" lon="1.88303">
        <ele>283.25</ele>
        <time>2017-12-09T12:53:58Z</time>
      </trkpt>
      <trkpt lat="43.44756" lon="1.88299">
        <ele>282.77</ele>
        <time>2017-12-09T12:54:03Z</time>
      </trkpt>
      <trkpt lat="43.44746" lon="1.88292">
        <ele>283.25</ele>
        <time>2017-12-09T12:54:16Z</time>
      </trkpt>
      <trkpt lat="43.44742" lon="1.88289">
        <ele>282.28</ele>
        <time>2017-12-09T12:54:20Z</time>
      </trkpt>
      <trkpt lat="43.44735" lon="1.88284">
        <ele>281.32</ele>
        <time>2017-12-09T12:54:28Z</time>
      </trkpt>
      <trkpt lat="43.44722" lon="1.88264">
        <ele>279.88</ele>
        <time>2017-12-09T12:54:46Z</time>
      </trkpt>
      <trkpt lat="43.44709" lon="1.88246">
        <ele>278.92</ele>
        <time>2017-12-09T12:55:03Z</time>
      </trkpt>
      <trkpt lat="43.44702" lon="1.88236">
        <ele>278.92</ele>
        <time>2017-12-09T12:55:12Z</time>
      </trkpt>
      <trkpt lat="43.44695" lon="1.88226">
        <ele>279.4</ele>
        <time>2017-12-09T12:55:21Z</time>
      </trkpt>
      <trkpt lat="43.44687" lon="1.88222">
        <ele>279.4</ele>
        <time>2017-12-09T12:55:29Z</time>
      </trkpt>
      <trkpt lat="43.44672" lon="1.88209">
        <ele>279.88</ele>
        <time>2017-12-09T12:55:46Z</time>
      </trkpt>
      <trkpt lat="43.44657" lon="1.882">
        <ele>280.36</ele>
        <time>2017-12-09T12:56:01Z</time>
      </trkpt>
      <trkpt lat="43.4465" lon="1.88194">
        <ele>280.84</ele>
        <time>2017-12-09T12:56:09Z</time>
      </trkpt>
      <trkpt lat="43.44633" lon="1.88186">
        <ele>281.8</ele>
        <time>2017-12-09T12:56:26Z</time>
      </trkpt>
      <trkpt lat="43.44621" lon="1.88179">
        <ele>282.28</ele>
        <time>2017-12-09T12:56:38Z</time>
      </trkpt>
      <trkpt lat="43.44605" lon="1.88172">
        <ele>283.73</ele>
        <time>2017-12-09T12:56:54Z</time>
      </trkpt>
      <trkpt lat="43.4459" lon="1.88167">
        <ele>284.69</ele>
        <time>2017-12-09T12:57:09Z</time>
      </trkpt>
      <trkpt lat="43.44582" lon="1.88165">
        <ele>285.65</ele>
        <time>2017-12-09T12:57:18Z</time>
      </trkpt>
      <trkpt lat="43.44579" lon="1.88164">
        <ele>285.65</ele>
        <time>2017-12-09T12:57:21Z</time>
      </trkpt>
      <trkpt lat="43.44566" lon="1.88158">
        <ele>287.57</ele>
        <time>2017-12-09T12:57:35Z</time>
      </trkpt>
      <trkpt lat="43.44553" lon="1.88155">
        <ele>289.01</ele>
        <time>2017-12-09T12:57:49Z</time>
      </trkpt>
      <trkpt lat="43.44537" lon="1.88153">
        <ele>291.42</ele>
        <time>2017-12-09T12:58:05Z</time>
      </trkpt>
      <trkpt lat="43.44526" lon="1.8815">
        <ele>292.86</ele>
        <time>2017-12-09T12:58:18Z</time>
      </trkpt>
      <trkpt lat="43.44512" lon="1.88145">
        <ele>294.78</ele>
        <time>2017-12-09T12:58:35Z</time>
      </trkpt>
      <trkpt lat="43.445" lon="1.88143">
        <ele>296.22</ele>
        <time>2017-12-09T12:58:49Z</time>
      </trkpt>
      <trkpt lat="43.44485" lon="1.88137">
        <ele>298.63</ele>
        <time>2017-12-09T12:59:06Z</time>
      </trkpt>
      <trkpt lat="43.44481" lon="1.88134">
        <ele>298.63</ele>
        <time>2017-12-09T12:59:20Z</time>
      </trkpt>
      <trkpt lat="43.44472" lon="1.88133">
        <ele>299.59</ele>
        <time>2017-12-09T12:59:29Z</time>
      </trkpt>
      <trkpt lat="43.44458" lon="1.88125">
        <ele>300.07</ele>
        <time>2017-12-09T12:59:44Z</time>
      </trkpt>
      <trkpt lat="43.44456" lon="1.88125">
        <ele>300.55</ele>
        <time>2017-12-09T12:59:46Z</time>
      </trkpt>
      <trkpt lat="43.44452" lon="1.88123">
        <ele>300.55</ele>
        <time>2017-12-09T12:59:50Z</time>
      </trkpt>
      <trkpt lat="43.44436" lon="1.8812">
        <ele>301.51</ele>
        <time>2017-12-09T13:00:06Z</time>
      </trkpt>
      <trkpt lat="43.44427" lon="1.88117">
        <ele>301.99</ele>
        <time>2017-12-09T13:00:16Z</time>
      </trkpt>
      <trkpt lat="43.44416" lon="1.88111">
        <ele>302.95</ele>
        <time>2017-12-09T13:00:29Z</time>
      </trkpt>
      <trkpt lat="43.44399" lon="1.8811">
        <ele>302.95</ele>
        <time>2017-12-09T13:00:45Z</time>
      </trkpt>
      <trkpt lat="43.44387" lon="1.88116">
        <ele>303.91</ele>
        <time>2017-12-09T13:00:58Z</time>
      </trkpt>
      <trkpt lat="43.44379" lon="1.8812">
        <ele>303.91</ele>
        <time>2017-12-09T13:01:06Z</time>
      </trkpt>
      <trkpt lat="43.44377" lon="1.88121">
        <ele>304.39</ele>
        <time>2017-12-09T13:01:09Z</time>
      </trkpt>
      <trkpt lat="43.44366" lon="1.88125">
        <ele>305.36</ele>
        <time>2017-12-09T13:01:22Z</time>
      </trkpt>
      <trkpt lat="43.44364" lon="1.88126">
        <ele>305.36</ele>
        <time>2017-12-09T13:01:24Z</time>
      </trkpt>
      <trkpt lat="43.44349" lon="1.88132">
        <ele>306.32</ele>
        <time>2017-12-09T13:01:41Z</time>
      </trkpt>
      <trkpt lat="43.44346" lon="1.88134">
        <ele>306.32</ele>
        <time>2017-12-09T13:01:45Z</time>
      </trkpt>
      <trkpt lat="43.44333" lon="1.88145">
        <ele>307.76</ele>
        <time>2017-12-09T13:02:00Z</time>
      </trkpt>
      <trkpt lat="43.44322" lon="1.88157">
        <ele>308.72</ele>
        <time>2017-12-09T13:02:16Z</time>
      </trkpt>
      <trkpt lat="43.44309" lon="1.88174">
        <ele>310.16</ele>
        <time>2017-12-09T13:02:36Z</time>
      </trkpt>
      <trkpt lat="43.44299" lon="1.88187">
        <ele>311.12</ele>
        <time>2017-12-09T13:02:51Z</time>
      </trkpt>
      <trkpt lat="43.44297" lon="1.88189">
        <ele>311.12</ele>
        <time>2017-12-09T13:02:54Z</time>
      </trkpt>
      <trkpt lat="43.44286" lon="1.88201">
        <ele>313.05</ele>
        <time>2017-12-09T13:03:11Z</time>
      </trkpt>
      <trkpt lat="43.44272" lon="1.88203">
        <ele>314.97</ele>
        <time>2017-12-09T13:03:33Z</time>
      </trkpt>
      <trkpt lat="43.44271" lon="1.88202">
        <ele>315.45</ele>
        <time>2017-12-09T13:03:37Z</time>
      </trkpt>
      <trkpt lat="43.44265" lon="1.88182">
        <ele>316.41</ele>
        <time>2017-12-09T13:03:53Z</time>
      </trkpt>
      <trkpt lat="43.4426" lon="1.88162">
        <ele>318.33</ele>
        <time>2017-12-09T13:04:11Z</time>
      </trkpt>
      <trkpt lat="43.44256" lon="1.88148">
        <ele>320.26</ele>
        <time>2017-12-09T13:04:26Z</time>
      </trkpt>
      <trkpt lat="43.44254" lon="1.88135">
        <ele>321.7</ele>
        <time>2017-12-09T13:04:39Z</time>
      </trkpt>
      <trkpt lat="43.44254" lon="1.8813">
        <ele>322.66</ele>
        <time>2017-12-09T13:04:45Z</time>
      </trkpt>
      <trkpt lat="43.44252" lon="1.88116">
        <ele>324.58</ele>
        <time>2017-12-09T13:04:57Z</time>
      </trkpt>
      <trkpt lat="43.44249" lon="1.88102">
        <ele>326.02</ele>
        <time>2017-12-09T13:05:11Z</time>
      </trkpt>
      <trkpt lat="43.44246" lon="1.8809">
        <ele>327.95</ele>
        <time>2017-12-09T13:05:24Z</time>
      </trkpt>
      <trkpt lat="43.44241" lon="1.88072">
        <ele>329.39</ele>
        <time>2017-12-09T13:05:40Z</time>
      </trkpt>
      <trkpt lat="43.44237" lon="1.88057">
        <ele>331.31</ele>
        <time>2017-12-09T13:05:55Z</time>
      </trkpt>
      <trkpt lat="43.44237" lon="1.88044">
        <ele>332.75</ele>
        <time>2017-12-09T13:06:08Z</time>
      </trkpt>
      <trkpt lat="43.44238" lon="1.88022">
        <ele>333.71</ele>
        <time>2017-12-09T13:06:25Z</time>
      </trkpt>
      <trkpt lat="43.4424" lon="1.88012">
        <ele>333.71</ele>
        <time>2017-12-09T13:06:32Z</time>
      </trkpt>
      <trkpt lat="43.44243" lon="1.88009">
        <ele>333.71</ele>
        <time>2017-12-09T13:06:36Z</time>
      </trkpt>
      <trkpt lat="43.44253" lon="1.87989">
        <ele>334.2</ele>
        <time>2017-12-09T13:06:53Z</time>
      </trkpt>
      <trkpt lat="43.44265" lon="1.87972">
        <ele>334.68</ele>
        <time>2017-12-09T13:07:09Z</time>
      </trkpt>
      <trkpt lat="43.44276" lon="1.87958">
        <ele>334.2</ele>
        <time>2017-12-09T13:07:26Z</time>
      </trkpt>
      <trkpt lat="43.44281" lon="1.87951">
        <ele>334.2</ele>
        <time>2017-12-09T13:07:40Z</time>
      </trkpt>
      <trkpt lat="43.44292" lon="1.87935">
        <ele>334.2</ele>
        <time>2017-12-09T13:07:57Z</time>
      </trkpt>
      <trkpt lat="43.44294" lon="1.87931">
        <ele>334.68</ele>
        <time>2017-12-09T13:10:54Z</time>
      </trkpt>
      <trkpt lat="43.44296" lon="1.87928">
        <ele>334.2</ele>
        <time>2017-12-09T13:11:20Z</time>
      </trkpt>
      <trkpt lat="43.44296" lon="1.87927">
        <ele>334.2</ele>
        <time>2017-12-09T13:11:39Z</time>
      </trkpt>
      <trkpt lat="43.44298" lon="1.87922">
        <ele>334.2</ele>
        <time>2017-12-09T13:11:55Z</time>
      </trkpt>
      <trkpt lat="43.44294" lon="1.87915">
        <ele>334.2</ele>
        <time>2017-12-09T13:12:10Z</time>
      </trkpt>
      <trkpt lat="43.44287" lon="1.87908">
        <ele>333.23</ele>
        <time>2017-12-09T13:12:21Z</time>
      </trkpt>
      <trkpt lat="43.4428" lon="1.87899">
        <ele>332.75</ele>
        <time>2017-12-09T13:12:32Z</time>
      </trkpt>
      <trkpt lat="43.44269" lon="1.87886">
        <ele>331.31</ele>
        <time>2017-12-09T13:12:48Z</time>
      </trkpt>
      <trkpt lat="43.44258" lon="1.87872">
        <ele>329.87</ele>
        <time>2017-12-09T13:13:04Z</time>
      </trkpt>
      <trkpt lat="43.44247" lon="1.87857">
        <ele>328.91</ele>
        <time>2017-12-09T13:13:20Z</time>
      </trkpt>
      <trkpt lat="43.44236" lon="1.87844">
        <ele>327.47</ele>
        <time>2017-12-09T13:13:35Z</time>
      </trkpt>
      <trkpt lat="43.44225" lon="1.87834">
        <ele>325.54</ele>
        <time>2017-12-09T13:13:50Z</time>
      </trkpt>
      <trkpt lat="43.44215" lon="1.87823">
        <ele>323.14</ele>
        <time>2017-12-09T13:14:05Z</time>
      </trkpt>
      <trkpt lat="43.44204" lon="1.87811">
        <ele>321.22</ele>
        <time>2017-12-09T13:14:21Z</time>
      </trkpt>
      <trkpt lat="43.44203" lon="1.87808">
        <ele>320.26</ele>
        <time>2017-12-09T13:14:23Z</time>
      </trkpt>
      <trkpt lat="43.44196" lon="1.87789">
        <ele>317.85</ele>
        <time>2017-12-09T13:14:39Z</time>
      </trkpt>
      <trkpt lat="43.44194" lon="1.87778">
        <ele>316.89</ele>
        <time>2017-12-09T13:14:47Z</time>
      </trkpt>
      <trkpt lat="43.44192" lon="1.87765">
        <ele>314.97</ele>
        <time>2017-12-09T13:14:58Z</time>
      </trkpt>
      <trkpt lat="43.44191" lon="1.87758">
        <ele>314.49</ele>
        <time>2017-12-09T13:15:03Z</time>
      </trkpt>
      <trkpt lat="43.44191" lon="1.87754">
        <ele>314.01</ele>
        <time>2017-12-09T13:15:06Z</time>
      </trkpt>
      <trkpt lat="43.44188" lon="1.87729">
        <ele>311.12</ele>
        <time>2017-12-09T13:15:24Z</time>
      </trkpt>
      <trkpt lat="43.44186" lon="1.87707">
        <ele>309.2</ele>
        <time>2017-12-09T13:15:40Z</time>
      </trkpt>
      <trkpt lat="43.44184" lon="1.87697">
        <ele>309.68</ele>
        <time>2017-12-09T13:15:47Z</time>
      </trkpt>
      <trkpt lat="43.44178" lon="1.87674">
        <ele>307.28</ele>
        <time>2017-12-09T13:16:04Z</time>
      </trkpt>
      <trkpt lat="43.44169" lon="1.87658">
        <ele>307.28</ele>
        <time>2017-12-09T13:16:18Z</time>
      </trkpt>
      <trkpt lat="43.44159" lon="1.87645">
        <ele>306.8</ele>
        <time>2017-12-09T13:16:32Z</time>
      </trkpt>
      <trkpt lat="43.4415" lon="1.87636">
        <ele>307.28</ele>
        <time>2017-12-09T13:16:42Z</time>
      </trkpt>
      <trkpt lat="43.44144" lon="1.87628">
        <ele>307.28</ele>
        <time>2017-12-09T13:16:50Z</time>
      </trkpt>
      <trkpt lat="43.44143" lon="1.87624">
        <ele>307.28</ele>
        <time>2017-12-09T13:16:53Z</time>
      </trkpt>
      <trkpt lat="43.44137" lon="1.87618">
        <ele>307.76</ele>
        <time>2017-12-09T13:17:02Z</time>
      </trkpt>
      <trkpt lat="43.4413" lon="1.87599">
        <ele>307.76</ele>
        <time>2017-12-09T13:17:17Z</time>
      </trkpt>
      <trkpt lat="43.44129" lon="1.87597">
        <ele>307.76</ele>
        <time>2017-12-09T13:17:18Z</time>
      </trkpt>
      <trkpt lat="43.44129" lon="1.87594">
        <ele>307.76</ele>
        <time>2017-12-09T13:17:20Z</time>
      </trkpt>
      <trkpt lat="43.44127" lon="1.87573">
        <ele>308.24</ele>
        <time>2017-12-09T13:17:34Z</time>
      </trkpt>
      <trkpt lat="43.44126" lon="1.8757">
        <ele>308.24</ele>
        <time>2017-12-09T13:17:36Z</time>
      </trkpt>
      <trkpt lat="43.44126" lon="1.87568">
        <ele>308.72</ele>
        <time>2017-12-09T13:17:38Z</time>
      </trkpt>
      <trkpt lat="43.44122" lon="1.87548">
        <ele>309.2</ele>
        <time>2017-12-09T13:17:52Z</time>
      </trkpt>
      <trkpt lat="43.44119" lon="1.87528">
        <ele>309.68</ele>
        <time>2017-12-09T13:18:06Z</time>
      </trkpt>
      <trkpt lat="43.44119" lon="1.87509">
        <ele>309.68</ele>
        <time>2017-12-09T13:18:19Z</time>
      </trkpt>
      <trkpt lat="43.44118" lon="1.87486">
        <ele>310.16</ele>
        <time>2017-12-09T13:18:34Z</time>
      </trkpt>
      <trkpt lat="43.44119" lon="1.87482">
        <ele>310.64</ele>
        <time>2017-12-09T13:18:37Z</time>
      </trkpt>
      <trkpt lat="43.44119" lon="1.87466">
        <ele>310.64</ele>
        <time>2017-12-09T13:18:47Z</time>
      </trkpt>
      <trkpt lat="43.4412" lon="1.87453">
        <ele>311.12</ele>
        <time>2017-12-09T13:18:56Z</time>
      </trkpt>
      <trkpt lat="43.4412" lon="1.87448">
        <ele>311.6</ele>
        <time>2017-12-09T13:18:59Z</time>
      </trkpt>
      <trkpt lat="43.44121" lon="1.8744">
        <ele>312.09</ele>
        <time>2017-12-09T13:19:04Z</time>
      </trkpt>
      <trkpt lat="43.44121" lon="1.87438">
        <ele>312.09</ele>
        <time>2017-12-09T13:19:06Z</time>
      </trkpt>
      <trkpt lat="43.44121" lon="1.87419">
        <ele>313.05</ele>
        <time>2017-12-09T13:19:19Z</time>
      </trkpt>
      <trkpt lat="43.44122" lon="1.87414">
        <ele>313.05</ele>
        <time>2017-12-09T13:19:22Z</time>
      </trkpt>
      <trkpt lat="43.44124" lon="1.87394">
        <ele>313.53</ele>
        <time>2017-12-09T13:19:37Z</time>
      </trkpt>
      <trkpt lat="43.44124" lon="1.87387">
        <ele>313.53</ele>
        <time>2017-12-09T13:19:42Z</time>
      </trkpt>
      <trkpt lat="43.44124" lon="1.87384">
        <ele>313.53</ele>
        <time>2017-12-09T13:19:44Z</time>
      </trkpt>
      <trkpt lat="43.44126" lon="1.87363">
        <ele>314.49</ele>
        <time>2017-12-09T13:20:00Z</time>
      </trkpt>
      <trkpt lat="43.44126" lon="1.87347">
        <ele>314.49</ele>
        <time>2017-12-09T13:20:12Z</time>
      </trkpt>
      <trkpt lat="43.44127" lon="1.87332">
        <ele>314.97</ele>
        <time>2017-12-09T13:20:25Z</time>
      </trkpt>
      <trkpt lat="43.4413" lon="1.87311">
        <ele>315.93</ele>
        <time>2017-12-09T13:20:39Z</time>
      </trkpt>
      <trkpt lat="43.44131" lon="1.87292">
        <ele>316.41</ele>
        <time>2017-12-09T13:20:53Z</time>
      </trkpt>
      <trkpt lat="43.44134" lon="1.87288">
        <ele>316.89</ele>
        <time>2017-12-09T13:20:56Z</time>
      </trkpt>
      <trkpt lat="43.44135" lon="1.8727">
        <ele>318.33</ele>
        <time>2017-12-09T13:21:08Z</time>
      </trkpt>
      <trkpt lat="43.44134" lon="1.87257">
        <ele>319.3</ele>
        <time>2017-12-09T13:21:18Z</time>
      </trkpt>
      <trkpt lat="43.44136" lon="1.87238">
        <ele>320.26</ele>
        <time>2017-12-09T13:21:32Z</time>
      </trkpt>
      <trkpt lat="43.44136" lon="1.87232">
        <ele>320.26</ele>
        <time>2017-12-09T13:21:36Z</time>
      </trkpt>
      <trkpt lat="43.44134" lon="1.87219">
        <ele>321.22</ele>
        <time>2017-12-09T13:21:46Z</time>
      </trkpt>
      <trkpt lat="43.44129" lon="1.87202">
        <ele>322.18</ele>
        <time>2017-12-09T13:22:01Z</time>
      </trkpt>
      <trkpt lat="43.44128" lon="1.87199">
        <ele>322.66</ele>
        <time>2017-12-09T13:22:03Z</time>
      </trkpt>
      <trkpt lat="43.44127" lon="1.87198">
        <ele>322.66</ele>
        <time>2017-12-09T13:22:05Z</time>
      </trkpt>
      <trkpt lat="43.4412" lon="1.8718">
        <ele>323.14</ele>
        <time>2017-12-09T13:22:19Z</time>
      </trkpt>
      <trkpt lat="43.44117" lon="1.87172">
        <ele>323.62</ele>
        <time>2017-12-09T13:22:26Z</time>
      </trkpt>
      <trkpt lat="43.44111" lon="1.87152">
        <ele>323.62</ele>
        <time>2017-12-09T13:22:40Z</time>
      </trkpt>
      <trkpt lat="43.44108" lon="1.8714">
        <ele>324.1</ele>
        <time>2017-12-09T13:22:50Z</time>
      </trkpt>
      <trkpt lat="43.44105" lon="1.87114">
        <ele>324.1</ele>
        <time>2017-12-09T13:23:07Z</time>
      </trkpt>
      <trkpt lat="43.44105" lon="1.87109">
        <ele>324.1</ele>
        <time>2017-12-09T13:23:11Z</time>
      </trkpt>
      <trkpt lat="43.44106" lon="1.87105">
        <ele>324.1</ele>
        <time>2017-12-09T13:23:13Z</time>
      </trkpt>
      <trkpt lat="43.44105" lon="1.87102">
        <ele>324.58</ele>
        <time>2017-12-09T13:23:15Z</time>
      </trkpt>
      <trkpt lat="43.44111" lon="1.87079">
        <ele>324.58</ele>
        <time>2017-12-09T13:23:32Z</time>
      </trkpt>
      <trkpt lat="43.44115" lon="1.87058">
        <ele>324.58</ele>
        <time>2017-12-09T13:23:46Z</time>
      </trkpt>
      <trkpt lat="43.44119" lon="1.87037">
        <ele>324.1</ele>
        <time>2017-12-09T13:24:00Z</time>
      </trkpt>
      <trkpt lat="43.44125" lon="1.87018">
        <ele>324.1</ele>
        <time>2017-12-09T13:24:14Z</time>
      </trkpt>
      <trkpt lat="43.4413" lon="1.86999">
        <ele>323.62</ele>
        <time>2017-12-09T13:24:28Z</time>
      </trkpt>
      <trkpt lat="43.44131" lon="1.86997">
        <ele>323.62</ele>
        <time>2017-12-09T13:24:30Z</time>
      </trkpt>
      <trkpt lat="43.44137" lon="1.86972">
        <ele>323.14</ele>
        <time>2017-12-09T13:24:46Z</time>
      </trkpt>
      <trkpt lat="43.44142" lon="1.86952">
        <ele>322.66</ele>
        <time>2017-12-09T13:25:00Z</time>
      </trkpt>
      <trkpt lat="43.44147" lon="1.86931">
        <ele>323.14</ele>
        <time>2017-12-09T13:25:15Z</time>
      </trkpt>
      <trkpt lat="43.44152" lon="1.86912">
        <ele>322.66</ele>
        <time>2017-12-09T13:25:28Z</time>
      </trkpt>
      <trkpt lat="43.44156" lon="1.8689">
        <ele>322.66</ele>
        <time>2017-12-09T13:25:43Z</time>
      </trkpt>
      <trkpt lat="43.44161" lon="1.86871">
        <ele>322.66</ele>
        <time>2017-12-09T13:25:56Z</time>
      </trkpt>
      <trkpt lat="43.44164" lon="1.86859">
        <ele>322.66</ele>
        <time>2017-12-09T13:26:05Z</time>
      </trkpt>
      <trkpt lat="43.4417" lon="1.86839">
        <ele>322.66</ele>
        <time>2017-12-09T13:26:19Z</time>
      </trkpt>
      <trkpt lat="43.44171" lon="1.86832">
        <ele>322.66</ele>
        <time>2017-12-09T13:26:24Z</time>
      </trkpt>
      <trkpt lat="43.44175" lon="1.86821">
        <ele>322.66</ele>
        <time>2017-12-09T13:26:32Z</time>
      </trkpt>
      <trkpt lat="43.44187" lon="1.86799">
        <ele>322.18</ele>
        <time>2017-12-09T13:26:50Z</time>
      </trkpt>
      <trkpt lat="43.44193" lon="1.86787">
        <ele>322.18</ele>
        <time>2017-12-09T13:27:00Z</time>
      </trkpt>
      <trkpt lat="43.44197" lon="1.86779">
        <ele>322.18</ele>
        <time>2017-12-09T13:27:06Z</time>
      </trkpt>
      <trkpt lat="43.44208" lon="1.86762">
        <ele>321.7</ele>
        <time>2017-12-09T13:27:20Z</time>
      </trkpt>
      <trkpt lat="43.44214" lon="1.86751">
        <ele>321.22</ele>
        <time>2017-12-09T13:27:29Z</time>
      </trkpt>
      <trkpt lat="43.44218" lon="1.86746">
        <ele>321.22</ele>
        <time>2017-12-09T13:27:34Z</time>
      </trkpt>
      <trkpt lat="43.44223" lon="1.86736">
        <ele>321.22</ele>
        <time>2017-12-09T13:27:42Z</time>
      </trkpt>
      <trkpt lat="43.44235" lon="1.86719">
        <ele>321.22</ele>
        <time>2017-12-09T13:27:58Z</time>
      </trkpt>
      <trkpt lat="43.44238" lon="1.86713">
        <ele>320.74</ele>
        <time>2017-12-09T13:28:03Z</time>
      </trkpt>
      <trkpt lat="43.4425" lon="1.86695">
        <ele>320.26</ele>
        <time>2017-12-09T13:28:19Z</time>
      </trkpt>
      <trkpt lat="43.44263" lon="1.86676">
        <ele>320.26</ele>
        <time>2017-12-09T13:28:37Z</time>
      </trkpt>
      <trkpt lat="43.44275" lon="1.86657">
        <ele>319.3</ele>
        <time>2017-12-09T13:28:53Z</time>
      </trkpt>
      <trkpt lat="43.44285" lon="1.86643">
        <ele>318.33</ele>
        <time>2017-12-09T13:29:06Z</time>
      </trkpt>
      <trkpt lat="43.44288" lon="1.8664">
        <ele>318.33</ele>
        <time>2017-12-09T13:29:09Z</time>
      </trkpt>
      <trkpt lat="43.44294" lon="1.86631">
        <ele>317.85</ele>
        <time>2017-12-09T13:29:17Z</time>
      </trkpt>
      <trkpt lat="43.443" lon="1.86626">
        <ele>317.85</ele>
        <time>2017-12-09T13:29:23Z</time>
      </trkpt>
      <trkpt lat="43.44314" lon="1.86609">
        <ele>316.89</ele>
        <time>2017-12-09T13:29:40Z</time>
      </trkpt>
      <trkpt lat="43.44324" lon="1.86598">
        <ele>316.41</ele>
        <time>2017-12-09T13:29:51Z</time>
      </trkpt>
      <trkpt lat="43.4433" lon="1.86589">
        <ele>315.93</ele>
        <time>2017-12-09T13:29:59Z</time>
      </trkpt>
      <trkpt lat="43.44336" lon="1.86582">
        <ele>315.45</ele>
        <time>2017-12-09T13:30:06Z</time>
      </trkpt>
      <trkpt lat="43.44346" lon="1.86569">
        <ele>314.97</ele>
        <time>2017-12-09T13:30:18Z</time>
      </trkpt>
      <trkpt lat="43.44354" lon="1.8656">
        <ele>314.49</ele>
        <time>2017-12-09T13:30:28Z</time>
      </trkpt>
      <trkpt lat="43.44359" lon="1.86553">
        <ele>313.53</ele>
        <time>2017-12-09T13:30:34Z</time>
      </trkpt>
      <trkpt lat="43.44365" lon="1.86546">
        <ele>312.57</ele>
        <time>2017-12-09T13:30:41Z</time>
      </trkpt>
      <trkpt lat="43.44371" lon="1.8654">
        <ele>312.57</ele>
        <time>2017-12-09T13:30:47Z</time>
      </trkpt>
      <trkpt lat="43.44373" lon="1.86538">
        <ele>312.09</ele>
        <time>2017-12-09T13:30:49Z</time>
      </trkpt>
      <trkpt lat="43.44378" lon="1.8653">
        <ele>312.09</ele>
        <time>2017-12-09T13:30:56Z</time>
      </trkpt>
      <trkpt lat="43.4438" lon="1.86528">
        <ele>311.6</ele>
        <time>2017-12-09T13:30:58Z</time>
      </trkpt>
      <trkpt lat="43.44384" lon="1.86523">
        <ele>311.6</ele>
        <time>2017-12-09T13:31:03Z</time>
      </trkpt>
      <trkpt lat="43.44391" lon="1.86514">
        <ele>311.6</ele>
        <time>2017-12-09T13:31:11Z</time>
      </trkpt>
      <trkpt lat="43.44393" lon="1.86511">
        <ele>311.12</ele>
        <time>2017-12-09T13:31:14Z</time>
      </trkpt>
      <trkpt lat="43.44404" lon="1.865">
        <ele>311.6</ele>
        <time>2017-12-09T13:31:25Z</time>
      </trkpt>
      <trkpt lat="43.44415" lon="1.86485">
        <ele>312.09</ele>
        <time>2017-12-09T13:31:39Z</time>
      </trkpt>
      <trkpt lat="43.44419" lon="1.8648">
        <ele>311.6</ele>
        <time>2017-12-09T13:31:43Z</time>
      </trkpt>
      <trkpt lat="43.44426" lon="1.86473">
        <ele>311.6</ele>
        <time>2017-12-09T13:31:51Z</time>
      </trkpt>
      <trkpt lat="43.44435" lon="1.86458">
        <ele>311.6</ele>
        <time>2017-12-09T13:32:04Z</time>
      </trkpt>
      <trkpt lat="43.44438" lon="1.86455">
        <ele>311.6</ele>
        <time>2017-12-09T13:32:07Z</time>
      </trkpt>
      <trkpt lat="43.44451" lon="1.86439">
        <ele>311.12</ele>
        <time>2017-12-09T13:32:22Z</time>
      </trkpt>
      <trkpt lat="43.44462" lon="1.86425">
        <ele>311.12</ele>
        <time>2017-12-09T13:32:36Z</time>
      </trkpt>
      <trkpt lat="43.44464" lon="1.86423">
        <ele>311.12</ele>
        <time>2017-12-09T13:32:38Z</time>
      </trkpt>
      <trkpt lat="43.44475" lon="1.86408">
        <ele>310.64</ele>
        <time>2017-12-09T13:32:52Z</time>
      </trkpt>
      <trkpt lat="43.44486" lon="1.86395">
        <ele>310.64</ele>
        <time>2017-12-09T13:33:05Z</time>
      </trkpt>
      <trkpt lat="43.4449" lon="1.86389">
        <ele>310.64</ele>
        <time>2017-12-09T13:33:10Z</time>
      </trkpt>
      <trkpt lat="43.44492" lon="1.86384">
        <ele>310.64</ele>
        <time>2017-12-09T13:33:14Z</time>
      </trkpt>
      <trkpt lat="43.44506" lon="1.86369">
        <ele>310.16</ele>
        <time>2017-12-09T13:33:29Z</time>
      </trkpt>
      <trkpt lat="43.44518" lon="1.86353">
        <ele>309.68</ele>
        <time>2017-12-09T13:33:44Z</time>
      </trkpt>
      <trkpt lat="43.44521" lon="1.8635">
        <ele>309.68</ele>
        <time>2017-12-09T13:33:47Z</time>
      </trkpt>
      <trkpt lat="43.44526" lon="1.86342">
        <ele>309.68</ele>
        <time>2017-12-09T13:33:54Z</time>
      </trkpt>
      <trkpt lat="43.4453" lon="1.86338">
        <ele>309.68</ele>
        <time>2017-12-09T13:33:58Z</time>
      </trkpt>
      <trkpt lat="43.44538" lon="1.86324">
        <ele>309.68</ele>
        <time>2017-12-09T13:34:10Z</time>
      </trkpt>
      <trkpt lat="43.44553" lon="1.86308">
        <ele>309.2</ele>
        <time>2017-12-09T13:34:26Z</time>
      </trkpt>
      <trkpt lat="43.44558" lon="1.86302">
        <ele>309.68</ele>
        <time>2017-12-09T13:34:32Z</time>
      </trkpt>
      <trkpt lat="43.44562" lon="1.86296">
        <ele>309.2</ele>
        <time>2017-12-09T13:34:37Z</time>
      </trkpt>
      <trkpt lat="43.44569" lon="1.86286">
        <ele>309.68</ele>
        <time>2017-12-09T13:34:45Z</time>
      </trkpt>
      <trkpt lat="43.44582" lon="1.86271">
        <ele>309.2</ele>
        <time>2017-12-09T13:35:00Z</time>
      </trkpt>
      <trkpt lat="43.44589" lon="1.86263">
        <ele>308.72</ele>
        <time>2017-12-09T13:35:08Z</time>
      </trkpt>
      <trkpt lat="43.446" lon="1.86249">
        <ele>308.72</ele>
        <time>2017-12-09T13:35:21Z</time>
      </trkpt>
      <trkpt lat="43.44613" lon="1.86232">
        <ele>308.72</ele>
        <time>2017-12-09T13:35:37Z</time>
      </trkpt>
      <trkpt lat="43.44617" lon="1.86229">
        <ele>308.72</ele>
        <time>2017-12-09T13:35:41Z</time>
      </trkpt>
      <trkpt lat="43.44621" lon="1.86223">
        <ele>308.72</ele>
        <time>2017-12-09T13:35:46Z</time>
      </trkpt>
      <trkpt lat="43.44629" lon="1.86215">
        <ele>308.72</ele>
        <time>2017-12-09T13:35:54Z</time>
      </trkpt>
      <trkpt lat="43.44632" lon="1.8621">
        <ele>308.72</ele>
        <time>2017-12-09T13:35:58Z</time>
      </trkpt>
      <trkpt lat="43.44636" lon="1.86205">
        <ele>308.72</ele>
        <time>2017-12-09T13:36:03Z</time>
      </trkpt>
      <trkpt lat="43.44644" lon="1.86196">
        <ele>308.72</ele>
        <time>2017-12-09T13:36:12Z</time>
      </trkpt>
      <trkpt lat="43.44651" lon="1.86187">
        <ele>309.2</ele>
        <time>2017-12-09T13:36:20Z</time>
      </trkpt>
      <trkpt lat="43.44664" lon="1.86169">
        <ele>309.68</ele>
        <time>2017-12-09T13:36:35Z</time>
      </trkpt>
      <trkpt lat="43.44676" lon="1.86155">
        <ele>310.16</ele>
        <time>2017-12-09T13:36:49Z</time>
      </trkpt>
      <trkpt lat="43.44689" lon="1.86142">
        <ele>311.12</ele>
        <time>2017-12-09T13:37:03Z</time>
      </trkpt>
      <trkpt lat="43.44693" lon="1.86138">
        <ele>310.64</ele>
        <time>2017-12-09T13:37:08Z</time>
      </trkpt>
      <trkpt lat="43.44696" lon="1.86134">
        <ele>310.64</ele>
        <time>2017-12-09T13:37:12Z</time>
      </trkpt>
      <trkpt lat="43.44701" lon="1.86128">
        <ele>311.12</ele>
        <time>2017-12-09T13:37:18Z</time>
      </trkpt>
      <trkpt lat="43.44709" lon="1.86118">
        <ele>311.6</ele>
        <time>2017-12-09T13:37:28Z</time>
      </trkpt>
      <trkpt lat="43.44714" lon="1.86112">
        <ele>312.09</ele>
        <time>2017-12-09T13:37:34Z</time>
      </trkpt>
      <trkpt lat="43.44723" lon="1.861">
        <ele>312.57</ele>
        <time>2017-12-09T13:37:45Z</time>
      </trkpt>
      <trkpt lat="43.44732" lon="1.86089">
        <ele>313.05</ele>
        <time>2017-12-09T13:37:56Z</time>
      </trkpt>
      <trkpt lat="43.44745" lon="1.86074">
        <ele>313.53</ele>
        <time>2017-12-09T13:38:12Z</time>
      </trkpt>
      <trkpt lat="43.44757" lon="1.86058">
        <ele>314.01</ele>
        <time>2017-12-09T13:38:27Z</time>
      </trkpt>
      <trkpt lat="43.44765" lon="1.86049">
        <ele>314.49</ele>
        <time>2017-12-09T13:38:36Z</time>
      </trkpt>
      <trkpt lat="43.44777" lon="1.86032">
        <ele>314.49</ele>
        <time>2017-12-09T13:38:53Z</time>
      </trkpt>
      <trkpt lat="43.44786" lon="1.86021">
        <ele>314.97</ele>
        <time>2017-12-09T13:39:04Z</time>
      </trkpt>
      <trkpt lat="43.44794" lon="1.8601">
        <ele>314.97</ele>
        <time>2017-12-09T13:39:14Z</time>
      </trkpt>
      <trkpt lat="43.44807" lon="1.85995">
        <ele>315.45</ele>
        <time>2017-12-09T13:39:29Z</time>
      </trkpt>
      <trkpt lat="43.4482" lon="1.85978">
        <ele>315.45</ele>
        <time>2017-12-09T13:39:45Z</time>
      </trkpt>
      <trkpt lat="43.44821" lon="1.85977">
        <ele>315.45</ele>
        <time>2017-12-09T13:39:46Z</time>
      </trkpt>
      <trkpt lat="43.44823" lon="1.85973">
        <ele>315.45</ele>
        <time>2017-12-09T13:39:50Z</time>
      </trkpt>
      <trkpt lat="43.44837" lon="1.85955">
        <ele>314.49</ele>
        <time>2017-12-09T13:40:07Z</time>
      </trkpt>
      <trkpt lat="43.44849" lon="1.85941">
        <ele>313.05</ele>
        <time>2017-12-09T13:40:21Z</time>
      </trkpt>
      <trkpt lat="43.44863" lon="1.85925">
        <ele>312.57</ele>
        <time>2017-12-09T13:40:38Z</time>
      </trkpt>
      <trkpt lat="43.44876" lon="1.85908">
        <ele>311.12</ele>
        <time>2017-12-09T13:40:54Z</time>
      </trkpt>
      <trkpt lat="43.4489" lon="1.85893">
        <ele>310.16</ele>
        <time>2017-12-09T13:41:10Z</time>
      </trkpt>
      <trkpt lat="43.44904" lon="1.85876">
        <ele>309.2</ele>
        <time>2017-12-09T13:41:27Z</time>
      </trkpt>
      <trkpt lat="43.44905" lon="1.85875">
        <ele>309.2</ele>
        <time>2017-12-09T13:41:28Z</time>
      </trkpt>
      <trkpt lat="43.44909" lon="1.85868">
        <ele>308.24</ele>
        <time>2017-12-09T13:41:34Z</time>
      </trkpt>
      <trkpt lat="43.44924" lon="1.85852">
        <ele>307.28</ele>
        <time>2017-12-09T13:41:51Z</time>
      </trkpt>
      <trkpt lat="43.44936" lon="1.85841">
        <ele>306.8</ele>
        <time>2017-12-09T13:42:04Z</time>
      </trkpt>
      <trkpt lat="43.44952" lon="1.85828">
        <ele>305.36</ele>
        <time>2017-12-09T13:42:21Z</time>
      </trkpt>
      <trkpt lat="43.4497" lon="1.85813">
        <ele>304.88</ele>
        <time>2017-12-09T13:42:39Z</time>
      </trkpt>
      <trkpt lat="43.44986" lon="1.858">
        <ele>303.91</ele>
        <time>2017-12-09T13:42:55Z</time>
      </trkpt>
      <trkpt lat="43.45001" lon="1.85787">
        <ele>303.91</ele>
        <time>2017-12-09T13:43:12Z</time>
      </trkpt>
      <trkpt lat="43.45017" lon="1.85775">
        <ele>302.95</ele>
        <time>2017-12-09T13:43:27Z</time>
      </trkpt>
      <trkpt lat="43.45019" lon="1.85773">
        <ele>303.43</ele>
        <time>2017-12-09T13:43:29Z</time>
      </trkpt>
      <trkpt lat="43.45025" lon="1.85768">
        <ele>303.43</ele>
        <time>2017-12-09T13:43:35Z</time>
      </trkpt>
      <trkpt lat="43.45041" lon="1.85755">
        <ele>302.95</ele>
        <time>2017-12-09T13:43:51Z</time>
      </trkpt>
      <trkpt lat="43.45056" lon="1.85743">
        <ele>302.47</ele>
        <time>2017-12-09T13:44:06Z</time>
      </trkpt>
      <trkpt lat="43.45063" lon="1.85737">
        <ele>301.99</ele>
        <time>2017-12-09T13:44:14Z</time>
      </trkpt>
      <trkpt lat="43.45076" lon="1.85727">
        <ele>301.99</ele>
        <time>2017-12-09T13:44:26Z</time>
      </trkpt>
      <trkpt lat="43.45079" lon="1.85724">
        <ele>301.99</ele>
        <time>2017-12-09T13:44:29Z</time>
      </trkpt>
      <trkpt lat="43.45082" lon="1.85721">
        <ele>301.99</ele>
        <time>2017-12-09T13:44:33Z</time>
      </trkpt>
      <trkpt lat="43.45087" lon="1.85717">
        <ele>301.99</ele>
        <time>2017-12-09T13:44:38Z</time>
      </trkpt>
      <trkpt lat="43.45094" lon="1.8571">
        <ele>301.51</ele>
        <time>2017-12-09T13:44:45Z</time>
      </trkpt>
      <trkpt lat="43.45108" lon="1.85699">
        <ele>301.03</ele>
        <time>2017-12-09T13:44:59Z</time>
      </trkpt>
      <trkpt lat="43.4512" lon="1.8569">
        <ele>300.55</ele>
        <time>2017-12-09T13:45:11Z</time>
      </trkpt>
      <trkpt lat="43.45136" lon="1.85677">
        <ele>300.55</ele>
        <time>2017-12-09T13:45:27Z</time>
      </trkpt>
      <trkpt lat="43.4514" lon="1.85675">
        <ele>300.55</ele>
        <time>2017-12-09T13:45:30Z</time>
      </trkpt>
      <trkpt lat="43.45145" lon="1.85671">
        <ele>300.07</ele>
        <time>2017-12-09T13:45:36Z</time>
      </trkpt>
      <trkpt lat="43.45163" lon="1.85656">
        <ele>300.07</ele>
        <time>2017-12-09T13:45:54Z</time>
      </trkpt>
      <trkpt lat="43.45177" lon="1.85644">
        <ele>299.11</ele>
        <time>2017-12-09T13:46:09Z</time>
      </trkpt>
      <trkpt lat="43.45192" lon="1.85631">
        <ele>299.11</ele>
        <time>2017-12-09T13:46:25Z</time>
      </trkpt>
      <trkpt lat="43.45204" lon="1.85622">
        <ele>299.59</ele>
        <time>2017-12-09T13:46:36Z</time>
      </trkpt>
      <trkpt lat="43.45218" lon="1.8561">
        <ele>299.59</ele>
        <time>2017-12-09T13:46:50Z</time>
      </trkpt>
      <trkpt lat="43.45227" lon="1.85602">
        <ele>300.07</ele>
        <time>2017-12-09T13:47:02Z</time>
      </trkpt>
      <trkpt lat="43.45228" lon="1.85603">
        <ele>299.11</ele>
        <time>2017-12-09T13:47:21Z</time>
      </trkpt>
      <trkpt lat="43.45227" lon="1.85603">
        <ele>299.11</ele>
        <time>2017-12-09T13:47:45Z</time>
      </trkpt>
      <trkpt lat="43.45235" lon="1.85596">
        <ele>299.59</ele>
        <time>2017-12-09T13:47:59Z</time>
      </trkpt>
      <trkpt lat="43.45244" lon="1.85588">
        <ele>299.11</ele>
        <time>2017-12-09T13:48:10Z</time>
      </trkpt>
      <trkpt lat="43.45261" lon="1.85574">
        <ele>299.59</ele>
        <time>2017-12-09T13:48:29Z</time>
      </trkpt>
      <trkpt lat="43.45272" lon="1.85564">
        <ele>298.63</ele>
        <time>2017-12-09T13:48:41Z</time>
      </trkpt>
      <trkpt lat="43.45288" lon="1.85551">
        <ele>298.15</ele>
        <time>2017-12-09T13:48:59Z</time>
      </trkpt>
      <trkpt lat="43.45304" lon="1.85537">
        <ele>297.67</ele>
        <time>2017-12-09T13:49:14Z</time>
      </trkpt>
      <trkpt lat="43.45311" lon="1.85532">
        <ele>298.15</ele>
        <time>2017-12-09T13:49:32Z</time>
      </trkpt>
      <trkpt lat="43.45313" lon="1.8553">
        <ele>297.67</ele>
        <time>2017-12-09T13:49:36Z</time>
      </trkpt>
      <trkpt lat="43.45314" lon="1.85529">
        <ele>298.63</ele>
        <time>2017-12-09T13:49:38Z</time>
      </trkpt>
      <trkpt lat="43.45332" lon="1.85515">
        <ele>297.18</ele>
        <time>2017-12-09T13:49:58Z</time>
      </trkpt>
      <trkpt lat="43.45343" lon="1.85509">
        <ele>296.7</ele>
        <time>2017-12-09T13:50:11Z</time>
      </trkpt>
      <trkpt lat="43.45347" lon="1.85507">
        <ele>296.22</ele>
        <time>2017-12-09T13:53:06Z</time>
      </trkpt>
      <trkpt lat="43.4535" lon="1.85507">
        <ele>296.22</ele>
        <time>2017-12-09T13:53:24Z</time>
      </trkpt>
      <trkpt lat="43.45363" lon="1.85497">
        <ele>296.22</ele>
        <time>2017-12-09T13:53:42Z</time>
      </trkpt>
      <trkpt lat="43.45369" lon="1.85495">
        <ele>295.74</ele>
        <time>2017-12-09T13:53:49Z</time>
      </trkpt>
      <trkpt lat="43.45389" lon="1.85487">
        <ele>294.78</ele>
        <time>2017-12-09T13:54:11Z</time>
      </trkpt>
      <trkpt lat="43.45407" lon="1.8548">
        <ele>293.34</ele>
        <time>2017-12-09T13:54:29Z</time>
      </trkpt>
      <trkpt lat="43.45425" lon="1.85473">
        <ele>293.34</ele>
        <time>2017-12-09T13:54:46Z</time>
      </trkpt>
      <trkpt lat="43.45437" lon="1.85469">
        <ele>292.38</ele>
        <time>2017-12-09T13:54:57Z</time>
      </trkpt>
      <trkpt lat="43.45456" lon="1.85461">
        <ele>290.94</ele>
        <time>2017-12-09T13:55:16Z</time>
      </trkpt>
      <trkpt lat="43.45475" lon="1.85453">
        <ele>290.46</ele>
        <time>2017-12-09T13:55:34Z</time>
      </trkpt>
      <trkpt lat="43.45494" lon="1.85445">
        <ele>289.49</ele>
        <time>2017-12-09T13:55:52Z</time>
      </trkpt>
      <trkpt lat="43.45513" lon="1.8544">
        <ele>288.05</ele>
        <time>2017-12-09T13:56:11Z</time>
      </trkpt>
      <trkpt lat="43.4553" lon="1.85433">
        <ele>286.61</ele>
        <time>2017-12-09T13:56:27Z</time>
      </trkpt>
      <trkpt lat="43.4555" lon="1.85426">
        <ele>285.65</ele>
        <time>2017-12-09T13:56:45Z</time>
      </trkpt>
      <trkpt lat="43.45558" lon="1.85423">
        <ele>285.17</ele>
        <time>2017-12-09T13:56:52Z</time>
      </trkpt>
      <trkpt lat="43.45564" lon="1.85421">
        <ele>284.69</ele>
        <time>2017-12-09T13:56:58Z</time>
      </trkpt>
      <trkpt lat="43.45583" lon="1.85411">
        <ele>282.77</ele>
        <time>2017-12-09T13:57:15Z</time>
      </trkpt>
      <trkpt lat="43.45591" lon="1.85408">
        <ele>282.28</ele>
        <time>2017-12-09T13:57:22Z</time>
      </trkpt>
      <trkpt lat="43.45595" lon="1.85406">
        <ele>282.28</ele>
        <time>2017-12-09T13:57:26Z</time>
      </trkpt>
      <trkpt lat="43.45618" lon="1.85398">
        <ele>281.32</ele>
        <time>2017-12-09T13:57:48Z</time>
      </trkpt>
      <trkpt lat="43.45635" lon="1.85392">
        <ele>280.36</ele>
        <time>2017-12-09T13:58:03Z</time>
      </trkpt>
      <trkpt lat="43.45651" lon="1.85387">
        <ele>279.4</ele>
        <time>2017-12-09T13:58:18Z</time>
      </trkpt>
      <trkpt lat="43.45653" lon="1.85386">
        <ele>279.4</ele>
        <time>2017-12-09T13:58:20Z</time>
      </trkpt>
      <trkpt lat="43.45658" lon="1.85384">
        <ele>279.4</ele>
        <time>2017-12-09T13:58:24Z</time>
      </trkpt>
      <trkpt lat="43.45678" lon="1.85377">
        <ele>277.96</ele>
        <time>2017-12-09T13:58:43Z</time>
      </trkpt>
      <trkpt lat="43.45696" lon="1.85372">
        <ele>277</ele>
        <time>2017-12-09T13:58:59Z</time>
      </trkpt>
      <trkpt lat="43.45704" lon="1.85369">
        <ele>276.52</ele>
        <time>2017-12-09T13:59:07Z</time>
      </trkpt>
      <trkpt lat="43.45708" lon="1.85366">
        <ele>276.52</ele>
        <time>2017-12-09T13:59:11Z</time>
      </trkpt>
      <trkpt lat="43.45729" lon="1.85361">
        <ele>275.56</ele>
        <time>2017-12-09T13:59:30Z</time>
      </trkpt>
      <trkpt lat="43.45749" lon="1.85353">
        <ele>274.59</ele>
        <time>2017-12-09T13:59:48Z</time>
      </trkpt>
      <trkpt lat="43.45767" lon="1.85346">
        <ele>273.15</ele>
        <time>2017-12-09T14:00:05Z</time>
      </trkpt>
      <trkpt lat="43.45785" lon="1.85339">
        <ele>272.67</ele>
        <time>2017-12-09T14:00:22Z</time>
      </trkpt>
      <trkpt lat="43.45802" lon="1.85331">
        <ele>271.71</ele>
        <time>2017-12-09T14:00:38Z</time>
      </trkpt>
      <trkpt lat="43.45811" lon="1.8533">
        <ele>271.71</ele>
        <time>2017-12-09T14:00:46Z</time>
      </trkpt>
      <trkpt lat="43.45815" lon="1.85355">
        <ele>272.19</ele>
        <time>2017-12-09T14:01:01Z</time>
      </trkpt>
      <trkpt lat="43.4581" lon="1.85374">
        <ele>274.11</ele>
        <time>2017-12-09T14:01:16Z</time>
      </trkpt>
      <trkpt lat="43.45807" lon="1.85389">
        <ele>275.07</ele>
        <time>2017-12-09T14:01:30Z</time>
      </trkpt>
      <trkpt lat="43.45804" lon="1.85406">
        <ele>277</ele>
        <time>2017-12-09T14:01:44Z</time>
      </trkpt>
      <trkpt lat="43.45803" lon="1.85417">
        <ele>278.44</ele>
        <time>2017-12-09T14:01:57Z</time>
      </trkpt>
      <trkpt lat="43.45799" lon="1.85437">
        <ele>279.4</ele>
        <time>2017-12-09T14:02:12Z</time>
      </trkpt>
      <trkpt lat="43.45798" lon="1.85442">
        <ele>279.4</ele>
        <time>2017-12-09T14:02:16Z</time>
      </trkpt>
      <trkpt lat="43.45797" lon="1.85452">
        <ele>279.88</ele>
        <time>2017-12-09T14:02:24Z</time>
      </trkpt>
      <trkpt lat="43.45793" lon="1.85471">
        <ele>280.36</ele>
        <time>2017-12-09T14:02:37Z</time>
      </trkpt>
      <trkpt lat="43.45785" lon="1.85499">
        <ele>280.36</ele>
        <time>2017-12-09T14:02:56Z</time>
      </trkpt>
      <trkpt lat="43.45774" lon="1.85521">
        <ele>280.36</ele>
        <time>2017-12-09T14:03:13Z</time>
      </trkpt>
      <trkpt lat="43.45762" lon="1.85545">
        <ele>280.36</ele>
        <time>2017-12-09T14:03:31Z</time>
      </trkpt>
      <trkpt lat="43.45752" lon="1.85563">
        <ele>280.36</ele>
        <time>2017-12-09T14:03:46Z</time>
      </trkpt>
      <trkpt lat="43.45741" lon="1.85583">
        <ele>279.88</ele>
        <time>2017-12-09T14:04:02Z</time>
      </trkpt>
      <trkpt lat="43.45729" lon="1.85603">
        <ele>278.92</ele>
        <time>2017-12-09T14:04:18Z</time>
      </trkpt>
      <trkpt lat="43.45718" lon="1.85619">
        <ele>277.96</ele>
        <time>2017-12-09T14:04:32Z</time>
      </trkpt>
      <trkpt lat="43.45714" lon="1.85623">
        <ele>277.96</ele>
        <time>2017-12-09T14:04:36Z</time>
      </trkpt>
      <trkpt lat="43.45708" lon="1.85633">
        <ele>277.48</ele>
        <time>2017-12-09T14:04:46Z</time>
      </trkpt>
      <trkpt lat="43.45706" lon="1.85636">
        <ele>277.48</ele>
        <time>2017-12-09T14:04:48Z</time>
      </trkpt>
      <trkpt lat="43.45698" lon="1.85656">
        <ele>276.52</ele>
        <time>2017-12-09T14:05:06Z</time>
      </trkpt>
      <trkpt lat="43.45692" lon="1.85674">
        <ele>275.56</ele>
        <time>2017-12-09T14:05:20Z</time>
      </trkpt>
      <trkpt lat="43.45686" lon="1.8569">
        <ele>274.11</ele>
        <time>2017-12-09T14:05:33Z</time>
      </trkpt>
      <trkpt lat="43.45684" lon="1.85695">
        <ele>273.63</ele>
        <time>2017-12-09T14:05:39Z</time>
      </trkpt>
      <trkpt lat="43.45683" lon="1.85697">
        <ele>273.63</ele>
        <time>2017-12-09T14:05:46Z</time>
      </trkpt>
      <trkpt lat="43.4568" lon="1.85704">
        <ele>273.15</ele>
        <time>2017-12-09T14:05:51Z</time>
      </trkpt>
      <trkpt lat="43.45675" lon="1.85721">
        <ele>271.71</ele>
        <time>2017-12-09T14:06:03Z</time>
      </trkpt>
      <trkpt lat="43.45672" lon="1.85743">
        <ele>270.27</ele>
        <time>2017-12-09T14:06:17Z</time>
      </trkpt>
      <trkpt lat="43.45668" lon="1.85763">
        <ele>268.83</ele>
        <time>2017-12-09T14:06:32Z</time>
      </trkpt>
      <trkpt lat="43.45667" lon="1.85772">
        <ele>268.35</ele>
        <time>2017-12-09T14:06:38Z</time>
      </trkpt>
      <trkpt lat="43.45664" lon="1.85794">
        <ele>266.42</ele>
        <time>2017-12-09T14:06:54Z</time>
      </trkpt>
      <trkpt lat="43.4566" lon="1.85814">
        <ele>264.98</ele>
        <time>2017-12-09T14:07:08Z</time>
      </trkpt>
      <trkpt lat="43.45659" lon="1.85817">
        <ele>264.98</ele>
        <time>2017-12-09T14:07:10Z</time>
      </trkpt>
      <trkpt lat="43.45656" lon="1.85829">
        <ele>264.02</ele>
        <time>2017-12-09T14:07:22Z</time>
      </trkpt>
      <trkpt lat="43.45651" lon="1.85851">
        <ele>261.62</ele>
        <time>2017-12-09T14:07:38Z</time>
      </trkpt>
      <trkpt lat="43.45649" lon="1.8587">
        <ele>260.17</ele>
        <time>2017-12-09T14:07:50Z</time>
      </trkpt>
      <trkpt lat="43.45644" lon="1.85894">
        <ele>257.29</ele>
        <time>2017-12-09T14:08:08Z</time>
      </trkpt>
      <trkpt lat="43.45642" lon="1.85899">
        <ele>257.29</ele>
        <time>2017-12-09T14:08:24Z</time>
      </trkpt>
      <trkpt lat="43.45637" lon="1.85902">
        <ele>256.33</ele>
        <time>2017-12-09T14:08:50Z</time>
      </trkpt>
      <trkpt lat="43.45631" lon="1.85925">
        <ele>253.93</ele>
        <time>2017-12-09T14:09:07Z</time>
      </trkpt>
      <trkpt lat="43.45624" lon="1.85947">
        <ele>252</ele>
        <time>2017-12-09T14:09:23Z</time>
      </trkpt>
      <trkpt lat="43.45624" lon="1.85949">
        <ele>251.52</ele>
        <time>2017-12-09T14:09:25Z</time>
      </trkpt>
      <trkpt lat="43.45622" lon="1.85955">
        <ele>251.04</ele>
        <time>2017-12-09T14:09:30Z</time>
      </trkpt>
      <trkpt lat="43.45618" lon="1.85965">
        <ele>249.6</ele>
        <time>2017-12-09T14:09:38Z</time>
      </trkpt>
      <trkpt lat="43.4561" lon="1.85984">
        <ele>247.68</ele>
        <time>2017-12-09T14:09:54Z</time>
      </trkpt>
      <trkpt lat="43.45597" lon="1.86008">
        <ele>246.72</ele>
        <time>2017-12-09T14:10:14Z</time>
      </trkpt>
      <trkpt lat="43.45588" lon="1.86027">
        <ele>245.75</ele>
        <time>2017-12-09T14:10:31Z</time>
      </trkpt>
      <trkpt lat="43.45587" lon="1.8603">
        <ele>245.75</ele>
        <time>2017-12-09T14:10:34Z</time>
      </trkpt>
      <trkpt lat="43.45586" lon="1.86033">
        <ele>245.75</ele>
        <time>2017-12-09T14:10:36Z</time>
      </trkpt>
      <trkpt lat="43.45573" lon="1.86056">
        <ele>244.79</ele>
        <time>2017-12-09T14:10:55Z</time>
      </trkpt>
      <trkpt lat="43.45562" lon="1.86076">
        <ele>244.31</ele>
        <time>2017-12-09T14:11:11Z</time>
      </trkpt>
      <trkpt lat="43.45552" lon="1.86098">
        <ele>243.35</ele>
        <time>2017-12-09T14:11:27Z</time>
      </trkpt>
      <trkpt lat="43.45542" lon="1.86119">
        <ele>243.83</ele>
        <time>2017-12-09T14:11:42Z</time>
      </trkpt>
      <trkpt lat="43.45532" lon="1.8614">
        <ele>244.31</ele>
        <time>2017-12-09T14:11:57Z</time>
      </trkpt>
      <trkpt lat="43.45522" lon="1.8616">
        <ele>244.79</ele>
        <time>2017-12-09T14:12:12Z</time>
      </trkpt>
      <trkpt lat="43.45516" lon="1.86181">
        <ele>245.27</ele>
        <time>2017-12-09T14:12:27Z</time>
      </trkpt>
      <trkpt lat="43.45514" lon="1.86193">
        <ele>245.27</ele>
        <time>2017-12-09T14:12:35Z</time>
      </trkpt>
      <trkpt lat="43.45511" lon="1.8622">
        <ele>245.27</ele>
        <time>2017-12-09T14:12:52Z</time>
      </trkpt>
      <trkpt lat="43.45506" lon="1.86243">
        <ele>244.79</ele>
        <time>2017-12-09T14:13:07Z</time>
      </trkpt>
      <trkpt lat="43.45497" lon="1.86268">
        <ele>244.79</ele>
        <time>2017-12-09T14:13:24Z</time>
      </trkpt>
      <trkpt lat="43.45496" lon="1.86269">
        <ele>244.31</ele>
        <time>2017-12-09T14:13:25Z</time>
      </trkpt>
      <trkpt lat="43.45494" lon="1.86271">
        <ele>244.31</ele>
        <time>2017-12-09T14:13:27Z</time>
      </trkpt>
      <trkpt lat="43.45485" lon="1.86293">
        <ele>244.79</ele>
        <time>2017-12-09T14:13:43Z</time>
      </trkpt>
      <trkpt lat="43.45483" lon="1.86296">
        <ele>244.79</ele>
        <time>2017-12-09T14:13:48Z</time>
      </trkpt>
      <trkpt lat="43.4547" lon="1.8632">
        <ele>244.79</ele>
        <time>2017-12-09T14:14:06Z</time>
      </trkpt>
      <trkpt lat="43.4546" lon="1.86336">
        <ele>245.27</ele>
        <time>2017-12-09T14:14:22Z</time>
      </trkpt>
      <trkpt lat="43.45452" lon="1.86362">
        <ele>245.27</ele>
        <time>2017-12-09T14:14:39Z</time>
      </trkpt>
      <trkpt lat="43.45445" lon="1.86381">
        <ele>245.75</ele>
        <time>2017-12-09T14:14:53Z</time>
      </trkpt>
      <trkpt lat="43.45438" lon="1.86399">
        <ele>245.75</ele>
        <time>2017-12-09T14:15:08Z</time>
      </trkpt>
      <trkpt lat="43.45431" lon="1.86422">
        <ele>246.23</ele>
        <time>2017-12-09T14:15:23Z</time>
      </trkpt>
      <trkpt lat="43.45425" lon="1.86439">
        <ele>246.72</ele>
        <time>2017-12-09T14:15:35Z</time>
      </trkpt>
      <trkpt lat="43.45422" lon="1.86446">
        <ele>246.72</ele>
        <time>2017-12-09T14:15:40Z</time>
      </trkpt>
      <trkpt lat="43.45419" lon="1.86457">
        <ele>246.72</ele>
        <time>2017-12-09T14:15:47Z</time>
      </trkpt>
      <trkpt lat="43.45414" lon="1.86468">
        <ele>246.72</ele>
        <time>2017-12-09T14:15:55Z</time>
      </trkpt>
      <trkpt lat="43.45407" lon="1.8649">
        <ele>247.2</ele>
        <time>2017-12-09T14:16:12Z</time>
      </trkpt>
      <trkpt lat="43.45391" lon="1.8654">
        <ele>247.68</ele>
        <time>2017-12-09T14:17:42Z</time>
      </trkpt>
      <trkpt lat="43.45379" lon="1.86564">
        <ele>248.16</ele>
        <time>2017-12-09T14:17:58Z</time>
      </trkpt>
      <trkpt lat="43.45368" lon="1.86588">
        <ele>248.64</ele>
        <time>2017-12-09T14:18:14Z</time>
      </trkpt>
      <trkpt lat="43.45355" lon="1.86611">
        <ele>250.08</ele>
        <time>2017-12-09T14:18:30Z</time>
      </trkpt>
      <trkpt lat="43.45347" lon="1.86627">
        <ele>250.08</ele>
        <time>2017-12-09T14:18:42Z</time>
      </trkpt>
      <trkpt lat="43.45338" lon="1.86655">
        <ele>251.04</ele>
        <time>2017-12-09T14:19:01Z</time>
      </trkpt>
      <trkpt lat="43.45332" lon="1.8668">
        <ele>252</ele>
        <time>2017-12-09T14:19:17Z</time>
      </trkpt>
      <trkpt lat="43.45328" lon="1.8669">
        <ele>252.96</ele>
        <time>2017-12-09T14:19:25Z</time>
      </trkpt>
      <trkpt lat="43.45321" lon="1.86712">
        <ele>253.93</ele>
        <time>2017-12-09T14:19:41Z</time>
      </trkpt>
      <trkpt lat="43.45321" lon="1.86714">
        <ele>254.41</ele>
        <time>2017-12-09T14:19:43Z</time>
      </trkpt>
      <trkpt lat="43.4532" lon="1.8672">
        <ele>254.41</ele>
        <time>2017-12-09T14:19:47Z</time>
      </trkpt>
      <trkpt lat="43.45319" lon="1.86722">
        <ele>254.41</ele>
        <time>2017-12-09T14:19:49Z</time>
      </trkpt>
      <trkpt lat="43.45312" lon="1.86745">
        <ele>255.37</ele>
        <time>2017-12-09T14:20:05Z</time>
      </trkpt>
      <trkpt lat="43.45307" lon="1.86761">
        <ele>255.37</ele>
        <time>2017-12-09T14:20:15Z</time>
      </trkpt>
      <trkpt lat="43.45306" lon="1.86766">
        <ele>255.37</ele>
        <time>2017-12-09T14:20:18Z</time>
      </trkpt>
      <trkpt lat="43.45298" lon="1.86794">
        <ele>255.85</ele>
        <time>2017-12-09T14:20:37Z</time>
      </trkpt>
      <trkpt lat="43.45291" lon="1.86816">
        <ele>255.85</ele>
        <time>2017-12-09T14:20:51Z</time>
      </trkpt>
      <trkpt lat="43.45284" lon="1.86836">
        <ele>255.85</ele>
        <time>2017-12-09T14:21:05Z</time>
      </trkpt>
      <trkpt lat="43.45278" lon="1.86859">
        <ele>255.37</ele>
        <time>2017-12-09T14:21:20Z</time>
      </trkpt>
      <trkpt lat="43.45276" lon="1.86869">
        <ele>255.37</ele>
        <time>2017-12-09T14:21:26Z</time>
      </trkpt>
      <trkpt lat="43.4527" lon="1.8689">
        <ele>254.89</ele>
        <time>2017-12-09T14:21:40Z</time>
      </trkpt>
      <trkpt lat="43.4526" lon="1.86916">
        <ele>254.41</ele>
        <time>2017-12-09T14:21:57Z</time>
      </trkpt>
      <trkpt lat="43.45255" lon="1.86929">
        <ele>253.93</ele>
        <time>2017-12-09T14:22:10Z</time>
      </trkpt>
      <trkpt lat="43.45254" lon="1.8693">
        <ele>254.41</ele>
        <time>2017-12-09T14:22:24Z</time>
      </trkpt>
      <trkpt lat="43.45254" lon="1.8693">
        <ele>253.93</ele>
        <time>2017-12-09T14:22:48Z</time>
      </trkpt>
      <trkpt lat="43.45255" lon="1.8694">
        <ele>253.93</ele>
        <time>2017-12-09T14:26:20Z</time>
      </trkpt>
      <trkpt lat="43.45256" lon="1.8696">
        <ele>254.41</ele>
        <time>2017-12-09T14:26:37Z</time>
      </trkpt>
      <trkpt lat="43.45253" lon="1.86968">
        <ele>254.41</ele>
        <time>2017-12-09T14:26:44Z</time>
      </trkpt>
      <trkpt lat="43.45253" lon="1.86975">
        <ele>254.41</ele>
        <time>2017-12-09T14:26:48Z</time>
      </trkpt>
      <trkpt lat="43.45245" lon="1.87003">
        <ele>255.37</ele>
        <time>2017-12-09T14:27:06Z</time>
      </trkpt>
      <trkpt lat="43.45238" lon="1.87027">
        <ele>255.85</ele>
        <time>2017-12-09T14:27:23Z</time>
      </trkpt>
      <trkpt lat="43.45234" lon="1.87049">
        <ele>255.85</ele>
        <time>2017-12-09T14:27:39Z</time>
      </trkpt>
      <trkpt lat="43.45227" lon="1.87074">
        <ele>255.85</ele>
        <time>2017-12-09T14:27:56Z</time>
      </trkpt>
      <trkpt lat="43.45224" lon="1.87096">
        <ele>256.33</ele>
        <time>2017-12-09T14:28:12Z</time>
      </trkpt>
      <trkpt lat="43.4522" lon="1.8711">
        <ele>256.33</ele>
        <time>2017-12-09T14:28:24Z</time>
      </trkpt>
      <trkpt lat="43.45213" lon="1.87135">
        <ele>256.33</ele>
        <time>2017-12-09T14:28:42Z</time>
      </trkpt>
      <trkpt lat="43.45206" lon="1.87163">
        <ele>256.81</ele>
        <time>2017-12-09T14:29:00Z</time>
      </trkpt>
      <trkpt lat="43.452" lon="1.87185">
        <ele>256.81</ele>
        <time>2017-12-09T14:29:15Z</time>
      </trkpt>
      <trkpt lat="43.45198" lon="1.87194">
        <ele>256.81</ele>
        <time>2017-12-09T14:29:21Z</time>
      </trkpt>
      <trkpt lat="43.45195" lon="1.87205">
        <ele>257.29</ele>
        <time>2017-12-09T14:29:29Z</time>
      </trkpt>
      <trkpt lat="43.45194" lon="1.87211">
        <ele>257.29</ele>
        <time>2017-12-09T14:29:33Z</time>
      </trkpt>
      <trkpt lat="43.45188" lon="1.87233">
        <ele>257.29</ele>
        <time>2017-12-09T14:29:49Z</time>
      </trkpt>
      <trkpt lat="43.45185" lon="1.87257">
        <ele>257.29</ele>
        <time>2017-12-09T14:30:04Z</time>
      </trkpt>
      <trkpt lat="43.45179" lon="1.87281">
        <ele>257.77</ele>
        <time>2017-12-09T14:30:20Z</time>
      </trkpt>
      <trkpt lat="43.45171" lon="1.87308">
        <ele>258.25</ele>
        <time>2017-12-09T14:30:38Z</time>
      </trkpt>
      <trkpt lat="43.45162" lon="1.87334">
        <ele>258.73</ele>
        <time>2017-12-09T14:30:56Z</time>
      </trkpt>
      <trkpt lat="43.45156" lon="1.87362">
        <ele>258.73</ele>
        <time>2017-12-09T14:31:15Z</time>
      </trkpt>
      <trkpt lat="43.45151" lon="1.87376">
        <ele>258.73</ele>
        <time>2017-12-09T14:31:25Z</time>
      </trkpt>
      <trkpt lat="43.45145" lon="1.87401">
        <ele>259.21</ele>
        <time>2017-12-09T14:31:42Z</time>
      </trkpt>
      <trkpt lat="43.45138" lon="1.87426">
        <ele>259.69</ele>
        <time>2017-12-09T14:31:59Z</time>
      </trkpt>
      <trkpt lat="43.45129" lon="1.87451">
        <ele>259.69</ele>
        <time>2017-12-09T14:32:17Z</time>
      </trkpt>
      <trkpt lat="43.45124" lon="1.87459">
        <ele>260.17</ele>
        <time>2017-12-09T14:32:24Z</time>
      </trkpt>
      <trkpt lat="43.45111" lon="1.87483">
        <ele>261.14</ele>
        <time>2017-12-09T14:32:43Z</time>
      </trkpt>
      <trkpt lat="43.45105" lon="1.87493">
        <ele>261.14</ele>
        <time>2017-12-09T14:32:51Z</time>
      </trkpt>
      <trkpt lat="43.45105" lon="1.87496">
        <ele>261.14</ele>
        <time>2017-12-09T14:32:53Z</time>
      </trkpt>
      <trkpt lat="43.45091" lon="1.87519">
        <ele>261.62</ele>
        <time>2017-12-09T14:33:12Z</time>
      </trkpt>
      <trkpt lat="43.45079" lon="1.87537">
        <ele>262.1</ele>
        <time>2017-12-09T14:33:28Z</time>
      </trkpt>
      <trkpt lat="43.45065" lon="1.87559">
        <ele>262.58</ele>
        <time>2017-12-09T14:33:46Z</time>
      </trkpt>
      <trkpt lat="43.45058" lon="1.87571">
        <ele>262.1</ele>
        <time>2017-12-09T14:33:56Z</time>
      </trkpt>
      <trkpt lat="43.45051" lon="1.87585">
        <ele>262.58</ele>
        <time>2017-12-09T14:34:06Z</time>
      </trkpt>
      <trkpt lat="43.45042" lon="1.87608">
        <ele>263.06</ele>
        <time>2017-12-09T14:34:23Z</time>
      </trkpt>
      <trkpt lat="43.45035" lon="1.8763">
        <ele>263.54</ele>
        <time>2017-12-09T14:34:39Z</time>
      </trkpt>
      <trkpt lat="43.45028" lon="1.87652">
        <ele>263.54</ele>
        <time>2017-12-09T14:34:56Z</time>
      </trkpt>
      <trkpt lat="43.45027" lon="1.87661">
        <ele>264.5</ele>
        <time>2017-12-09T14:37:04Z</time>
      </trkpt>
      <trkpt lat="43.45028" lon="1.87682">
        <ele>264.5</ele>
        <time>2017-12-09T14:37:22Z</time>
      </trkpt>
      <trkpt lat="43.45031" lon="1.8771">
        <ele>264.98</ele>
        <time>2017-12-09T14:37:41Z</time>
      </trkpt>
      <trkpt lat="43.45034" lon="1.87729">
        <ele>265.94</ele>
        <time>2017-12-09T14:37:57Z</time>
      </trkpt>
      <trkpt lat="43.45034" lon="1.87732">
        <ele>265.94</ele>
        <time>2017-12-09T14:38:00Z</time>
      </trkpt>
      <trkpt lat="43.45034" lon="1.87746">
        <ele>266.9</ele>
        <time>2017-12-09T14:38:10Z</time>
      </trkpt>
      <trkpt lat="43.45038" lon="1.87762">
        <ele>267.86</ele>
        <time>2017-12-09T14:38:23Z</time>
      </trkpt>
      <trkpt lat="43.4504" lon="1.87781">
        <ele>268.83</ele>
        <time>2017-12-09T14:38:37Z</time>
      </trkpt>
      <trkpt lat="43.45042" lon="1.87798">
        <ele>270.27</ele>
        <time>2017-12-09T14:38:50Z</time>
      </trkpt>
      <trkpt lat="43.45042" lon="1.87814">
        <ele>271.71</ele>
        <time>2017-12-09T14:39:04Z</time>
      </trkpt>
      <trkpt lat="43.45046" lon="1.8783">
        <ele>273.63</ele>
        <time>2017-12-09T14:39:19Z</time>
      </trkpt>
      <trkpt lat="43.45049" lon="1.87849">
        <ele>275.07</ele>
        <time>2017-12-09T14:39:33Z</time>
      </trkpt>
      <trkpt lat="43.45052" lon="1.87867">
        <ele>276.52</ele>
        <time>2017-12-09T14:39:48Z</time>
      </trkpt>
      <trkpt lat="43.45053" lon="1.87883">
        <ele>277.96</ele>
        <time>2017-12-09T14:40:01Z</time>
      </trkpt>
      <trkpt lat="43.45054" lon="1.87893">
        <ele>278.92</ele>
        <time>2017-12-09T14:40:09Z</time>
      </trkpt>
      <trkpt lat="43.45053" lon="1.87895">
        <ele>279.4</ele>
        <time>2017-12-09T14:40:11Z</time>
      </trkpt>
      <trkpt lat="43.45054" lon="1.87907">
        <ele>280.36</ele>
        <time>2017-12-09T14:40:21Z</time>
      </trkpt>
      <trkpt lat="43.45052" lon="1.87922">
        <ele>282.28</ele>
        <time>2017-12-09T14:40:34Z</time>
      </trkpt>
      <trkpt lat="43.45048" lon="1.87936">
        <ele>283.73</ele>
        <time>2017-12-09T14:40:46Z</time>
      </trkpt>
      <trkpt lat="43.45046" lon="1.87947">
        <ele>284.69</ele>
        <time>2017-12-09T14:40:56Z</time>
      </trkpt>
      <trkpt lat="43.45046" lon="1.87963">
        <ele>286.61</ele>
        <time>2017-12-09T14:41:10Z</time>
      </trkpt>
      <trkpt lat="43.45045" lon="1.87975">
        <ele>288.05</ele>
        <time>2017-12-09T14:41:21Z</time>
      </trkpt>
      <trkpt lat="43.45043" lon="1.87981">
        <ele>289.01</ele>
        <time>2017-12-09T14:41:27Z</time>
      </trkpt>
      <trkpt lat="43.45042" lon="1.8799">
        <ele>289.97</ele>
        <time>2017-12-09T14:41:36Z</time>
      </trkpt>
      <trkpt lat="43.4504" lon="1.88006">
        <ele>291.42</ele>
        <time>2017-12-09T14:41:49Z</time>
      </trkpt>
      <trkpt lat="43.45039" lon="1.88014">
        <ele>292.38</ele>
        <time>2017-12-09T14:41:57Z</time>
      </trkpt>
      <trkpt lat="43.45037" lon="1.88027">
        <ele>293.82</ele>
        <time>2017-12-09T14:42:09Z</time>
      </trkpt>
      <trkpt lat="43.45036" lon="1.88041">
        <ele>295.26</ele>
        <time>2017-12-09T14:42:21Z</time>
      </trkpt>
      <trkpt lat="43.45036" lon="1.88049">
        <ele>295.74</ele>
        <time>2017-12-09T14:42:28Z</time>
      </trkpt>
      <trkpt lat="43.45032" lon="1.88063">
        <ele>297.18</ele>
        <time>2017-12-09T14:42:42Z</time>
      </trkpt>
      <trkpt lat="43.45032" lon="1.88067">
        <ele>297.67</ele>
        <time>2017-12-09T14:42:45Z</time>
      </trkpt>
      <trkpt lat="43.45031" lon="1.8807">
        <ele>297.67</ele>
        <time>2017-12-09T14:42:47Z</time>
      </trkpt>
      <trkpt lat="43.45032" lon="1.88083">
        <ele>299.11</ele>
        <time>2017-12-09T14:42:58Z</time>
      </trkpt>
      <trkpt lat="43.45031" lon="1.88088">
        <ele>299.59</ele>
        <time>2017-12-09T14:43:02Z</time>
      </trkpt>
      <trkpt lat="43.45031" lon="1.88106">
        <ele>300.55</ele>
        <time>2017-12-09T14:43:15Z</time>
      </trkpt>
      <trkpt lat="43.45032" lon="1.88111">
        <ele>301.51</ele>
        <time>2017-12-09T14:43:19Z</time>
      </trkpt>
      <trkpt lat="43.45031" lon="1.88116">
        <ele>301.51</ele>
        <time>2017-12-09T14:43:23Z</time>
      </trkpt>
      <trkpt lat="43.45027" lon="1.88135">
        <ele>302.95</ele>
        <time>2017-12-09T14:43:37Z</time>
      </trkpt>
      <trkpt lat="43.45025" lon="1.88151">
        <ele>303.91</ele>
        <time>2017-12-09T14:43:50Z</time>
      </trkpt>
      <trkpt lat="43.45024" lon="1.88158">
        <ele>304.88</ele>
        <time>2017-12-09T14:43:56Z</time>
      </trkpt>
      <trkpt lat="43.45024" lon="1.88175">
        <ele>306.32</ele>
        <time>2017-12-09T14:44:08Z</time>
      </trkpt>
      <trkpt lat="43.4502" lon="1.8819">
        <ele>307.28</ele>
        <time>2017-12-09T14:44:20Z</time>
      </trkpt>
      <trkpt lat="43.4502" lon="1.88191">
        <ele>307.28</ele>
        <time>2017-12-09T14:44:21Z</time>
      </trkpt>
      <trkpt lat="43.45018" lon="1.88203">
        <ele>308.24</ele>
        <time>2017-12-09T14:44:29Z</time>
      </trkpt>
      <trkpt lat="43.45016" lon="1.88205">
        <ele>308.24</ele>
        <time>2017-12-09T14:44:31Z</time>
      </trkpt>
      <trkpt lat="43.4501" lon="1.88227">
        <ele>309.68</ele>
        <time>2017-12-09T14:44:47Z</time>
      </trkpt>
      <trkpt lat="43.45004" lon="1.88242">
        <ele>311.12</ele>
        <time>2017-12-09T14:45:01Z</time>
      </trkpt>
      <trkpt lat="43.45" lon="1.88257">
        <ele>312.09</ele>
        <time>2017-12-09T14:45:13Z</time>
      </trkpt>
      <trkpt lat="43.44997" lon="1.88274">
        <ele>313.05</ele>
        <time>2017-12-09T14:45:26Z</time>
      </trkpt>
      <trkpt lat="43.44995" lon="1.8829">
        <ele>314.01</ele>
        <time>2017-12-09T14:45:39Z</time>
      </trkpt>
      <trkpt lat="43.44994" lon="1.88292">
        <ele>314.01</ele>
        <time>2017-12-09T14:45:41Z</time>
      </trkpt>
      <trkpt lat="43.44994" lon="1.88296">
        <ele>314.49</ele>
        <time>2017-12-09T14:45:44Z</time>
      </trkpt>
      <trkpt lat="43.44993" lon="1.88313">
        <ele>315.45</ele>
        <time>2017-12-09T14:45:58Z</time>
      </trkpt>
      <trkpt lat="43.44994" lon="1.88327">
        <ele>316.89</ele>
        <time>2017-12-09T14:46:11Z</time>
      </trkpt>
      <trkpt lat="43.44996" lon="1.8833">
        <ele>316.89</ele>
        <time>2017-12-09T14:46:14Z</time>
      </trkpt>
      <trkpt lat="43.44996" lon="1.88342">
        <ele>318.33</ele>
        <time>2017-12-09T14:46:25Z</time>
      </trkpt>
      <trkpt lat="43.44993" lon="1.88355">
        <ele>318.81</ele>
        <time>2017-12-09T14:46:40Z</time>
      </trkpt>
      <trkpt lat="43.44984" lon="1.88377">
        <ele>318.33</ele>
        <time>2017-12-09T14:46:57Z</time>
      </trkpt>
      <trkpt lat="43.44979" lon="1.88393">
        <ele>318.81</ele>
        <time>2017-12-09T14:47:07Z</time>
      </trkpt>
      <trkpt lat="43.44974" lon="1.88413">
        <ele>319.78</ele>
        <time>2017-12-09T14:47:21Z</time>
      </trkpt>
      <trkpt lat="43.44967" lon="1.88436">
        <ele>320.74</ele>
        <time>2017-12-09T14:47:38Z</time>
      </trkpt>
      <trkpt lat="43.44961" lon="1.88444">
        <ele>320.74</ele>
        <time>2017-12-09T14:47:52Z</time>
      </trkpt>
      <trkpt lat="43.44968" lon="1.88449">
        <ele>322.18</ele>
        <time>2017-12-09T14:48:06Z</time>
      </trkpt>
      <trkpt lat="43.44968" lon="1.88454">
        <ele>322.66</ele>
        <time>2017-12-09T14:48:11Z</time>
      </trkpt>
      <trkpt lat="43.44967" lon="1.88458">
        <ele>323.14</ele>
        <time>2017-12-09T14:48:13Z</time>
      </trkpt>
      <trkpt lat="43.44964" lon="1.88482">
        <ele>323.62</ele>
        <time>2017-12-09T14:48:30Z</time>
      </trkpt>
      <trkpt lat="43.44969" lon="1.88488">
        <ele>326.02</ele>
        <time>2017-12-09T14:48:43Z</time>
      </trkpt>
      <trkpt lat="43.44971" lon="1.88489">
        <ele>326.5</ele>
        <time>2017-12-09T14:48:46Z</time>
      </trkpt>
      <trkpt lat="43.44967" lon="1.88505">
        <ele>326.5</ele>
        <time>2017-12-09T14:49:00Z</time>
      </trkpt>
      <trkpt lat="43.44964" lon="1.88521">
        <ele>326.99</ele>
        <time>2017-12-09T14:50:38Z</time>
      </trkpt>
      <trkpt lat="43.44956" lon="1.88529">
        <ele>327.47</ele>
        <time>2017-12-09T14:50:55Z</time>
      </trkpt>
      <trkpt lat="43.4495" lon="1.88537">
        <ele>327.95</ele>
        <time>2017-12-09T14:51:07Z</time>
      </trkpt>
      <trkpt lat="43.44949" lon="1.88539">
        <ele>328.43</ele>
        <time>2017-12-09T14:51:10Z</time>
      </trkpt>
      <trkpt lat="43.44942" lon="1.88556">
        <ele>329.39</ele>
        <time>2017-12-09T14:51:26Z</time>
      </trkpt>
      <trkpt lat="43.44925" lon="1.88599">
        <ele>331.31</ele>
        <time>2017-12-09T14:52:02Z</time>
      </trkpt>
      <trkpt lat="43.44918" lon="1.88619">
        <ele>331.79</ele>
        <time>2017-12-09T14:52:20Z</time>
      </trkpt>
      <trkpt lat="43.44911" lon="1.8864">
        <ele>331.31</ele>
        <time>2017-12-09T14:52:38Z</time>
      </trkpt>
      <trkpt lat="43.44915" lon="1.88647">
        <ele>331.79</ele>
        <time>2017-12-09T14:52:59Z</time>
      </trkpt>
      <trkpt lat="43.44915" lon="1.88654">
        <ele>332.27</ele>
        <time>2017-12-09T14:56:30Z</time>
      </trkpt>
      <trkpt lat="43.44915" lon="1.8866">
        <ele>332.27</ele>
        <time>2017-12-09T14:56:49Z</time>
      </trkpt>
      <trkpt lat="43.44909" lon="1.88674">
        <ele>332.27</ele>
        <time>2017-12-09T14:57:02Z</time>
      </trkpt>
      <trkpt lat="43.44908" lon="1.8868">
        <ele>332.27</ele>
        <time>2017-12-09T14:57:07Z</time>
      </trkpt>
      <trkpt lat="43.44905" lon="1.88694">
        <ele>332.27</ele>
        <time>2017-12-09T14:57:20Z</time>
      </trkpt>
      <trkpt lat="43.44903" lon="1.88712">
        <ele>332.75</ele>
        <time>2017-12-09T14:57:44Z</time>
      </trkpt>
      <trkpt lat="43.44897" lon="1.8873">
        <ele>333.71</ele>
        <time>2017-12-09T14:58:00Z</time>
      </trkpt>
      <trkpt lat="43.44892" lon="1.88748">
        <ele>334.68</ele>
        <time>2017-12-09T14:58:13Z</time>
      </trkpt>
      <trkpt lat="43.44893" lon="1.88754">
        <ele>334.68</ele>
        <time>2017-12-09T14:58:23Z</time>
      </trkpt>
      <trkpt lat="43.44899" lon="1.88763">
        <ele>334.68</ele>
        <time>2017-12-09T14:58:34Z</time>
      </trkpt>
      <trkpt lat="43.44903" lon="1.88765">
        <ele>334.68</ele>
        <time>2017-12-09T14:58:39Z</time>
      </trkpt>
      <trkpt lat="43.44906" lon="1.88766">
        <ele>334.2</ele>
        <time>2017-12-09T14:58:43Z</time>
      </trkpt>
      <trkpt lat="43.4492" lon="1.88773">
        <ele>334.2</ele>
        <time>2017-12-09T14:58:59Z</time>
      </trkpt>
      <trkpt lat="43.44919" lon="1.88788">
        <ele>334.2</ele>
        <time>2017-12-09T14:59:11Z</time>
      </trkpt>
    </trkseg>
  </trk>
</gpx>